<?xml version="1.0" encoding="UTF-8" standalone="no" ?>
<gpx xmlns="http://www.topografix.com/GPX/1/1" xmlns:xsi="http://www.w3.org/2001/XMLSchema-instance" xsi:schemaLocation="http://www.topografix.com/GPX/1/1 http://www.topografix.com/GPX/1/1/gpx.xsd" version="1.1" creator="VisuGPX - https://www.visugpx.com">
  <metadata>
    <name>Saillant 4 Noir</name>
  </metadata>
  <trk>
    <name><![CDATA[Saillant 4 Noir_1]]></name>
    <trkseg>
      <trkpt lat="45.27225" lon="1.44148">
        <ele>127</ele>
        <time>2019-02-27T14:13:39+01:00</time>
      </trkpt>
      <trkpt lat="45.27231" lon="1.44146">
        <ele>127</ele>
        <time>2019-02-27T14:13:41+01:00</time>
      </trkpt>
      <trkpt lat="45.27239" lon="1.44174">
        <ele>126</ele>
        <time>2019-02-27T14:13:46+01:00</time>
      </trkpt>
      <trkpt lat="45.27248" lon="1.4425">
        <ele>124</ele>
        <time>2019-02-27T14:13:55+01:00</time>
      </trkpt>
      <trkpt lat="45.27257" lon="1.44334">
        <ele>122</ele>
        <time>2019-02-27T14:14:03+01:00</time>
      </trkpt>
      <trkpt lat="45.2727" lon="1.44418">
        <ele>123</ele>
        <time>2019-02-27T14:14:11+01:00</time>
      </trkpt>
      <trkpt lat="45.27275" lon="1.4445">
        <ele>125</ele>
        <time>2019-02-27T14:14:15+01:00</time>
      </trkpt>
      <trkpt lat="45.27297" lon="1.44443">
        <ele>126</ele>
        <time>2019-02-27T14:14:21+01:00</time>
      </trkpt>
      <trkpt lat="45.27334" lon="1.44414">
        <ele>126</ele>
        <time>2019-02-27T14:14:29+01:00</time>
      </trkpt>
      <trkpt lat="45.27368" lon="1.44397">
        <ele>127</ele>
        <time>2019-02-27T14:14:36+01:00</time>
      </trkpt>
      <trkpt lat="45.27415" lon="1.44355">
        <ele>128</ele>
        <time>2019-02-27T14:14:47+01:00</time>
      </trkpt>
      <trkpt lat="45.27458" lon="1.44302">
        <ele>131</ele>
        <time>2019-02-27T14:14:59+01:00</time>
      </trkpt>
      <trkpt lat="45.27461" lon="1.44297">
        <ele>131</ele>
        <time>2019-02-27T14:15:00+01:00</time>
      </trkpt>
      <trkpt lat="45.27503" lon="1.44267">
        <ele>130</ele>
        <time>2019-02-27T14:15:11+01:00</time>
      </trkpt>
      <trkpt lat="45.27538" lon="1.44228">
        <ele>131</ele>
        <time>2019-02-27T14:15:22+01:00</time>
      </trkpt>
      <trkpt lat="45.27578" lon="1.44173">
        <ele>129</ele>
        <time>2019-02-27T14:15:36+01:00</time>
      </trkpt>
      <trkpt lat="45.27624" lon="1.44128">
        <ele>133</ele>
        <time>2019-02-27T14:15:52+01:00</time>
      </trkpt>
      <trkpt lat="45.27671" lon="1.44084">
        <ele>135</ele>
        <time>2019-02-27T14:16:12+01:00</time>
      </trkpt>
      <trkpt lat="45.27709" lon="1.44135">
        <ele>139</ele>
        <time>2019-02-27T14:16:32+01:00</time>
      </trkpt>
      <trkpt lat="45.27746" lon="1.44195">
        <ele>144</ele>
        <time>2019-02-27T14:16:58+01:00</time>
      </trkpt>
      <trkpt lat="45.27775" lon="1.44258">
        <ele>148</ele>
        <time>2019-02-27T14:17:20+01:00</time>
      </trkpt>
      <trkpt lat="45.27788" lon="1.44335">
        <ele>151</ele>
        <time>2019-02-27T14:17:42+01:00</time>
      </trkpt>
      <trkpt lat="45.27802" lon="1.44411">
        <ele>158</ele>
        <time>2019-02-27T14:18:01+01:00</time>
      </trkpt>
      <trkpt lat="45.2782" lon="1.44483">
        <ele>165</ele>
        <time>2019-02-27T14:18:23+01:00</time>
      </trkpt>
      <trkpt lat="45.27843" lon="1.44555">
        <ele>169</ele>
        <time>2019-02-27T14:18:43+01:00</time>
      </trkpt>
      <trkpt lat="45.27846" lon="1.44633">
        <ele>175</ele>
        <time>2019-02-27T14:19:05+01:00</time>
      </trkpt>
      <trkpt lat="45.27854" lon="1.44687">
        <ele>178</ele>
        <time>2019-02-27T14:19:25+01:00</time>
      </trkpt>
      <trkpt lat="45.27849" lon="1.44707">
        <ele>179</ele>
        <time>2019-02-27T14:19:33+01:00</time>
      </trkpt>
      <trkpt lat="45.27875" lon="1.44771">
        <ele>183</ele>
        <time>2019-02-27T14:19:54+01:00</time>
      </trkpt>
      <trkpt lat="45.27916" lon="1.44824">
        <ele>188</ele>
        <time>2019-02-27T14:20:14+01:00</time>
      </trkpt>
      <trkpt lat="45.27968" lon="1.44856">
        <ele>193</ele>
        <time>2019-02-27T14:20:35+01:00</time>
      </trkpt>
      <trkpt lat="45.28015" lon="1.44895">
        <ele>197</ele>
        <time>2019-02-27T14:20:55+01:00</time>
      </trkpt>
      <trkpt lat="45.28069" lon="1.44878">
        <ele>201</ele>
        <time>2019-02-27T14:21:17+01:00</time>
      </trkpt>
      <trkpt lat="45.28124" lon="1.44877">
        <ele>204</ele>
        <time>2019-02-27T14:21:35+01:00</time>
      </trkpt>
      <trkpt lat="45.2818" lon="1.44877">
        <ele>206</ele>
        <time>2019-02-27T14:21:50+01:00</time>
      </trkpt>
      <trkpt lat="45.28235" lon="1.44884">
        <ele>207</ele>
        <time>2019-02-27T14:21:59+01:00</time>
      </trkpt>
      <trkpt lat="45.28293" lon="1.44894">
        <ele>208</ele>
        <time>2019-02-27T14:22:09+01:00</time>
      </trkpt>
      <trkpt lat="45.28347" lon="1.44913">
        <ele>211</ele>
        <time>2019-02-27T14:22:24+01:00</time>
      </trkpt>
      <trkpt lat="45.28401" lon="1.44932">
        <ele>220</ele>
        <time>2019-02-27T14:22:39+01:00</time>
      </trkpt>
      <trkpt lat="45.28455" lon="1.44943">
        <ele>228</ele>
        <time>2019-02-27T14:23:06+01:00</time>
      </trkpt>
      <trkpt lat="45.28475" lon="1.44942">
        <ele>232</ele>
        <time>2019-02-27T14:23:20+01:00</time>
      </trkpt>
      <trkpt lat="45.28498" lon="1.44872">
        <ele>235</ele>
        <time>2019-02-27T14:23:45+01:00</time>
      </trkpt>
      <trkpt lat="45.28532" lon="1.44809">
        <ele>237</ele>
        <time>2019-02-27T14:24:05+01:00</time>
      </trkpt>
      <trkpt lat="45.28542" lon="1.44793">
        <ele>237</ele>
        <time>2019-02-27T14:24:08+01:00</time>
      </trkpt>
      <trkpt lat="45.28589" lon="1.44772">
        <ele>239</ele>
        <time>2019-02-27T14:24:24+01:00</time>
      </trkpt>
      <trkpt lat="45.28639" lon="1.44802">
        <ele>245</ele>
        <time>2019-02-27T14:24:46+01:00</time>
      </trkpt>
      <trkpt lat="45.28685" lon="1.44846">
        <ele>253</ele>
        <time>2019-02-27T14:25:12+01:00</time>
      </trkpt>
      <trkpt lat="45.28718" lon="1.44906">
        <ele>261</ele>
        <time>2019-02-27T14:25:40+01:00</time>
      </trkpt>
      <trkpt lat="45.28744" lon="1.44973">
        <ele>273</ele>
        <time>2019-02-27T14:26:11+01:00</time>
      </trkpt>
      <trkpt lat="45.28784" lon="1.45012">
        <ele>282</ele>
        <time>2019-02-27T14:26:45+01:00</time>
      </trkpt>
      <trkpt lat="45.28835" lon="1.4499">
        <ele>283</ele>
        <time>2019-02-27T14:27:15+01:00</time>
      </trkpt>
      <trkpt lat="45.28883" lon="1.44959">
        <ele>282</ele>
        <time>2019-02-27T14:27:34+01:00</time>
      </trkpt>
      <trkpt lat="45.28892" lon="1.44958">
        <ele>283</ele>
        <time>2019-02-27T14:27:36+01:00</time>
      </trkpt>
      <trkpt lat="45.28908" lon="1.44965">
        <ele>285</ele>
        <time>2019-02-27T14:27:40+01:00</time>
      </trkpt>
      <trkpt lat="45.28963" lon="1.4498">
        <ele>286</ele>
        <time>2019-02-27T14:27:58+01:00</time>
      </trkpt>
      <trkpt lat="45.28992" lon="1.45003">
        <ele>288</ele>
        <time>2019-02-27T14:28:09+01:00</time>
      </trkpt>
      <trkpt lat="45.29017" lon="1.45075">
        <ele>301</ele>
        <time>2019-02-27T14:28:23+01:00</time>
      </trkpt>
      <trkpt lat="45.29019" lon="1.45081">
        <ele>302</ele>
        <time>2019-02-27T14:28:24+01:00</time>
      </trkpt>
      <trkpt lat="45.2904" lon="1.45088">
        <ele>301</ele>
        <time>2019-02-27T14:28:29+01:00</time>
      </trkpt>
      <trkpt lat="45.29095" lon="1.45082">
        <ele>295</ele>
        <time>2019-02-27T14:28:42+01:00</time>
      </trkpt>
      <trkpt lat="45.29134" lon="1.45133">
        <ele>308</ele>
        <time>2019-02-27T14:28:56+01:00</time>
      </trkpt>
      <trkpt lat="45.29143" lon="1.45137">
        <ele>308</ele>
        <time>2019-02-27T14:28:59+01:00</time>
      </trkpt>
      <trkpt lat="45.2917" lon="1.45124">
        <ele>305</ele>
        <time>2019-02-27T14:29:09+01:00</time>
      </trkpt>
      <trkpt lat="45.29181" lon="1.45109">
        <ele>303</ele>
        <time>2019-02-27T14:29:16+01:00</time>
      </trkpt>
      <trkpt lat="45.29232" lon="1.45087">
        <ele>304</ele>
        <time>2019-02-27T14:29:40+01:00</time>
      </trkpt>
      <trkpt lat="45.29287" lon="1.45087">
        <ele>312</ele>
        <time>2019-02-27T14:30:06+01:00</time>
      </trkpt>
      <trkpt lat="45.29338" lon="1.45114">
        <ele>323</ele>
        <time>2019-02-27T14:30:31+01:00</time>
      </trkpt>
      <trkpt lat="45.2934" lon="1.45116">
        <ele>323</ele>
        <time>2019-02-27T14:30:32+01:00</time>
      </trkpt>
      <trkpt lat="45.29349" lon="1.4512">
        <ele>323</ele>
        <time>2019-02-27T14:30:36+01:00</time>
      </trkpt>
      <trkpt lat="45.29399" lon="1.45154">
        <ele>323</ele>
        <time>2019-02-27T14:31:00+01:00</time>
      </trkpt>
      <trkpt lat="45.29408" lon="1.45168">
        <ele>324</ele>
        <time>2019-02-27T14:31:07+01:00</time>
      </trkpt>
      <trkpt lat="45.29414" lon="1.45185">
        <ele>326</ele>
        <time>2019-02-27T14:31:21+01:00</time>
      </trkpt>
      <trkpt lat="45.2944" lon="1.45254">
        <ele>334</ele>
        <time>2019-02-27T14:31:44+01:00</time>
      </trkpt>
      <trkpt lat="45.2947" lon="1.45312">
        <ele>339</ele>
        <time>2019-02-27T14:32:03+01:00</time>
      </trkpt>
      <trkpt lat="45.2952" lon="1.45273">
        <ele>335</ele>
        <time>2019-02-27T14:32:24+01:00</time>
      </trkpt>
      <trkpt lat="45.29563" lon="1.45229">
        <ele>340</ele>
        <time>2019-02-27T14:32:44+01:00</time>
      </trkpt>
      <trkpt lat="45.29581" lon="1.45182">
        <ele>339</ele>
        <time>2019-02-27T14:32:55+01:00</time>
      </trkpt>
      <trkpt lat="45.29587" lon="1.45164">
        <ele>338</ele>
        <time>2019-02-27T14:32:58+01:00</time>
      </trkpt>
      <trkpt lat="45.2959" lon="1.45152">
        <ele>337</ele>
        <time>2019-02-27T14:33:00+01:00</time>
      </trkpt>
      <trkpt lat="45.29592" lon="1.45141">
        <ele>336</ele>
        <time>2019-02-27T14:33:02+01:00</time>
      </trkpt>
      <trkpt lat="45.29588" lon="1.45065">
        <ele>326</ele>
        <time>2019-02-27T14:33:11+01:00</time>
      </trkpt>
      <trkpt lat="45.29637" lon="1.45042">
        <ele>330</ele>
        <time>2019-02-27T14:33:16+01:00</time>
      </trkpt>
      <trkpt lat="45.29647" lon="1.4504">
        <ele>332</ele>
        <time>2019-02-27T14:33:17+01:00</time>
      </trkpt>
      <trkpt lat="45.2966" lon="1.45015">
        <ele>334</ele>
        <time>2019-02-27T14:33:21+01:00</time>
      </trkpt>
      <trkpt lat="45.29658" lon="1.45008">
        <ele>334</ele>
        <time>2019-02-27T14:33:22+01:00</time>
      </trkpt>
      <trkpt lat="45.29625" lon="1.44947">
        <ele>334</ele>
        <time>2019-02-27T14:33:37+01:00</time>
      </trkpt>
      <trkpt lat="45.29589" lon="1.4489">
        <ele>335</ele>
        <time>2019-02-27T14:33:53+01:00</time>
      </trkpt>
      <trkpt lat="45.29539" lon="1.44859">
        <ele>337</ele>
        <time>2019-02-27T14:34:15+01:00</time>
      </trkpt>
      <trkpt lat="45.29487" lon="1.44836">
        <ele>337</ele>
        <time>2019-02-27T14:34:39+01:00</time>
      </trkpt>
      <trkpt lat="45.29439" lon="1.44793">
        <ele>334</ele>
        <time>2019-02-27T14:34:56+01:00</time>
      </trkpt>
      <trkpt lat="45.29436" lon="1.44778">
        <ele>335</ele>
        <time>2019-02-27T14:34:59+01:00</time>
      </trkpt>
      <trkpt lat="45.29447" lon="1.44759">
        <ele>337</ele>
        <time>2019-02-27T14:35:04+01:00</time>
      </trkpt>
      <trkpt lat="45.29495" lon="1.44751">
        <ele>344</ele>
        <time>2019-02-27T14:35:28+01:00</time>
      </trkpt>
      <trkpt lat="45.29551" lon="1.4475">
        <ele>349</ele>
        <time>2019-02-27T14:35:53+01:00</time>
      </trkpt>
      <trkpt lat="45.29605" lon="1.4474">
        <ele>352</ele>
        <time>2019-02-27T14:36:11+01:00</time>
      </trkpt>
      <trkpt lat="45.29659" lon="1.44733">
        <ele>356</ele>
        <time>2019-02-27T14:36:29+01:00</time>
      </trkpt>
      <trkpt lat="45.29671" lon="1.44728">
        <ele>357</ele>
        <time>2019-02-27T14:36:33+01:00</time>
      </trkpt>
      <trkpt lat="45.29676" lon="1.44714">
        <ele>357</ele>
        <time>2019-02-27T14:36:37+01:00</time>
      </trkpt>
      <trkpt lat="45.2969" lon="1.4465">
        <ele>356</ele>
        <time>2019-02-27T14:36:50+01:00</time>
      </trkpt>
      <trkpt lat="45.2967" lon="1.44626">
        <ele>353</ele>
        <time>2019-02-27T14:36:55+01:00</time>
      </trkpt>
      <trkpt lat="45.29623" lon="1.44583">
        <ele>348</ele>
        <time>2019-02-27T14:37:01+01:00</time>
      </trkpt>
      <trkpt lat="45.2958" lon="1.4453">
        <ele>341</ele>
        <time>2019-02-27T14:37:06+01:00</time>
      </trkpt>
      <trkpt lat="45.29535" lon="1.44487">
        <ele>333</ele>
        <time>2019-02-27T14:37:11+01:00</time>
      </trkpt>
      <trkpt lat="45.29481" lon="1.44451">
        <ele>326</ele>
        <time>2019-02-27T14:37:16+01:00</time>
      </trkpt>
      <trkpt lat="45.2943" lon="1.44413">
        <ele>320</ele>
        <time>2019-02-27T14:37:21+01:00</time>
      </trkpt>
      <trkpt lat="45.29402" lon="1.44404">
        <ele>316</ele>
        <time>2019-02-27T14:37:24+01:00</time>
      </trkpt>
      <trkpt lat="45.29392" lon="1.44357">
        <ele>312</ele>
        <time>2019-02-27T14:37:28+01:00</time>
      </trkpt>
      <trkpt lat="45.29386" lon="1.44295">
        <ele>307</ele>
        <time>2019-02-27T14:37:37+01:00</time>
      </trkpt>
      <trkpt lat="45.29368" lon="1.44296">
        <ele>304</ele>
        <time>2019-02-27T14:37:41+01:00</time>
      </trkpt>
      <trkpt lat="45.29355" lon="1.44301">
        <ele>302</ele>
        <time>2019-02-27T14:37:43+01:00</time>
      </trkpt>
      <trkpt lat="45.29323" lon="1.44334">
        <ele>300</ele>
        <time>2019-02-27T14:37:48+01:00</time>
      </trkpt>
      <trkpt lat="45.29303" lon="1.44362">
        <ele>296</ele>
        <time>2019-02-27T14:37:52+01:00</time>
      </trkpt>
      <trkpt lat="45.2929" lon="1.44377">
        <ele>293</ele>
        <time>2019-02-27T14:37:56+01:00</time>
      </trkpt>
      <trkpt lat="45.29266" lon="1.44315">
        <ele>286</ele>
        <time>2019-02-27T14:38:06+01:00</time>
      </trkpt>
      <trkpt lat="45.29262" lon="1.44309">
        <ele>284</ele>
        <time>2019-02-27T14:38:07+01:00</time>
      </trkpt>
      <trkpt lat="45.29259" lon="1.44271">
        <ele>282</ele>
        <time>2019-02-27T14:38:12+01:00</time>
      </trkpt>
      <trkpt lat="45.29259" lon="1.44265">
        <ele>281</ele>
        <time>2019-02-27T14:38:13+01:00</time>
      </trkpt>
      <trkpt lat="45.29211" lon="1.44247">
        <ele>270</ele>
        <time>2019-02-27T14:38:23+01:00</time>
      </trkpt>
      <trkpt lat="45.29206" lon="1.44245">
        <ele>268</ele>
        <time>2019-02-27T14:38:24+01:00</time>
      </trkpt>
      <trkpt lat="45.29182" lon="1.44193">
        <ele>259</ele>
        <time>2019-02-27T14:38:34+01:00</time>
      </trkpt>
      <trkpt lat="45.29183" lon="1.44182">
        <ele>258</ele>
        <time>2019-02-27T14:38:36+01:00</time>
      </trkpt>
      <trkpt lat="45.29189" lon="1.44144">
        <ele>255</ele>
        <time>2019-02-27T14:38:41+01:00</time>
      </trkpt>
      <trkpt lat="45.29191" lon="1.44127">
        <ele>254</ele>
        <time>2019-02-27T14:38:43+01:00</time>
      </trkpt>
      <trkpt lat="45.29205" lon="1.44084">
        <ele>252</ele>
        <time>2019-02-27T14:38:48+01:00</time>
      </trkpt>
      <trkpt lat="45.29232" lon="1.44052">
        <ele>247</ele>
        <time>2019-02-27T14:38:53+01:00</time>
      </trkpt>
      <trkpt lat="45.29238" lon="1.44045">
        <ele>246</ele>
        <time>2019-02-27T14:38:54+01:00</time>
      </trkpt>
      <trkpt lat="45.2927" lon="1.44002">
        <ele>240</ele>
        <time>2019-02-27T14:38:59+01:00</time>
      </trkpt>
      <trkpt lat="45.29288" lon="1.43984">
        <ele>242</ele>
        <time>2019-02-27T14:39:02+01:00</time>
      </trkpt>
      <trkpt lat="45.29302" lon="1.43971">
        <ele>244</ele>
        <time>2019-02-27T14:39:05+01:00</time>
      </trkpt>
      <trkpt lat="45.29293" lon="1.43951">
        <ele>243</ele>
        <time>2019-02-27T14:39:09+01:00</time>
      </trkpt>
      <trkpt lat="45.29266" lon="1.4393">
        <ele>241</ele>
        <time>2019-02-27T14:39:14+01:00</time>
      </trkpt>
      <trkpt lat="45.29245" lon="1.43923">
        <ele>241</ele>
        <time>2019-02-27T14:39:22+01:00</time>
      </trkpt>
      <trkpt lat="45.29239" lon="1.43921">
        <ele>241</ele>
        <time>2019-02-27T14:39:26+01:00</time>
      </trkpt>
      <trkpt lat="45.29183" lon="1.4391">
        <ele>241</ele>
        <time>2019-02-27T14:39:58+01:00</time>
      </trkpt>
      <trkpt lat="45.29152" lon="1.43912">
        <ele>239</ele>
        <time>2019-02-27T14:40:07+01:00</time>
      </trkpt>
      <trkpt lat="45.29135" lon="1.43914">
        <ele>237</ele>
        <time>2019-02-27T14:40:10+01:00</time>
      </trkpt>
      <trkpt lat="45.29115" lon="1.43913">
        <ele>236</ele>
        <time>2019-02-27T14:40:14+01:00</time>
      </trkpt>
      <trkpt lat="45.2911" lon="1.43894">
        <ele>236</ele>
        <time>2019-02-27T14:40:18+01:00</time>
      </trkpt>
      <trkpt lat="45.29115" lon="1.43871">
        <ele>238</ele>
        <time>2019-02-27T14:40:25+01:00</time>
      </trkpt>
      <trkpt lat="45.2917" lon="1.43871">
        <ele>243</ele>
        <time>2019-02-27T14:40:49+01:00</time>
      </trkpt>
      <trkpt lat="45.29223" lon="1.43856">
        <ele>249</ele>
        <time>2019-02-27T14:41:14+01:00</time>
      </trkpt>
      <trkpt lat="45.29273" lon="1.43823">
        <ele>257</ele>
        <time>2019-02-27T14:41:40+01:00</time>
      </trkpt>
      <trkpt lat="45.29321" lon="1.43805">
        <ele>262</ele>
        <time>2019-02-27T14:42:08+01:00</time>
      </trkpt>
      <trkpt lat="45.29369" lon="1.43772">
        <ele>270</ele>
        <time>2019-02-27T14:42:37+01:00</time>
      </trkpt>
      <trkpt lat="45.29416" lon="1.43732">
        <ele>277</ele>
        <time>2019-02-27T14:42:58+01:00</time>
      </trkpt>
      <trkpt lat="45.29458" lon="1.43685">
        <ele>280</ele>
        <time>2019-02-27T14:43:18+01:00</time>
      </trkpt>
      <trkpt lat="45.29505" lon="1.43642">
        <ele>282</ele>
        <time>2019-02-27T14:43:34+01:00</time>
      </trkpt>
      <trkpt lat="45.29558" lon="1.43624">
        <ele>289</ele>
        <time>2019-02-27T14:43:51+01:00</time>
      </trkpt>
      <trkpt lat="45.29607" lon="1.43589">
        <ele>290</ele>
        <time>2019-02-27T14:44:08+01:00</time>
      </trkpt>
      <trkpt lat="45.29658" lon="1.43563">
        <ele>290</ele>
        <time>2019-02-27T14:44:24+01:00</time>
      </trkpt>
      <trkpt lat="45.29682" lon="1.4355">
        <ele>290</ele>
        <time>2019-02-27T14:44:29+01:00</time>
      </trkpt>
      <trkpt lat="45.29711" lon="1.43507">
        <ele>287</ele>
        <time>2019-02-27T14:44:35+01:00</time>
      </trkpt>
      <trkpt lat="45.29743" lon="1.4346">
        <ele>288</ele>
        <time>2019-02-27T14:44:45+01:00</time>
      </trkpt>
      <trkpt lat="45.29761" lon="1.43444">
        <ele>288</ele>
        <time>2019-02-27T14:44:50+01:00</time>
      </trkpt>
      <trkpt lat="45.29796" lon="1.43444">
        <ele>287</ele>
        <time>2019-02-27T14:44:59+01:00</time>
      </trkpt>
      <trkpt lat="45.2982" lon="1.43458">
        <ele>289</ele>
        <time>2019-02-27T14:45:03+01:00</time>
      </trkpt>
      <trkpt lat="45.29865" lon="1.43465">
        <ele>288</ele>
        <time>2019-02-27T14:45:08+01:00</time>
      </trkpt>
      <trkpt lat="45.29897" lon="1.43468">
        <ele>285</ele>
        <time>2019-02-27T14:45:12+01:00</time>
      </trkpt>
      <trkpt lat="45.29913" lon="1.43463">
        <ele>283</ele>
        <time>2019-02-27T14:45:14+01:00</time>
      </trkpt>
      <trkpt lat="45.29932" lon="1.43434">
        <ele>280</ele>
        <time>2019-02-27T14:45:18+01:00</time>
      </trkpt>
      <trkpt lat="45.29938" lon="1.43417">
        <ele>277</ele>
        <time>2019-02-27T14:45:20+01:00</time>
      </trkpt>
      <trkpt lat="45.29946" lon="1.43398">
        <ele>276</ele>
        <time>2019-02-27T14:45:23+01:00</time>
      </trkpt>
      <trkpt lat="45.2996" lon="1.43383">
        <ele>277</ele>
        <time>2019-02-27T14:45:27+01:00</time>
      </trkpt>
      <trkpt lat="45.30008" lon="1.4334">
        <ele>279</ele>
        <time>2019-02-27T14:45:40+01:00</time>
      </trkpt>
      <trkpt lat="45.30062" lon="1.43313">
        <ele>281</ele>
        <time>2019-02-27T14:45:54+01:00</time>
      </trkpt>
      <trkpt lat="45.30116" lon="1.43298">
        <ele>281</ele>
        <time>2019-02-27T14:46:08+01:00</time>
      </trkpt>
      <trkpt lat="45.30171" lon="1.43313">
        <ele>289</ele>
        <time>2019-02-27T14:46:25+01:00</time>
      </trkpt>
      <trkpt lat="45.30227" lon="1.43327">
        <ele>292</ele>
        <time>2019-02-27T14:46:43+01:00</time>
      </trkpt>
      <trkpt lat="45.30279" lon="1.43348">
        <ele>296</ele>
        <time>2019-02-27T14:47:00+01:00</time>
      </trkpt>
      <trkpt lat="45.30336" lon="1.43356">
        <ele>296</ele>
        <time>2019-02-27T14:47:12+01:00</time>
      </trkpt>
      <trkpt lat="45.30337" lon="1.43327">
        <ele>293</ele>
        <time>2019-02-27T14:47:21+01:00</time>
      </trkpt>
      <trkpt lat="45.30323" lon="1.43306">
        <ele>294</ele>
        <time>2019-02-27T14:47:30+01:00</time>
      </trkpt>
      <trkpt lat="45.30302" lon="1.43285">
        <ele>293</ele>
        <time>2019-02-27T14:47:34+01:00</time>
      </trkpt>
      <trkpt lat="45.3029" lon="1.43271">
        <ele>292</ele>
        <time>2019-02-27T14:47:37+01:00</time>
      </trkpt>
      <trkpt lat="45.30281" lon="1.43265">
        <ele>290</ele>
        <time>2019-02-27T14:47:39+01:00</time>
      </trkpt>
      <trkpt lat="45.30272" lon="1.43258">
        <ele>288</ele>
        <time>2019-02-27T14:47:41+01:00</time>
      </trkpt>
      <trkpt lat="45.30246" lon="1.43241">
        <ele>284</ele>
        <time>2019-02-27T14:47:46+01:00</time>
      </trkpt>
      <trkpt lat="45.30229" lon="1.43214">
        <ele>284</ele>
        <time>2019-02-27T14:47:51+01:00</time>
      </trkpt>
      <trkpt lat="45.30189" lon="1.43147">
        <ele>280</ele>
        <time>2019-02-27T14:48:01+01:00</time>
      </trkpt>
      <trkpt lat="45.30184" lon="1.43136">
        <ele>281</ele>
        <time>2019-02-27T14:48:02+01:00</time>
      </trkpt>
      <trkpt lat="45.30171" lon="1.43119">
        <ele>281</ele>
        <time>2019-02-27T14:48:04+01:00</time>
      </trkpt>
      <trkpt lat="45.30146" lon="1.43103">
        <ele>277</ele>
        <time>2019-02-27T14:48:07+01:00</time>
      </trkpt>
      <trkpt lat="45.30085" lon="1.43075">
        <ele>264</ele>
        <time>2019-02-27T14:48:13+01:00</time>
      </trkpt>
      <trkpt lat="45.3005" lon="1.43058">
        <ele>266</ele>
        <time>2019-02-27T14:48:17+01:00</time>
      </trkpt>
      <trkpt lat="45.30028" lon="1.43049">
        <ele>267</ele>
        <time>2019-02-27T14:48:20+01:00</time>
      </trkpt>
      <trkpt lat="45.29989" lon="1.43037">
        <ele>265</ele>
        <time>2019-02-27T14:48:26+01:00</time>
      </trkpt>
      <trkpt lat="45.29958" lon="1.43022">
        <ele>264</ele>
        <time>2019-02-27T14:48:36+01:00</time>
      </trkpt>
      <trkpt lat="45.29944" lon="1.43002">
        <ele>266</ele>
        <time>2019-02-27T14:48:44+01:00</time>
      </trkpt>
      <trkpt lat="45.29943" lon="1.42992">
        <ele>267</ele>
        <time>2019-02-27T14:48:48+01:00</time>
      </trkpt>
      <trkpt lat="45.29946" lon="1.42988">
        <ele>268</ele>
        <time>2019-02-27T14:48:52+01:00</time>
      </trkpt>
      <trkpt lat="45.2995" lon="1.42989">
        <ele>269</ele>
        <time>2019-02-27T14:48:56+01:00</time>
      </trkpt>
      <trkpt lat="45.29959" lon="1.42993">
        <ele>271</ele>
        <time>2019-02-27T14:49:05+01:00</time>
      </trkpt>
      <trkpt lat="45.29965" lon="1.42991">
        <ele>273</ele>
        <time>2019-02-27T14:49:10+01:00</time>
      </trkpt>
      <trkpt lat="45.29971" lon="1.42945">
        <ele>281</ele>
        <time>2019-02-27T14:49:46+01:00</time>
      </trkpt>
      <trkpt lat="45.29976" lon="1.42939">
        <ele>283</ele>
        <time>2019-02-27T14:49:52+01:00</time>
      </trkpt>
      <trkpt lat="45.29996" lon="1.42921">
        <ele>292</ele>
        <time>2019-02-27T14:50:14+01:00</time>
      </trkpt>
      <trkpt lat="45.30027" lon="1.42903">
        <ele>296</ele>
        <time>2019-02-27T14:50:41+01:00</time>
      </trkpt>
      <trkpt lat="45.30038" lon="1.42904">
        <ele>298</ele>
        <time>2019-02-27T14:50:49+01:00</time>
      </trkpt>
      <trkpt lat="45.30093" lon="1.42918">
        <ele>308</ele>
        <time>2019-02-27T14:51:24+01:00</time>
      </trkpt>
      <trkpt lat="45.30111" lon="1.42919">
        <ele>310</ele>
        <time>2019-02-27T14:51:36+01:00</time>
      </trkpt>
      <trkpt lat="45.30116" lon="1.42917">
        <ele>311</ele>
        <time>2019-02-27T14:51:40+01:00</time>
      </trkpt>
      <trkpt lat="45.30153" lon="1.42857">
        <ele>310</ele>
        <time>2019-02-27T14:52:00+01:00</time>
      </trkpt>
      <trkpt lat="45.30163" lon="1.42846">
        <ele>310</ele>
        <time>2019-02-27T14:52:02+01:00</time>
      </trkpt>
      <trkpt lat="45.30184" lon="1.42841">
        <ele>309</ele>
        <time>2019-02-27T14:52:06+01:00</time>
      </trkpt>
      <trkpt lat="45.30238" lon="1.42856">
        <ele>312</ele>
        <time>2019-02-27T14:52:30+01:00</time>
      </trkpt>
      <trkpt lat="45.30292" lon="1.42853">
        <ele>316</ele>
        <time>2019-02-27T14:52:47+01:00</time>
      </trkpt>
      <trkpt lat="45.30347" lon="1.42838">
        <ele>321</ele>
        <time>2019-02-27T14:53:01+01:00</time>
      </trkpt>
      <trkpt lat="45.304" lon="1.42813">
        <ele>328</ele>
        <time>2019-02-27T14:53:30+01:00</time>
      </trkpt>
      <trkpt lat="45.30428" lon="1.42749">
        <ele>327</ele>
        <time>2019-02-27T14:53:55+01:00</time>
      </trkpt>
      <trkpt lat="45.30433" lon="1.42741">
        <ele>327</ele>
        <time>2019-02-27T14:53:58+01:00</time>
      </trkpt>
      <trkpt lat="45.30471" lon="1.42738">
        <ele>332</ele>
        <time>2019-02-27T14:54:16+01:00</time>
      </trkpt>
      <trkpt lat="45.30517" lon="1.42706">
        <ele>336</ele>
        <time>2019-02-27T14:54:26+01:00</time>
      </trkpt>
      <trkpt lat="45.30535" lon="1.42659">
        <ele>335</ele>
        <time>2019-02-27T14:54:31+01:00</time>
      </trkpt>
      <trkpt lat="45.30537" lon="1.42596">
        <ele>327</ele>
        <time>2019-02-27T14:54:39+01:00</time>
      </trkpt>
      <trkpt lat="45.30534" lon="1.42567">
        <ele>323</ele>
        <time>2019-02-27T14:54:42+01:00</time>
      </trkpt>
      <trkpt lat="45.30537" lon="1.42514">
        <ele>316</ele>
        <time>2019-02-27T14:54:46+01:00</time>
      </trkpt>
      <trkpt lat="45.30549" lon="1.42442">
        <ele>308</ele>
        <time>2019-02-27T14:54:52+01:00</time>
      </trkpt>
      <trkpt lat="45.30554" lon="1.42433">
        <ele>307</ele>
        <time>2019-02-27T14:54:53+01:00</time>
      </trkpt>
      <trkpt lat="45.30565" lon="1.42416">
        <ele>307</ele>
        <time>2019-02-27T14:54:55+01:00</time>
      </trkpt>
      <trkpt lat="45.30594" lon="1.42401">
        <ele>312</ele>
        <time>2019-02-27T14:54:59+01:00</time>
      </trkpt>
      <trkpt lat="45.30581" lon="1.42328">
        <ele>307</ele>
        <time>2019-02-27T14:55:07+01:00</time>
      </trkpt>
      <trkpt lat="45.30544" lon="1.42263">
        <ele>293</ele>
        <time>2019-02-27T14:55:13+01:00</time>
      </trkpt>
      <trkpt lat="45.30526" lon="1.42219">
        <ele>284</ele>
        <time>2019-02-27T14:55:17+01:00</time>
      </trkpt>
      <trkpt lat="45.30549" lon="1.42154">
        <ele>283</ele>
        <time>2019-02-27T14:55:26+01:00</time>
      </trkpt>
      <trkpt lat="45.30573" lon="1.42126">
        <ele>281</ele>
        <time>2019-02-27T14:55:31+01:00</time>
      </trkpt>
      <trkpt lat="45.30597" lon="1.42081">
        <ele>273</ele>
        <time>2019-02-27T14:55:41+01:00</time>
      </trkpt>
      <trkpt lat="45.30546" lon="1.42093">
        <ele>269</ele>
        <time>2019-02-27T14:55:48+01:00</time>
      </trkpt>
      <trkpt lat="45.3049" lon="1.42117">
        <ele>264</ele>
        <time>2019-02-27T14:55:55+01:00</time>
      </trkpt>
      <trkpt lat="45.30474" lon="1.42129">
        <ele>261</ele>
        <time>2019-02-27T14:55:58+01:00</time>
      </trkpt>
      <trkpt lat="45.30469" lon="1.42069">
        <ele>251</ele>
        <time>2019-02-27T14:56:08+01:00</time>
      </trkpt>
      <trkpt lat="45.30485" lon="1.42055">
        <ele>251</ele>
        <time>2019-02-27T14:56:11+01:00</time>
      </trkpt>
      <trkpt lat="45.30508" lon="1.42034">
        <ele>249</ele>
        <time>2019-02-27T14:56:16+01:00</time>
      </trkpt>
      <trkpt lat="45.30525" lon="1.42021">
        <ele>248</ele>
        <time>2019-02-27T14:56:20+01:00</time>
      </trkpt>
      <trkpt lat="45.30529" lon="1.42015">
        <ele>248</ele>
        <time>2019-02-27T14:56:22+01:00</time>
      </trkpt>
      <trkpt lat="45.30503" lon="1.4201">
        <ele>242</ele>
        <time>2019-02-27T14:56:28+01:00</time>
      </trkpt>
      <trkpt lat="45.30482" lon="1.42006">
        <ele>238</ele>
        <time>2019-02-27T14:56:31+01:00</time>
      </trkpt>
      <trkpt lat="45.30421" lon="1.42004">
        <ele>230</ele>
        <time>2019-02-27T14:56:38+01:00</time>
      </trkpt>
      <trkpt lat="45.30369" lon="1.42012">
        <ele>219</ele>
        <time>2019-02-27T14:56:44+01:00</time>
      </trkpt>
      <trkpt lat="45.30364" lon="1.41967">
        <ele>209</ele>
        <time>2019-02-27T14:56:55+01:00</time>
      </trkpt>
      <trkpt lat="45.30392" lon="1.41935">
        <ele>208</ele>
        <time>2019-02-27T14:56:59+01:00</time>
      </trkpt>
      <trkpt lat="45.3044" lon="1.41897">
        <ele>206</ele>
        <time>2019-02-27T14:57:05+01:00</time>
      </trkpt>
      <trkpt lat="45.3048" lon="1.41876">
        <ele>206</ele>
        <time>2019-02-27T14:57:10+01:00</time>
      </trkpt>
      <trkpt lat="45.30498" lon="1.41874">
        <ele>208</ele>
        <time>2019-02-27T14:57:13+01:00</time>
      </trkpt>
      <trkpt lat="45.30457" lon="1.41827">
        <ele>190</ele>
        <time>2019-02-27T14:57:23+01:00</time>
      </trkpt>
      <trkpt lat="45.3041" lon="1.41825">
        <ele>181</ele>
        <time>2019-02-27T14:57:29+01:00</time>
      </trkpt>
      <trkpt lat="45.30403" lon="1.41827">
        <ele>181</ele>
        <time>2019-02-27T14:57:30+01:00</time>
      </trkpt>
      <trkpt lat="45.30386" lon="1.41834">
        <ele>179</ele>
        <time>2019-02-27T14:57:33+01:00</time>
      </trkpt>
      <trkpt lat="45.30355" lon="1.41852">
        <ele>177</ele>
        <time>2019-02-27T14:57:38+01:00</time>
      </trkpt>
      <trkpt lat="45.30337" lon="1.4186">
        <ele>175</ele>
        <time>2019-02-27T14:57:41+01:00</time>
      </trkpt>
      <trkpt lat="45.30332" lon="1.41819">
        <ele>165</ele>
        <time>2019-02-27T14:57:49+01:00</time>
      </trkpt>
      <trkpt lat="45.30331" lon="1.41772">
        <ele>158</ele>
        <time>2019-02-27T14:57:54+01:00</time>
      </trkpt>
      <trkpt lat="45.30318" lon="1.41741">
        <ele>154</ele>
        <time>2019-02-27T14:57:59+01:00</time>
      </trkpt>
      <trkpt lat="45.30317" lon="1.41738">
        <ele>154</ele>
        <time>2019-02-27T14:58:00+01:00</time>
      </trkpt>
      <trkpt lat="45.30333" lon="1.41707">
        <ele>153</ele>
        <time>2019-02-27T14:58:08+01:00</time>
      </trkpt>
      <trkpt lat="45.30368" lon="1.41657">
        <ele>151</ele>
        <time>2019-02-27T14:58:16+01:00</time>
      </trkpt>
      <trkpt lat="45.30416" lon="1.41617">
        <ele>151</ele>
        <time>2019-02-27T14:58:25+01:00</time>
      </trkpt>
      <trkpt lat="45.30466" lon="1.41581">
        <ele>151</ele>
        <time>2019-02-27T14:58:35+01:00</time>
      </trkpt>
      <trkpt lat="45.30477" lon="1.41577">
        <ele>151</ele>
        <time>2019-02-27T14:58:37+01:00</time>
      </trkpt>
      <trkpt lat="45.30535" lon="1.41579">
        <ele>154</ele>
        <time>2019-02-27T14:58:47+01:00</time>
      </trkpt>
      <trkpt lat="45.30572" lon="1.4157">
        <ele>155</ele>
        <time>2019-02-27T14:58:54+01:00</time>
      </trkpt>
      <trkpt lat="45.30589" lon="1.41555">
        <ele>155</ele>
        <time>2019-02-27T14:58:58+01:00</time>
      </trkpt>
      <trkpt lat="45.30629" lon="1.41504">
        <ele>152</ele>
        <time>2019-02-27T14:59:09+01:00</time>
      </trkpt>
      <trkpt lat="45.30663" lon="1.41459">
        <ele>153</ele>
        <time>2019-02-27T14:59:17+01:00</time>
      </trkpt>
      <trkpt lat="45.30675" lon="1.41441">
        <ele>155</ele>
        <time>2019-02-27T14:59:21+01:00</time>
      </trkpt>
      <trkpt lat="45.30689" lon="1.41448">
        <ele>156</ele>
        <time>2019-02-27T14:59:26+01:00</time>
      </trkpt>
      <trkpt lat="45.30726" lon="1.41502">
        <ele>157</ele>
        <time>2019-02-27T14:59:42+01:00</time>
      </trkpt>
      <trkpt lat="45.30725" lon="1.41514">
        <ele>157</ele>
        <time>2019-02-27T14:59:44+01:00</time>
      </trkpt>
      <trkpt lat="45.30711" lon="1.4154">
        <ele>155</ele>
        <time>2019-02-27T14:59:48+01:00</time>
      </trkpt>
      <trkpt lat="45.30708" lon="1.41547">
        <ele>155</ele>
        <time>2019-02-27T14:59:49+01:00</time>
      </trkpt>
      <trkpt lat="45.30715" lon="1.4158">
        <ele>154</ele>
        <time>2019-02-27T14:59:54+01:00</time>
      </trkpt>
      <trkpt lat="45.30722" lon="1.41595">
        <ele>156</ele>
        <time>2019-02-27T14:59:57+01:00</time>
      </trkpt>
      <trkpt lat="45.30735" lon="1.41609">
        <ele>157</ele>
        <time>2019-02-27T15:00:01+01:00</time>
      </trkpt>
      <trkpt lat="45.3075" lon="1.41618">
        <ele>157</ele>
        <time>2019-02-27T15:00:07+01:00</time>
      </trkpt>
      <trkpt lat="45.30804" lon="1.41608">
        <ele>164</ele>
        <time>2019-02-27T15:00:35+01:00</time>
      </trkpt>
      <trkpt lat="45.30807" lon="1.41608">
        <ele>164</ele>
        <time>2019-02-27T15:00:37+01:00</time>
      </trkpt>
      <trkpt lat="45.30811" lon="1.41609">
        <ele>165</ele>
        <time>2019-02-27T15:00:39+01:00</time>
      </trkpt>
      <trkpt lat="45.30818" lon="1.41612">
        <ele>166</ele>
        <time>2019-02-27T15:00:47+01:00</time>
      </trkpt>
      <trkpt lat="45.30826" lon="1.41614">
        <ele>167</ele>
        <time>2019-02-27T15:01:01+01:00</time>
      </trkpt>
      <trkpt lat="45.30833" lon="1.41615">
        <ele>167</ele>
        <time>2019-02-27T15:01:06+01:00</time>
      </trkpt>
      <trkpt lat="45.30838" lon="1.41583">
        <ele>172</ele>
        <time>2019-02-27T15:01:25+01:00</time>
      </trkpt>
      <trkpt lat="45.30835" lon="1.41562">
        <ele>175</ele>
        <time>2019-02-27T15:01:36+01:00</time>
      </trkpt>
      <trkpt lat="45.30835" lon="1.41553">
        <ele>177</ele>
        <time>2019-02-27T15:01:40+01:00</time>
      </trkpt>
      <trkpt lat="45.30834" lon="1.4155">
        <ele>177</ele>
        <time>2019-02-27T15:01:42+01:00</time>
      </trkpt>
      <trkpt lat="45.3083" lon="1.41542">
        <ele>177</ele>
        <time>2019-02-27T15:01:47+01:00</time>
      </trkpt>
      <trkpt lat="45.30822" lon="1.41498">
        <ele>181</ele>
        <time>2019-02-27T15:02:14+01:00</time>
      </trkpt>
      <trkpt lat="45.30819" lon="1.41482">
        <ele>181</ele>
        <time>2019-02-27T15:02:23+01:00</time>
      </trkpt>
      <trkpt lat="45.30819" lon="1.41475">
        <ele>182</ele>
        <time>2019-02-27T15:02:27+01:00</time>
      </trkpt>
      <trkpt lat="45.30818" lon="1.41466">
        <ele>183</ele>
        <time>2019-02-27T15:02:32+01:00</time>
      </trkpt>
      <trkpt lat="45.30818" lon="1.41451">
        <ele>185</ele>
        <time>2019-02-27T15:02:40+01:00</time>
      </trkpt>
      <trkpt lat="45.30818" lon="1.4145">
        <ele>185</ele>
        <time>2019-02-27T15:02:41+01:00</time>
      </trkpt>
      <trkpt lat="45.30818" lon="1.41438">
        <ele>186</ele>
        <time>2019-02-27T15:02:47+01:00</time>
      </trkpt>
      <trkpt lat="45.30818" lon="1.41425">
        <ele>187</ele>
        <time>2019-02-27T15:02:53+01:00</time>
      </trkpt>
      <trkpt lat="45.3082" lon="1.41407">
        <ele>189</ele>
        <time>2019-02-27T15:03:01+01:00</time>
      </trkpt>
      <trkpt lat="45.30846" lon="1.4134">
        <ele>198</ele>
        <time>2019-02-27T15:03:37+01:00</time>
      </trkpt>
      <trkpt lat="45.30862" lon="1.41318">
        <ele>203</ele>
        <time>2019-02-27T15:03:50+01:00</time>
      </trkpt>
      <trkpt lat="45.30897" lon="1.41256">
        <ele>208</ele>
        <time>2019-02-27T15:04:20+01:00</time>
      </trkpt>
      <trkpt lat="45.30937" lon="1.41202">
        <ele>213</ele>
        <time>2019-02-27T15:04:50+01:00</time>
      </trkpt>
      <trkpt lat="45.30961" lon="1.41183">
        <ele>217</ele>
        <time>2019-02-27T15:05:06+01:00</time>
      </trkpt>
      <trkpt lat="45.30991" lon="1.41159">
        <ele>223</ele>
        <time>2019-02-27T15:05:32+01:00</time>
      </trkpt>
      <trkpt lat="45.30999" lon="1.41136">
        <ele>225</ele>
        <time>2019-02-27T15:05:52+01:00</time>
      </trkpt>
      <trkpt lat="45.30998" lon="1.41098">
        <ele>223</ele>
        <time>2019-02-27T15:06:13+01:00</time>
      </trkpt>
      <trkpt lat="45.31029" lon="1.41034">
        <ele>229</ele>
        <time>2019-02-27T15:06:47+01:00</time>
      </trkpt>
      <trkpt lat="45.3107" lon="1.40984">
        <ele>236</ele>
        <time>2019-02-27T15:07:12+01:00</time>
      </trkpt>
      <trkpt lat="45.31093" lon="1.40955">
        <ele>238</ele>
        <time>2019-02-27T15:07:27+01:00</time>
      </trkpt>
      <trkpt lat="45.31112" lon="1.40944">
        <ele>241</ele>
        <time>2019-02-27T15:07:37+01:00</time>
      </trkpt>
      <trkpt lat="45.31113" lon="1.40943">
        <ele>242</ele>
        <time>2019-02-27T15:07:40+01:00</time>
      </trkpt>
      <trkpt lat="45.3112" lon="1.4094">
        <ele>243</ele>
        <time>2019-02-27T15:08:02+01:00</time>
      </trkpt>
      <trkpt lat="45.31124" lon="1.40938">
        <ele>244</ele>
        <time>2019-02-27T15:08:04+01:00</time>
      </trkpt>
      <trkpt lat="45.31132" lon="1.4094">
        <ele>246</ele>
        <time>2019-02-27T15:08:08+01:00</time>
      </trkpt>
      <trkpt lat="45.31144" lon="1.40942">
        <ele>249</ele>
        <time>2019-02-27T15:08:17+01:00</time>
      </trkpt>
      <trkpt lat="45.31154" lon="1.40932">
        <ele>250</ele>
        <time>2019-02-27T15:08:25+01:00</time>
      </trkpt>
      <trkpt lat="45.31193" lon="1.40894">
        <ele>253</ele>
        <time>2019-02-27T15:09:03+01:00</time>
      </trkpt>
      <trkpt lat="45.31198" lon="1.40893">
        <ele>254</ele>
        <time>2019-02-27T15:09:07+01:00</time>
      </trkpt>
      <trkpt lat="45.31207" lon="1.40889">
        <ele>255</ele>
        <time>2019-02-27T15:09:14+01:00</time>
      </trkpt>
      <trkpt lat="45.31258" lon="1.40903">
        <ele>267</ele>
        <time>2019-02-27T15:09:42+01:00</time>
      </trkpt>
      <trkpt lat="45.31284" lon="1.4092">
        <ele>274</ele>
        <time>2019-02-27T15:09:53+01:00</time>
      </trkpt>
      <trkpt lat="45.3129" lon="1.40913">
        <ele>275</ele>
        <time>2019-02-27T15:09:57+01:00</time>
      </trkpt>
      <trkpt lat="45.31297" lon="1.40896">
        <ele>275</ele>
        <time>2019-02-27T15:10:06+01:00</time>
      </trkpt>
      <trkpt lat="45.31303" lon="1.40857">
        <ele>274</ele>
        <time>2019-02-27T15:10:23+01:00</time>
      </trkpt>
      <trkpt lat="45.31304" lon="1.40847">
        <ele>273</ele>
        <time>2019-02-27T15:10:27+01:00</time>
      </trkpt>
      <trkpt lat="45.31332" lon="1.40787">
        <ele>276</ele>
        <time>2019-02-27T15:10:58+01:00</time>
      </trkpt>
      <trkpt lat="45.31384" lon="1.40766">
        <ele>286</ele>
        <time>2019-02-27T15:11:31+01:00</time>
      </trkpt>
      <trkpt lat="45.31435" lon="1.40742">
        <ele>293</ele>
        <time>2019-02-27T15:12:08+01:00</time>
      </trkpt>
      <trkpt lat="45.31485" lon="1.40714">
        <ele>297</ele>
        <time>2019-02-27T15:12:40+01:00</time>
      </trkpt>
      <trkpt lat="45.31537" lon="1.40726">
        <ele>303</ele>
        <time>2019-02-27T15:13:09+01:00</time>
      </trkpt>
      <trkpt lat="45.31587" lon="1.40741">
        <ele>309</ele>
        <time>2019-02-27T15:13:26+01:00</time>
      </trkpt>
      <trkpt lat="45.31633" lon="1.40701">
        <ele>307</ele>
        <time>2019-02-27T15:13:44+01:00</time>
      </trkpt>
      <trkpt lat="45.31685" lon="1.40673">
        <ele>308</ele>
        <time>2019-02-27T15:14:00+01:00</time>
      </trkpt>
      <trkpt lat="45.31739" lon="1.40649">
        <ele>311</ele>
        <time>2019-02-27T15:14:19+01:00</time>
      </trkpt>
      <trkpt lat="45.31794" lon="1.40635">
        <ele>316</ele>
        <time>2019-02-27T15:14:40+01:00</time>
      </trkpt>
      <trkpt lat="45.31842" lon="1.40598">
        <ele>317</ele>
        <time>2019-02-27T15:15:01+01:00</time>
      </trkpt>
      <trkpt lat="45.31876" lon="1.40564">
        <ele>319</ele>
        <time>2019-02-27T15:15:12+01:00</time>
      </trkpt>
      <trkpt lat="45.31879" lon="1.40539">
        <ele>320</ele>
        <time>2019-02-27T15:15:16+01:00</time>
      </trkpt>
      <trkpt lat="45.31906" lon="1.40471">
        <ele>325</ele>
        <time>2019-02-27T15:15:41+01:00</time>
      </trkpt>
      <trkpt lat="45.31939" lon="1.4041">
        <ele>331</ele>
        <time>2019-02-27T15:16:15+01:00</time>
      </trkpt>
      <trkpt lat="45.31938" lon="1.40408">
        <ele>332</ele>
        <time>2019-02-27T15:16:16+01:00</time>
      </trkpt>
      <trkpt lat="45.31908" lon="1.40375">
        <ele>329</ele>
        <time>2019-02-27T15:16:28+01:00</time>
      </trkpt>
      <trkpt lat="45.31899" lon="1.40364">
        <ele>328</ele>
        <time>2019-02-27T15:16:30+01:00</time>
      </trkpt>
      <trkpt lat="45.31855" lon="1.40314">
        <ele>321</ele>
        <time>2019-02-27T15:16:38+01:00</time>
      </trkpt>
      <trkpt lat="45.31851" lon="1.40306">
        <ele>321</ele>
        <time>2019-02-27T15:16:40+01:00</time>
      </trkpt>
      <trkpt lat="45.31856" lon="1.40293">
        <ele>322</ele>
        <time>2019-02-27T15:16:45+01:00</time>
      </trkpt>
      <trkpt lat="45.31867" lon="1.40224">
        <ele>327</ele>
        <time>2019-02-27T15:17:04+01:00</time>
      </trkpt>
      <trkpt lat="45.31821" lon="1.40184">
        <ele>324</ele>
        <time>2019-02-27T15:17:20+01:00</time>
      </trkpt>
      <trkpt lat="45.31816" lon="1.40181">
        <ele>323</ele>
        <time>2019-02-27T15:17:21+01:00</time>
      </trkpt>
      <trkpt lat="45.31793" lon="1.40176">
        <ele>320</ele>
        <time>2019-02-27T15:17:25+01:00</time>
      </trkpt>
      <trkpt lat="45.31766" lon="1.40171">
        <ele>316</ele>
        <time>2019-02-27T15:17:29+01:00</time>
      </trkpt>
      <trkpt lat="45.31743" lon="1.4016">
        <ele>313</ele>
        <time>2019-02-27T15:17:32+01:00</time>
      </trkpt>
      <trkpt lat="45.31716" lon="1.40131">
        <ele>308</ele>
        <time>2019-02-27T15:17:36+01:00</time>
      </trkpt>
      <trkpt lat="45.3169" lon="1.40098">
        <ele>304</ele>
        <time>2019-02-27T15:17:40+01:00</time>
      </trkpt>
      <trkpt lat="45.31667" lon="1.40064">
        <ele>300</ele>
        <time>2019-02-27T15:17:44+01:00</time>
      </trkpt>
      <trkpt lat="45.31651" lon="1.40033">
        <ele>297</ele>
        <time>2019-02-27T15:17:48+01:00</time>
      </trkpt>
      <trkpt lat="45.31657" lon="1.4002">
        <ele>298</ele>
        <time>2019-02-27T15:17:52+01:00</time>
      </trkpt>
      <trkpt lat="45.31709" lon="1.39997">
        <ele>303</ele>
        <time>2019-02-27T15:18:16+01:00</time>
      </trkpt>
      <trkpt lat="45.31762" lon="1.39988">
        <ele>308</ele>
        <time>2019-02-27T15:18:43+01:00</time>
      </trkpt>
      <trkpt lat="45.31816" lon="1.39971">
        <ele>312</ele>
        <time>2019-02-27T15:19:05+01:00</time>
      </trkpt>
      <trkpt lat="45.31865" lon="1.39953">
        <ele>315</ele>
        <time>2019-02-27T15:19:22+01:00</time>
      </trkpt>
      <trkpt lat="45.31889" lon="1.39955">
        <ele>318</ele>
        <time>2019-02-27T15:19:32+01:00</time>
      </trkpt>
      <trkpt lat="45.31929" lon="1.39903">
        <ele>318</ele>
        <time>2019-02-27T15:19:56+01:00</time>
      </trkpt>
      <trkpt lat="45.31984" lon="1.39897">
        <ele>326</ele>
        <time>2019-02-27T15:20:18+01:00</time>
      </trkpt>
      <trkpt lat="45.32023" lon="1.39879">
        <ele>327</ele>
        <time>2019-02-27T15:20:41+01:00</time>
      </trkpt>
      <trkpt lat="45.3203" lon="1.3988">
        <ele>327</ele>
        <time>2019-02-27T15:20:45+01:00</time>
      </trkpt>
      <trkpt lat="45.32084" lon="1.399">
        <ele>332</ele>
        <time>2019-02-27T15:21:10+01:00</time>
      </trkpt>
      <trkpt lat="45.32139" lon="1.399">
        <ele>332</ele>
        <time>2019-02-27T15:21:25+01:00</time>
      </trkpt>
      <trkpt lat="45.32196" lon="1.39895">
        <ele>333</ele>
        <time>2019-02-27T15:21:39+01:00</time>
      </trkpt>
      <trkpt lat="45.32251" lon="1.39892">
        <ele>336</ele>
        <time>2019-02-27T15:22:01+01:00</time>
      </trkpt>
      <trkpt lat="45.32301" lon="1.39863">
        <ele>339</ele>
        <time>2019-02-27T15:22:28+01:00</time>
      </trkpt>
      <trkpt lat="45.32311" lon="1.39871">
        <ele>340</ele>
        <time>2019-02-27T15:22:32+01:00</time>
      </trkpt>
      <trkpt lat="45.32358" lon="1.39908">
        <ele>344</ele>
        <time>2019-02-27T15:22:53+01:00</time>
      </trkpt>
      <trkpt lat="45.32407" lon="1.39937">
        <ele>348</ele>
        <time>2019-02-27T15:23:12+01:00</time>
      </trkpt>
      <trkpt lat="45.32418" lon="1.39919">
        <ele>348</ele>
        <time>2019-02-27T15:23:16+01:00</time>
      </trkpt>
      <trkpt lat="45.32421" lon="1.39911">
        <ele>348</ele>
        <time>2019-02-27T15:23:17+01:00</time>
      </trkpt>
      <trkpt lat="45.32428" lon="1.39878">
        <ele>345</ele>
        <time>2019-02-27T15:23:20+01:00</time>
      </trkpt>
      <trkpt lat="45.32432" lon="1.39853">
        <ele>344</ele>
        <time>2019-02-27T15:23:22+01:00</time>
      </trkpt>
      <trkpt lat="45.32447" lon="1.39816">
        <ele>343</ele>
        <time>2019-02-27T15:23:26+01:00</time>
      </trkpt>
      <trkpt lat="45.32432" lon="1.39777">
        <ele>341</ele>
        <time>2019-02-27T15:23:32+01:00</time>
      </trkpt>
      <trkpt lat="45.3239" lon="1.39721">
        <ele>333</ele>
        <time>2019-02-27T15:23:39+01:00</time>
      </trkpt>
      <trkpt lat="45.32384" lon="1.39711">
        <ele>332</ele>
        <time>2019-02-27T15:23:40+01:00</time>
      </trkpt>
      <trkpt lat="45.32363" lon="1.39669">
        <ele>324</ele>
        <time>2019-02-27T15:23:44+01:00</time>
      </trkpt>
      <trkpt lat="45.32357" lon="1.39649">
        <ele>322</ele>
        <time>2019-02-27T15:23:46+01:00</time>
      </trkpt>
      <trkpt lat="45.32382" lon="1.39582">
        <ele>322</ele>
        <time>2019-02-27T15:23:54+01:00</time>
      </trkpt>
      <trkpt lat="45.32378" lon="1.39559">
        <ele>322</ele>
        <time>2019-02-27T15:23:58+01:00</time>
      </trkpt>
      <trkpt lat="45.32366" lon="1.39531">
        <ele>323</ele>
        <time>2019-02-27T15:24:03+01:00</time>
      </trkpt>
      <trkpt lat="45.32349" lon="1.39528">
        <ele>324</ele>
        <time>2019-02-27T15:24:08+01:00</time>
      </trkpt>
      <trkpt lat="45.32337" lon="1.39537">
        <ele>324</ele>
        <time>2019-02-27T15:24:11+01:00</time>
      </trkpt>
      <trkpt lat="45.32316" lon="1.39561">
        <ele>322</ele>
        <time>2019-02-27T15:24:17+01:00</time>
      </trkpt>
      <trkpt lat="45.32301" lon="1.39581">
        <ele>319</ele>
        <time>2019-02-27T15:24:21+01:00</time>
      </trkpt>
      <trkpt lat="45.32258" lon="1.39587">
        <ele>320</ele>
        <time>2019-02-27T15:24:28+01:00</time>
      </trkpt>
      <trkpt lat="45.32216" lon="1.39574">
        <ele>317</ele>
        <time>2019-02-27T15:24:35+01:00</time>
      </trkpt>
      <trkpt lat="45.32163" lon="1.39551">
        <ele>315</ele>
        <time>2019-02-27T15:24:43+01:00</time>
      </trkpt>
      <trkpt lat="45.32129" lon="1.39535">
        <ele>314</ele>
        <time>2019-02-27T15:24:49+01:00</time>
      </trkpt>
      <trkpt lat="45.32108" lon="1.39521">
        <ele>315</ele>
        <time>2019-02-27T15:24:53+01:00</time>
      </trkpt>
      <trkpt lat="45.32061" lon="1.39529">
        <ele>305</ele>
        <time>2019-02-27T15:25:01+01:00</time>
      </trkpt>
      <trkpt lat="45.32039" lon="1.39524">
        <ele>302</ele>
        <time>2019-02-27T15:25:04+01:00</time>
      </trkpt>
      <trkpt lat="45.32014" lon="1.39485">
        <ele>304</ele>
        <time>2019-02-27T15:25:09+01:00</time>
      </trkpt>
      <trkpt lat="45.3201" lon="1.39476">
        <ele>304</ele>
        <time>2019-02-27T15:25:10+01:00</time>
      </trkpt>
      <trkpt lat="45.32005" lon="1.39469">
        <ele>304</ele>
        <time>2019-02-27T15:25:11+01:00</time>
      </trkpt>
      <trkpt lat="45.31973" lon="1.39451">
        <ele>300</ele>
        <time>2019-02-27T15:25:17+01:00</time>
      </trkpt>
      <trkpt lat="45.31939" lon="1.39439">
        <ele>293</ele>
        <time>2019-02-27T15:25:23+01:00</time>
      </trkpt>
      <trkpt lat="45.31914" lon="1.39422">
        <ele>289</ele>
        <time>2019-02-27T15:25:29+01:00</time>
      </trkpt>
      <trkpt lat="45.31897" lon="1.39341">
        <ele>287</ele>
        <time>2019-02-27T15:25:38+01:00</time>
      </trkpt>
      <trkpt lat="45.31895" lon="1.39307">
        <ele>284</ele>
        <time>2019-02-27T15:25:41+01:00</time>
      </trkpt>
      <trkpt lat="45.3191" lon="1.39226">
        <ele>278</ele>
        <time>2019-02-27T15:25:48+01:00</time>
      </trkpt>
      <trkpt lat="45.31938" lon="1.39156">
        <ele>274</ele>
        <time>2019-02-27T15:25:55+01:00</time>
      </trkpt>
      <trkpt lat="45.31943" lon="1.39148">
        <ele>274</ele>
        <time>2019-02-27T15:25:56+01:00</time>
      </trkpt>
      <trkpt lat="45.31959" lon="1.39123">
        <ele>272</ele>
        <time>2019-02-27T15:26:00+01:00</time>
      </trkpt>
      <trkpt lat="45.31968" lon="1.39113">
        <ele>272</ele>
        <time>2019-02-27T15:26:04+01:00</time>
      </trkpt>
      <trkpt lat="45.31997" lon="1.39076">
        <ele>270</ele>
        <time>2019-02-27T15:26:14+01:00</time>
      </trkpt>
      <trkpt lat="45.32004" lon="1.39051">
        <ele>268</ele>
        <time>2019-02-27T15:26:17+01:00</time>
      </trkpt>
      <trkpt lat="45.32" lon="1.39013">
        <ele>262</ele>
        <time>2019-02-27T15:26:22+01:00</time>
      </trkpt>
      <trkpt lat="45.31999" lon="1.39006">
        <ele>261</ele>
        <time>2019-02-27T15:26:23+01:00</time>
      </trkpt>
      <trkpt lat="45.32006" lon="1.38956">
        <ele>260</ele>
        <time>2019-02-27T15:26:30+01:00</time>
      </trkpt>
      <trkpt lat="45.32011" lon="1.38932">
        <ele>259</ele>
        <time>2019-02-27T15:26:33+01:00</time>
      </trkpt>
      <trkpt lat="45.32029" lon="1.38899">
        <ele>260</ele>
        <time>2019-02-27T15:26:40+01:00</time>
      </trkpt>
      <trkpt lat="45.32078" lon="1.38865">
        <ele>266</ele>
        <time>2019-02-27T15:27:00+01:00</time>
      </trkpt>
      <trkpt lat="45.32127" lon="1.38833">
        <ele>269</ele>
        <time>2019-02-27T15:27:24+01:00</time>
      </trkpt>
      <trkpt lat="45.32163" lon="1.3882">
        <ele>271</ele>
        <time>2019-02-27T15:27:40+01:00</time>
      </trkpt>
      <trkpt lat="45.32186" lon="1.38818">
        <ele>272</ele>
        <time>2019-02-27T15:27:44+01:00</time>
      </trkpt>
      <trkpt lat="45.32191" lon="1.38816">
        <ele>272</ele>
        <time>2019-02-27T15:27:45+01:00</time>
      </trkpt>
      <trkpt lat="45.32207" lon="1.38793">
        <ele>271</ele>
        <time>2019-02-27T15:27:49+01:00</time>
      </trkpt>
      <trkpt lat="45.32213" lon="1.38781">
        <ele>270</ele>
        <time>2019-02-27T15:27:51+01:00</time>
      </trkpt>
      <trkpt lat="45.32231" lon="1.38777">
        <ele>271</ele>
        <time>2019-02-27T15:27:58+01:00</time>
      </trkpt>
      <trkpt lat="45.32281" lon="1.38805">
        <ele>279</ele>
        <time>2019-02-27T15:28:23+01:00</time>
      </trkpt>
      <trkpt lat="45.32286" lon="1.38809">
        <ele>280</ele>
        <time>2019-02-27T15:28:26+01:00</time>
      </trkpt>
      <trkpt lat="45.32303" lon="1.38805">
        <ele>281</ele>
        <time>2019-02-27T15:28:32+01:00</time>
      </trkpt>
      <trkpt lat="45.3232" lon="1.38803">
        <ele>283</ele>
        <time>2019-02-27T15:28:36+01:00</time>
      </trkpt>
      <trkpt lat="45.32347" lon="1.38761">
        <ele>280</ele>
        <time>2019-02-27T15:28:44+01:00</time>
      </trkpt>
      <trkpt lat="45.32354" lon="1.38732">
        <ele>277</ele>
        <time>2019-02-27T15:28:48+01:00</time>
      </trkpt>
      <trkpt lat="45.32367" lon="1.3871">
        <ele>276</ele>
        <time>2019-02-27T15:28:52+01:00</time>
      </trkpt>
      <trkpt lat="45.3239" lon="1.38686">
        <ele>274</ele>
        <time>2019-02-27T15:28:57+01:00</time>
      </trkpt>
      <trkpt lat="45.32421" lon="1.38662">
        <ele>271</ele>
        <time>2019-02-27T15:29:05+01:00</time>
      </trkpt>
      <trkpt lat="45.32453" lon="1.38672">
        <ele>275</ele>
        <time>2019-02-27T15:29:12+01:00</time>
      </trkpt>
      <trkpt lat="45.32477" lon="1.38698">
        <ele>282</ele>
        <time>2019-02-27T15:29:18+01:00</time>
      </trkpt>
      <trkpt lat="45.32502" lon="1.38723">
        <ele>289</ele>
        <time>2019-02-27T15:29:24+01:00</time>
      </trkpt>
      <trkpt lat="45.32508" lon="1.38695">
        <ele>285</ele>
        <time>2019-02-27T15:29:31+01:00</time>
      </trkpt>
      <trkpt lat="45.32504" lon="1.38627">
        <ele>271</ele>
        <time>2019-02-27T15:29:39+01:00</time>
      </trkpt>
      <trkpt lat="45.32504" lon="1.38589">
        <ele>265</ele>
        <time>2019-02-27T15:29:43+01:00</time>
      </trkpt>
      <trkpt lat="45.32502" lon="1.38514">
        <ele>259</ele>
        <time>2019-02-27T15:29:50+01:00</time>
      </trkpt>
      <trkpt lat="45.32493" lon="1.38475">
        <ele>255</ele>
        <time>2019-02-27T15:29:54+01:00</time>
      </trkpt>
      <trkpt lat="45.32509" lon="1.3842">
        <ele>257</ele>
        <time>2019-02-27T15:30:01+01:00</time>
      </trkpt>
      <trkpt lat="45.32523" lon="1.38391">
        <ele>255</ele>
        <time>2019-02-27T15:30:05+01:00</time>
      </trkpt>
      <trkpt lat="45.32541" lon="1.3839">
        <ele>259</ele>
        <time>2019-02-27T15:30:09+01:00</time>
      </trkpt>
      <trkpt lat="45.32546" lon="1.38392">
        <ele>260</ele>
        <time>2019-02-27T15:30:10+01:00</time>
      </trkpt>
      <trkpt lat="45.32559" lon="1.38375">
        <ele>260</ele>
        <time>2019-02-27T15:30:14+01:00</time>
      </trkpt>
      <trkpt lat="45.32562" lon="1.3837">
        <ele>260</ele>
        <time>2019-02-27T15:30:15+01:00</time>
      </trkpt>
      <trkpt lat="45.32594" lon="1.38306">
        <ele>254</ele>
        <time>2019-02-27T15:30:33+01:00</time>
      </trkpt>
      <trkpt lat="45.32621" lon="1.38269">
        <ele>252</ele>
        <time>2019-02-27T15:30:43+01:00</time>
      </trkpt>
      <trkpt lat="45.32669" lon="1.38234">
        <ele>256</ele>
        <time>2019-02-27T15:30:58+01:00</time>
      </trkpt>
      <trkpt lat="45.32698" lon="1.38215">
        <ele>257</ele>
        <time>2019-02-27T15:31:06+01:00</time>
      </trkpt>
      <trkpt lat="45.32726" lon="1.38195">
        <ele>258</ele>
        <time>2019-02-27T15:31:15+01:00</time>
      </trkpt>
      <trkpt lat="45.32774" lon="1.38157">
        <ele>257</ele>
        <time>2019-02-27T15:31:31+01:00</time>
      </trkpt>
      <trkpt lat="45.32786" lon="1.38155">
        <ele>258</ele>
        <time>2019-02-27T15:31:36+01:00</time>
      </trkpt>
      <trkpt lat="45.32835" lon="1.38137">
        <ele>262</ele>
        <time>2019-02-27T15:32:02+01:00</time>
      </trkpt>
      <trkpt lat="45.32887" lon="1.38138">
        <ele>266</ele>
        <time>2019-02-27T15:32:36+01:00</time>
      </trkpt>
      <trkpt lat="45.32893" lon="1.3814">
        <ele>268</ele>
        <time>2019-02-27T15:32:41+01:00</time>
      </trkpt>
      <trkpt lat="45.32896" lon="1.38142">
        <ele>268</ele>
        <time>2019-02-27T15:32:44+01:00</time>
      </trkpt>
      <trkpt lat="45.32898" lon="1.38142">
        <ele>269</ele>
        <time>2019-02-27T15:32:47+01:00</time>
      </trkpt>
      <trkpt lat="45.3292" lon="1.38166">
        <ele>278</ele>
        <time>2019-02-27T15:33:19+01:00</time>
      </trkpt>
      <trkpt lat="45.32925" lon="1.38179">
        <ele>280</ele>
        <time>2019-02-27T15:33:27+01:00</time>
      </trkpt>
      <trkpt lat="45.32927" lon="1.38252">
        <ele>295</ele>
        <time>2019-02-27T15:34:10+01:00</time>
      </trkpt>
      <trkpt lat="45.32927" lon="1.38257">
        <ele>295</ele>
        <time>2019-02-27T15:34:13+01:00</time>
      </trkpt>
      <trkpt lat="45.32925" lon="1.38266">
        <ele>297</ele>
        <time>2019-02-27T15:34:18+01:00</time>
      </trkpt>
      <trkpt lat="45.32922" lon="1.38281">
        <ele>299</ele>
        <time>2019-02-27T15:34:28+01:00</time>
      </trkpt>
      <trkpt lat="45.32918" lon="1.38292">
        <ele>301</ele>
        <time>2019-02-27T15:34:36+01:00</time>
      </trkpt>
      <trkpt lat="45.32891" lon="1.38358">
        <ele>312</ele>
        <time>2019-02-27T15:35:17+01:00</time>
      </trkpt>
      <trkpt lat="45.32879" lon="1.38399">
        <ele>316</ele>
        <time>2019-02-27T15:35:36+01:00</time>
      </trkpt>
      <trkpt lat="45.32875" lon="1.38407">
        <ele>316</ele>
        <time>2019-02-27T15:35:40+01:00</time>
      </trkpt>
      <trkpt lat="45.32873" lon="1.38415">
        <ele>317</ele>
        <time>2019-02-27T15:35:44+01:00</time>
      </trkpt>
      <trkpt lat="45.32875" lon="1.38481">
        <ele>324</ele>
        <time>2019-02-27T15:36:21+01:00</time>
      </trkpt>
      <trkpt lat="45.32878" lon="1.38479">
        <ele>323</ele>
        <time>2019-02-27T15:36:25+01:00</time>
      </trkpt>
      <trkpt lat="45.32886" lon="1.38476">
        <ele>323</ele>
        <time>2019-02-27T15:36:33+01:00</time>
      </trkpt>
      <trkpt lat="45.32891" lon="1.38473">
        <ele>323</ele>
        <time>2019-02-27T15:36:37+01:00</time>
      </trkpt>
      <trkpt lat="45.32916" lon="1.38454">
        <ele>320</ele>
        <time>2019-02-27T15:36:54+01:00</time>
      </trkpt>
      <trkpt lat="45.32946" lon="1.38455">
        <ele>318</ele>
        <time>2019-02-27T15:37:09+01:00</time>
      </trkpt>
      <trkpt lat="45.32946" lon="1.38464">
        <ele>320</ele>
        <time>2019-02-27T15:37:14+01:00</time>
      </trkpt>
      <trkpt lat="45.3295" lon="1.38498">
        <ele>325</ele>
        <time>2019-02-27T15:37:34+01:00</time>
      </trkpt>
      <trkpt lat="45.32951" lon="1.38504">
        <ele>325</ele>
        <time>2019-02-27T15:37:38+01:00</time>
      </trkpt>
      <trkpt lat="45.32953" lon="1.38521">
        <ele>327</ele>
        <time>2019-02-27T15:37:49+01:00</time>
      </trkpt>
      <trkpt lat="45.3297" lon="1.38593">
        <ele>335</ele>
        <time>2019-02-27T15:38:25+01:00</time>
      </trkpt>
      <trkpt lat="45.32944" lon="1.38659">
        <ele>340</ele>
        <time>2019-02-27T15:38:53+01:00</time>
      </trkpt>
      <trkpt lat="45.32934" lon="1.38737">
        <ele>341</ele>
        <time>2019-02-27T15:39:15+01:00</time>
      </trkpt>
      <trkpt lat="45.32968" lon="1.38798">
        <ele>345</ele>
        <time>2019-02-27T15:39:33+01:00</time>
      </trkpt>
      <trkpt lat="45.32991" lon="1.38868">
        <ele>350</ele>
        <time>2019-02-27T15:39:53+01:00</time>
      </trkpt>
      <trkpt lat="45.33019" lon="1.38933">
        <ele>355</ele>
        <time>2019-02-27T15:40:13+01:00</time>
      </trkpt>
      <trkpt lat="45.33045" lon="1.39">
        <ele>356</ele>
        <time>2019-02-27T15:40:31+01:00</time>
      </trkpt>
      <trkpt lat="45.33063" lon="1.39026">
        <ele>355</ele>
        <time>2019-02-27T15:40:37+01:00</time>
      </trkpt>
      <trkpt lat="45.33101" lon="1.3908">
        <ele>354</ele>
        <time>2019-02-27T15:40:48+01:00</time>
      </trkpt>
      <trkpt lat="45.33137" lon="1.39137">
        <ele>356</ele>
        <time>2019-02-27T15:41:00+01:00</time>
      </trkpt>
      <trkpt lat="45.33179" lon="1.39193">
        <ele>357</ele>
        <time>2019-02-27T15:41:17+01:00</time>
      </trkpt>
      <trkpt lat="45.33213" lon="1.39254">
        <ele>357</ele>
        <time>2019-02-27T15:41:34+01:00</time>
      </trkpt>
      <trkpt lat="45.33243" lon="1.39321">
        <ele>358</ele>
        <time>2019-02-27T15:41:48+01:00</time>
      </trkpt>
      <trkpt lat="45.3328" lon="1.39378">
        <ele>359</ele>
        <time>2019-02-27T15:42:02+01:00</time>
      </trkpt>
      <trkpt lat="45.33314" lon="1.39443">
        <ele>361</ele>
        <time>2019-02-27T15:42:18+01:00</time>
      </trkpt>
      <trkpt lat="45.33309" lon="1.3948">
        <ele>361</ele>
        <time>2019-02-27T15:42:27+01:00</time>
      </trkpt>
      <trkpt lat="45.33306" lon="1.39527">
        <ele>361</ele>
        <time>2019-02-27T15:42:34+01:00</time>
      </trkpt>
      <trkpt lat="45.33297" lon="1.39611">
        <ele>362</ele>
        <time>2019-02-27T15:42:44+01:00</time>
      </trkpt>
      <trkpt lat="45.33296" lon="1.39636">
        <ele>363</ele>
        <time>2019-02-27T15:42:47+01:00</time>
      </trkpt>
      <trkpt lat="45.33301" lon="1.39689">
        <ele>364</ele>
        <time>2019-02-27T15:42:54+01:00</time>
      </trkpt>
      <trkpt lat="45.33291" lon="1.39742">
        <ele>366</ele>
        <time>2019-02-27T15:43:06+01:00</time>
      </trkpt>
      <trkpt lat="45.33269" lon="1.39743">
        <ele>365</ele>
        <time>2019-02-27T15:43:11+01:00</time>
      </trkpt>
      <trkpt lat="45.33253" lon="1.39746">
        <ele>365</ele>
        <time>2019-02-27T15:43:14+01:00</time>
      </trkpt>
      <trkpt lat="45.33199" lon="1.39776">
        <ele>364</ele>
        <time>2019-02-27T15:43:24+01:00</time>
      </trkpt>
      <trkpt lat="45.33188" lon="1.39784">
        <ele>364</ele>
        <time>2019-02-27T15:43:26+01:00</time>
      </trkpt>
      <trkpt lat="45.3317" lon="1.39809">
        <ele>364</ele>
        <time>2019-02-27T15:43:30+01:00</time>
      </trkpt>
      <trkpt lat="45.3315" lon="1.39848">
        <ele>367</ele>
        <time>2019-02-27T15:43:36+01:00</time>
      </trkpt>
      <trkpt lat="45.33154" lon="1.39882">
        <ele>369</ele>
        <time>2019-02-27T15:43:41+01:00</time>
      </trkpt>
      <trkpt lat="45.33152" lon="1.39901">
        <ele>371</ele>
        <time>2019-02-27T15:43:44+01:00</time>
      </trkpt>
      <trkpt lat="45.3314" lon="1.39978">
        <ele>375</ele>
        <time>2019-02-27T15:44:02+01:00</time>
      </trkpt>
      <trkpt lat="45.33131" lon="1.40054">
        <ele>378</ele>
        <time>2019-02-27T15:44:22+01:00</time>
      </trkpt>
      <trkpt lat="45.33118" lon="1.4013">
        <ele>381</ele>
        <time>2019-02-27T15:44:42+01:00</time>
      </trkpt>
      <trkpt lat="45.33109" lon="1.40156">
        <ele>382</ele>
        <time>2019-02-27T15:44:51+01:00</time>
      </trkpt>
      <trkpt lat="45.33052" lon="1.40149">
        <ele>382</ele>
        <time>2019-02-27T15:45:08+01:00</time>
      </trkpt>
      <trkpt lat="45.32998" lon="1.4014">
        <ele>380</ele>
        <time>2019-02-27T15:45:23+01:00</time>
      </trkpt>
      <trkpt lat="45.32962" lon="1.40147">
        <ele>380</ele>
        <time>2019-02-27T15:45:34+01:00</time>
      </trkpt>
      <trkpt lat="45.32995" lon="1.40209">
        <ele>381</ele>
        <time>2019-02-27T15:45:53+01:00</time>
      </trkpt>
      <trkpt lat="45.33012" lon="1.40236">
        <ele>381</ele>
        <time>2019-02-27T15:45:59+01:00</time>
      </trkpt>
      <trkpt lat="45.33037" lon="1.40305">
        <ele>381</ele>
        <time>2019-02-27T15:46:12+01:00</time>
      </trkpt>
      <trkpt lat="45.3305" lon="1.40333">
        <ele>381</ele>
        <time>2019-02-27T15:46:19+01:00</time>
      </trkpt>
      <trkpt lat="45.33099" lon="1.40369">
        <ele>382</ele>
        <time>2019-02-27T15:46:38+01:00</time>
      </trkpt>
      <trkpt lat="45.33112" lon="1.40398">
        <ele>382</ele>
        <time>2019-02-27T15:46:43+01:00</time>
      </trkpt>
      <trkpt lat="45.3312" lon="1.40415">
        <ele>382</ele>
        <time>2019-02-27T15:46:45+01:00</time>
      </trkpt>
      <trkpt lat="45.33143" lon="1.40487">
        <ele>378</ele>
        <time>2019-02-27T15:46:51+01:00</time>
      </trkpt>
      <trkpt lat="45.33153" lon="1.40526">
        <ele>375</ele>
        <time>2019-02-27T15:46:54+01:00</time>
      </trkpt>
      <trkpt lat="45.33169" lon="1.40607">
        <ele>367</ele>
        <time>2019-02-27T15:47:00+01:00</time>
      </trkpt>
      <trkpt lat="45.33176" lon="1.40647">
        <ele>365</ele>
        <time>2019-02-27T15:47:03+01:00</time>
      </trkpt>
      <trkpt lat="45.33159" lon="1.40729">
        <ele>359</ele>
        <time>2019-02-27T15:47:10+01:00</time>
      </trkpt>
      <trkpt lat="45.3315" lon="1.40757">
        <ele>357</ele>
        <time>2019-02-27T15:47:13+01:00</time>
      </trkpt>
      <trkpt lat="45.33165" lon="1.40764">
        <ele>355</ele>
        <time>2019-02-27T15:47:19+01:00</time>
      </trkpt>
      <trkpt lat="45.3317" lon="1.40764">
        <ele>354</ele>
        <time>2019-02-27T15:47:20+01:00</time>
      </trkpt>
      <trkpt lat="45.33184" lon="1.40769">
        <ele>354</ele>
        <time>2019-02-27T15:47:23+01:00</time>
      </trkpt>
      <trkpt lat="45.33205" lon="1.40795">
        <ele>351</ele>
        <time>2019-02-27T15:47:28+01:00</time>
      </trkpt>
      <trkpt lat="45.33211" lon="1.4081">
        <ele>350</ele>
        <time>2019-02-27T15:47:30+01:00</time>
      </trkpt>
      <trkpt lat="45.33209" lon="1.40867">
        <ele>350</ele>
        <time>2019-02-27T15:47:37+01:00</time>
      </trkpt>
      <trkpt lat="45.33176" lon="1.40929">
        <ele>351</ele>
        <time>2019-02-27T15:47:53+01:00</time>
      </trkpt>
      <trkpt lat="45.33202" lon="1.40995">
        <ele>356</ele>
        <time>2019-02-27T15:48:09+01:00</time>
      </trkpt>
      <trkpt lat="45.3322" lon="1.4102">
        <ele>358</ele>
        <time>2019-02-27T15:48:16+01:00</time>
      </trkpt>
      <trkpt lat="45.33251" lon="1.41086">
        <ele>360</ele>
        <time>2019-02-27T15:48:33+01:00</time>
      </trkpt>
      <trkpt lat="45.33281" lon="1.41154">
        <ele>365</ele>
        <time>2019-02-27T15:48:50+01:00</time>
      </trkpt>
      <trkpt lat="45.33312" lon="1.41219">
        <ele>368</ele>
        <time>2019-02-27T15:49:06+01:00</time>
      </trkpt>
      <trkpt lat="45.33337" lon="1.41289">
        <ele>370</ele>
        <time>2019-02-27T15:49:23+01:00</time>
      </trkpt>
      <trkpt lat="45.33343" lon="1.41305">
        <ele>371</ele>
        <time>2019-02-27T15:49:27+01:00</time>
      </trkpt>
      <trkpt lat="45.33325" lon="1.41307">
        <ele>370</ele>
        <time>2019-02-27T15:49:33+01:00</time>
      </trkpt>
      <trkpt lat="45.33272" lon="1.41286">
        <ele>368</ele>
        <time>2019-02-27T15:49:45+01:00</time>
      </trkpt>
      <trkpt lat="45.33218" lon="1.41273">
        <ele>367</ele>
        <time>2019-02-27T15:49:55+01:00</time>
      </trkpt>
      <trkpt lat="45.33177" lon="1.41282">
        <ele>365</ele>
        <time>2019-02-27T15:50:02+01:00</time>
      </trkpt>
      <trkpt lat="45.33128" lon="1.41313">
        <ele>364</ele>
        <time>2019-02-27T15:50:11+01:00</time>
      </trkpt>
      <trkpt lat="45.33091" lon="1.41352">
        <ele>363</ele>
        <time>2019-02-27T15:50:19+01:00</time>
      </trkpt>
      <trkpt lat="45.33069" lon="1.41384">
        <ele>362</ele>
        <time>2019-02-27T15:50:24+01:00</time>
      </trkpt>
      <trkpt lat="45.33062" lon="1.41392">
        <ele>362</ele>
        <time>2019-02-27T15:50:26+01:00</time>
      </trkpt>
      <trkpt lat="45.33063" lon="1.41427">
        <ele>359</ele>
        <time>2019-02-27T15:50:31+01:00</time>
      </trkpt>
      <trkpt lat="45.33066" lon="1.41454">
        <ele>357</ele>
        <time>2019-02-27T15:50:34+01:00</time>
      </trkpt>
      <trkpt lat="45.33068" lon="1.41497">
        <ele>353</ele>
        <time>2019-02-27T15:50:38+01:00</time>
      </trkpt>
      <trkpt lat="45.33078" lon="1.41579">
        <ele>348</ele>
        <time>2019-02-27T15:50:45+01:00</time>
      </trkpt>
      <trkpt lat="45.33078" lon="1.41619">
        <ele>347</ele>
        <time>2019-02-27T15:50:49+01:00</time>
      </trkpt>
      <trkpt lat="45.33088" lon="1.41651">
        <ele>347</ele>
        <time>2019-02-27T15:50:56+01:00</time>
      </trkpt>
      <trkpt lat="45.33089" lon="1.41661">
        <ele>347</ele>
        <time>2019-02-27T15:51:00+01:00</time>
      </trkpt>
      <trkpt lat="45.33088" lon="1.41664">
        <ele>347</ele>
        <time>2019-02-27T15:51:03+01:00</time>
      </trkpt>
      <trkpt lat="45.33088" lon="1.41686">
        <ele>346</ele>
        <time>2019-02-27T15:51:34+01:00</time>
      </trkpt>
      <trkpt lat="45.33088" lon="1.41719">
        <ele>344</ele>
        <time>2019-02-27T15:51:40+01:00</time>
      </trkpt>
      <trkpt lat="45.33084" lon="1.41799">
        <ele>336</ele>
        <time>2019-02-27T15:51:49+01:00</time>
      </trkpt>
      <trkpt lat="45.33072" lon="1.41858">
        <ele>329</ele>
        <time>2019-02-27T15:51:59+01:00</time>
      </trkpt>
      <trkpt lat="45.33063" lon="1.41899">
        <ele>325</ele>
        <time>2019-02-27T15:52:03+01:00</time>
      </trkpt>
      <trkpt lat="45.3304" lon="1.41982">
        <ele>316</ele>
        <time>2019-02-27T15:52:10+01:00</time>
      </trkpt>
      <trkpt lat="45.33028" lon="1.42017">
        <ele>311</ele>
        <time>2019-02-27T15:52:13+01:00</time>
      </trkpt>
      <trkpt lat="45.32997" lon="1.42054">
        <ele>304</ele>
        <time>2019-02-27T15:52:18+01:00</time>
      </trkpt>
      <trkpt lat="45.32989" lon="1.42058">
        <ele>303</ele>
        <time>2019-02-27T15:52:19+01:00</time>
      </trkpt>
      <trkpt lat="45.32955" lon="1.42053">
        <ele>303</ele>
        <time>2019-02-27T15:52:24+01:00</time>
      </trkpt>
      <trkpt lat="45.32913" lon="1.42045">
        <ele>303</ele>
        <time>2019-02-27T15:52:34+01:00</time>
      </trkpt>
      <trkpt lat="45.32902" lon="1.4207">
        <ele>300</ele>
        <time>2019-02-27T15:52:48+01:00</time>
      </trkpt>
      <trkpt lat="45.32857" lon="1.42112">
        <ele>301</ele>
        <time>2019-02-27T15:53:15+01:00</time>
      </trkpt>
      <trkpt lat="45.32844" lon="1.42126">
        <ele>302</ele>
        <time>2019-02-27T15:53:29+01:00</time>
      </trkpt>
      <trkpt lat="45.32841" lon="1.4213">
        <ele>303</ele>
        <time>2019-02-27T15:53:32+01:00</time>
      </trkpt>
      <trkpt lat="45.32827" lon="1.42139">
        <ele>304</ele>
        <time>2019-02-27T15:53:40+01:00</time>
      </trkpt>
      <trkpt lat="45.32811" lon="1.42151">
        <ele>306</ele>
        <time>2019-02-27T15:53:50+01:00</time>
      </trkpt>
      <trkpt lat="45.32803" lon="1.42154">
        <ele>307</ele>
        <time>2019-02-27T15:53:54+01:00</time>
      </trkpt>
      <trkpt lat="45.32757" lon="1.42159">
        <ele>310</ele>
        <time>2019-02-27T15:54:13+01:00</time>
      </trkpt>
      <trkpt lat="45.32729" lon="1.42168">
        <ele>310</ele>
        <time>2019-02-27T15:54:27+01:00</time>
      </trkpt>
      <trkpt lat="45.32718" lon="1.42172">
        <ele>310</ele>
        <time>2019-02-27T15:54:33+01:00</time>
      </trkpt>
      <trkpt lat="45.32715" lon="1.42174">
        <ele>310</ele>
        <time>2019-02-27T15:54:35+01:00</time>
      </trkpt>
      <trkpt lat="45.3267" lon="1.42217">
        <ele>315</ele>
        <time>2019-02-27T15:54:58+01:00</time>
      </trkpt>
      <trkpt lat="45.32661" lon="1.42218">
        <ele>315</ele>
        <time>2019-02-27T15:55:03+01:00</time>
      </trkpt>
      <trkpt lat="45.32608" lon="1.42201">
        <ele>312</ele>
        <time>2019-02-27T15:55:27+01:00</time>
      </trkpt>
      <trkpt lat="45.32607" lon="1.42203">
        <ele>312</ele>
        <time>2019-02-27T15:55:28+01:00</time>
      </trkpt>
      <trkpt lat="45.32575" lon="1.42262">
        <ele>319</ele>
        <time>2019-02-27T15:55:58+01:00</time>
      </trkpt>
      <trkpt lat="45.32573" lon="1.42271">
        <ele>321</ele>
        <time>2019-02-27T15:56:01+01:00</time>
      </trkpt>
      <trkpt lat="45.32537" lon="1.42331">
        <ele>327</ele>
        <time>2019-02-27T15:56:27+01:00</time>
      </trkpt>
      <trkpt lat="45.32518" lon="1.42402">
        <ele>329</ele>
        <time>2019-02-27T15:56:51+01:00</time>
      </trkpt>
      <trkpt lat="45.32472" lon="1.42406">
        <ele>327</ele>
        <time>2019-02-27T15:57:04+01:00</time>
      </trkpt>
      <trkpt lat="45.32442" lon="1.42416">
        <ele>325</ele>
        <time>2019-02-27T15:57:12+01:00</time>
      </trkpt>
      <trkpt lat="45.32458" lon="1.42461">
        <ele>320</ele>
        <time>2019-02-27T15:57:19+01:00</time>
      </trkpt>
      <trkpt lat="45.32476" lon="1.42477">
        <ele>319</ele>
        <time>2019-02-27T15:57:22+01:00</time>
      </trkpt>
      <trkpt lat="45.32501" lon="1.42498">
        <ele>318</ele>
        <time>2019-02-27T15:57:26+01:00</time>
      </trkpt>
      <trkpt lat="45.32516" lon="1.4252">
        <ele>313</ele>
        <time>2019-02-27T15:57:29+01:00</time>
      </trkpt>
      <trkpt lat="45.32533" lon="1.42552">
        <ele>305</ele>
        <time>2019-02-27T15:57:33+01:00</time>
      </trkpt>
      <trkpt lat="45.32524" lon="1.42572">
        <ele>299</ele>
        <time>2019-02-27T15:57:44+01:00</time>
      </trkpt>
      <trkpt lat="45.32519" lon="1.42571">
        <ele>299</ele>
        <time>2019-02-27T15:57:45+01:00</time>
      </trkpt>
      <trkpt lat="45.32459" lon="1.42565">
        <ele>295</ele>
        <time>2019-02-27T15:57:54+01:00</time>
      </trkpt>
      <trkpt lat="45.324" lon="1.42568">
        <ele>288</ele>
        <time>2019-02-27T15:58:01+01:00</time>
      </trkpt>
      <trkpt lat="45.32391" lon="1.42568">
        <ele>287</ele>
        <time>2019-02-27T15:58:02+01:00</time>
      </trkpt>
      <trkpt lat="45.32356" lon="1.42583">
        <ele>279</ele>
        <time>2019-02-27T15:58:07+01:00</time>
      </trkpt>
      <trkpt lat="45.32339" lon="1.42596">
        <ele>273</ele>
        <time>2019-02-27T15:58:10+01:00</time>
      </trkpt>
      <trkpt lat="45.32329" lon="1.42603">
        <ele>269</ele>
        <time>2019-02-27T15:58:12+01:00</time>
      </trkpt>
      <trkpt lat="45.3232" lon="1.42605">
        <ele>265</ele>
        <time>2019-02-27T15:58:17+01:00</time>
      </trkpt>
      <trkpt lat="45.32331" lon="1.42612">
        <ele>266</ele>
        <time>2019-02-27T15:58:20+01:00</time>
      </trkpt>
      <trkpt lat="45.3234" lon="1.42617">
        <ele>266</ele>
        <time>2019-02-27T15:58:22+01:00</time>
      </trkpt>
      <trkpt lat="45.32391" lon="1.4263">
        <ele>264</ele>
        <time>2019-02-27T15:58:30+01:00</time>
      </trkpt>
      <trkpt lat="45.32408" lon="1.42644">
        <ele>260</ele>
        <time>2019-02-27T15:58:33+01:00</time>
      </trkpt>
      <trkpt lat="45.32433" lon="1.4267">
        <ele>252</ele>
        <time>2019-02-27T15:58:37+01:00</time>
      </trkpt>
      <trkpt lat="45.32456" lon="1.42699">
        <ele>243</ele>
        <time>2019-02-27T15:58:43+01:00</time>
      </trkpt>
      <trkpt lat="45.32413" lon="1.42698">
        <ele>239</ele>
        <time>2019-02-27T15:58:51+01:00</time>
      </trkpt>
      <trkpt lat="45.32383" lon="1.42706">
        <ele>235</ele>
        <time>2019-02-27T15:58:58+01:00</time>
      </trkpt>
      <trkpt lat="45.32435" lon="1.42749">
        <ele>221</ele>
        <time>2019-02-27T15:59:08+01:00</time>
      </trkpt>
      <trkpt lat="45.3245" lon="1.42762">
        <ele>219</ele>
        <time>2019-02-27T15:59:11+01:00</time>
      </trkpt>
      <trkpt lat="45.32471" lon="1.42774">
        <ele>217</ele>
        <time>2019-02-27T15:59:16+01:00</time>
      </trkpt>
      <trkpt lat="45.32457" lon="1.42793">
        <ele>215</ele>
        <time>2019-02-27T15:59:22+01:00</time>
      </trkpt>
      <trkpt lat="45.32406" lon="1.42806">
        <ele>212</ele>
        <time>2019-02-27T15:59:36+01:00</time>
      </trkpt>
      <trkpt lat="45.32389" lon="1.42804">
        <ele>212</ele>
        <time>2019-02-27T15:59:40+01:00</time>
      </trkpt>
      <trkpt lat="45.32385" lon="1.42802">
        <ele>212</ele>
        <time>2019-02-27T15:59:42+01:00</time>
      </trkpt>
      <trkpt lat="45.32327" lon="1.42789">
        <ele>211</ele>
        <time>2019-02-27T15:59:59+01:00</time>
      </trkpt>
      <trkpt lat="45.32272" lon="1.4279">
        <ele>208</ele>
        <time>2019-02-27T16:00:14+01:00</time>
      </trkpt>
      <trkpt lat="45.32217" lon="1.42787">
        <ele>208</ele>
        <time>2019-02-27T16:00:26+01:00</time>
      </trkpt>
      <trkpt lat="45.32196" lon="1.42731">
        <ele>207</ele>
        <time>2019-02-27T16:00:41+01:00</time>
      </trkpt>
      <trkpt lat="45.32185" lon="1.42654">
        <ele>210</ele>
        <time>2019-02-27T16:00:55+01:00</time>
      </trkpt>
      <trkpt lat="45.32173" lon="1.42625">
        <ele>214</ele>
        <time>2019-02-27T16:01:03+01:00</time>
      </trkpt>
      <trkpt lat="45.32162" lon="1.42609">
        <ele>215</ele>
        <time>2019-02-27T16:01:10+01:00</time>
      </trkpt>
      <trkpt lat="45.32104" lon="1.42586">
        <ele>214</ele>
      </trkpt>
      <trkpt lat="45.32045" lon="1.4261">
        <ele>212</ele>
        <time>2019-02-27T16:03:38+01:00</time>
      </trkpt>
      <trkpt lat="45.31995" lon="1.42638">
        <ele>210</ele>
        <time>2019-02-27T16:04:22+01:00</time>
      </trkpt>
      <trkpt lat="45.31989" lon="1.42632">
        <ele>211</ele>
        <time>2019-02-27T16:04:27+01:00</time>
      </trkpt>
      <trkpt lat="45.31969" lon="1.4256">
        <ele>220</ele>
        <time>2019-02-27T16:05:03+01:00</time>
      </trkpt>
      <trkpt lat="45.31936" lon="1.42499">
        <ele>223</ele>
        <time>2019-02-27T16:05:28+01:00</time>
      </trkpt>
      <trkpt lat="45.31914" lon="1.42466">
        <ele>227</ele>
        <time>2019-02-27T16:05:40+01:00</time>
      </trkpt>
      <trkpt lat="45.319" lon="1.42455">
        <ele>228</ele>
        <time>2019-02-27T16:05:44+01:00</time>
      </trkpt>
      <trkpt lat="45.31892" lon="1.42451">
        <ele>228</ele>
        <time>2019-02-27T16:05:46+01:00</time>
      </trkpt>
      <trkpt lat="45.31883" lon="1.42447">
        <ele>228</ele>
        <time>2019-02-27T16:05:48+01:00</time>
      </trkpt>
      <trkpt lat="45.31829" lon="1.42429">
        <ele>226</ele>
        <time>2019-02-27T16:06:08+01:00</time>
      </trkpt>
      <trkpt lat="45.31817" lon="1.42435">
        <ele>224</ele>
        <time>2019-02-27T16:06:11+01:00</time>
      </trkpt>
      <trkpt lat="45.3179" lon="1.42451">
        <ele>220</ele>
        <time>2019-02-27T16:06:16+01:00</time>
      </trkpt>
      <trkpt lat="45.31777" lon="1.42462">
        <ele>217</ele>
        <time>2019-02-27T16:06:19+01:00</time>
      </trkpt>
      <trkpt lat="45.31743" lon="1.4247">
        <ele>216</ele>
        <time>2019-02-27T16:06:26+01:00</time>
      </trkpt>
      <trkpt lat="45.31738" lon="1.42468">
        <ele>216</ele>
        <time>2019-02-27T16:06:27+01:00</time>
      </trkpt>
      <trkpt lat="45.31722" lon="1.42453">
        <ele>217</ele>
        <time>2019-02-27T16:06:35+01:00</time>
      </trkpt>
      <trkpt lat="45.31716" lon="1.42465">
        <ele>214</ele>
        <time>2019-02-27T16:06:50+01:00</time>
      </trkpt>
      <trkpt lat="45.31711" lon="1.42481">
        <ele>211</ele>
        <time>2019-02-27T16:06:53+01:00</time>
      </trkpt>
      <trkpt lat="45.31702" lon="1.42512">
        <ele>205</ele>
        <time>2019-02-27T16:06:58+01:00</time>
      </trkpt>
      <trkpt lat="45.31685" lon="1.42525">
        <ele>201</ele>
        <time>2019-02-27T16:07:03+01:00</time>
      </trkpt>
      <trkpt lat="45.31664" lon="1.42529">
        <ele>199</ele>
        <time>2019-02-27T16:07:07+01:00</time>
      </trkpt>
      <trkpt lat="45.31645" lon="1.42522">
        <ele>197</ele>
        <time>2019-02-27T16:07:12+01:00</time>
      </trkpt>
      <trkpt lat="45.31638" lon="1.42521">
        <ele>196</ele>
        <time>2019-02-27T16:07:15+01:00</time>
      </trkpt>
      <trkpt lat="45.31638" lon="1.42542">
        <ele>194</ele>
        <time>2019-02-27T16:07:23+01:00</time>
      </trkpt>
      <trkpt lat="45.31637" lon="1.42563">
        <ele>192</ele>
        <time>2019-02-27T16:07:26+01:00</time>
      </trkpt>
      <trkpt lat="45.31643" lon="1.42591">
        <ele>189</ele>
        <time>2019-02-27T16:07:31+01:00</time>
      </trkpt>
      <trkpt lat="45.31651" lon="1.4261">
        <ele>188</ele>
        <time>2019-02-27T16:07:36+01:00</time>
      </trkpt>
      <trkpt lat="45.31676" lon="1.42645">
        <ele>186</ele>
        <time>2019-02-27T16:07:45+01:00</time>
      </trkpt>
      <trkpt lat="45.31706" lon="1.42707">
        <ele>188</ele>
        <time>2019-02-27T16:08:00+01:00</time>
      </trkpt>
      <trkpt lat="45.31711" lon="1.42711">
        <ele>188</ele>
        <time>2019-02-27T16:08:05+01:00</time>
      </trkpt>
      <trkpt lat="45.31708" lon="1.42716">
        <ele>188</ele>
        <time>2019-02-27T16:08:20+01:00</time>
      </trkpt>
      <trkpt lat="45.31701" lon="1.42715">
        <ele>188</ele>
        <time>2019-02-27T16:08:24+01:00</time>
      </trkpt>
      <trkpt lat="45.31659" lon="1.42692">
        <ele>185</ele>
        <time>2019-02-27T16:08:39+01:00</time>
      </trkpt>
      <trkpt lat="45.31624" lon="1.42653">
        <ele>183</ele>
        <time>2019-02-27T16:08:54+01:00</time>
      </trkpt>
      <trkpt lat="45.31615" lon="1.42648">
        <ele>184</ele>
        <time>2019-02-27T16:09:00+01:00</time>
      </trkpt>
      <trkpt lat="45.31609" lon="1.42651">
        <ele>183</ele>
        <time>2019-02-27T16:09:03+01:00</time>
      </trkpt>
      <trkpt lat="45.31597" lon="1.42649">
        <ele>183</ele>
        <time>2019-02-27T16:09:11+01:00</time>
      </trkpt>
      <trkpt lat="45.31578" lon="1.42666">
        <ele>182</ele>
        <time>2019-02-27T16:09:41+01:00</time>
      </trkpt>
      <trkpt lat="45.31571" lon="1.42664">
        <ele>182</ele>
        <time>2019-02-27T16:09:46+01:00</time>
      </trkpt>
      <trkpt lat="45.31565" lon="1.42664">
        <ele>181</ele>
        <time>2019-02-27T16:09:50+01:00</time>
      </trkpt>
      <trkpt lat="45.31561" lon="1.42667">
        <ele>181</ele>
        <time>2019-02-27T16:09:53+01:00</time>
      </trkpt>
      <trkpt lat="45.31557" lon="1.4266">
        <ele>181</ele>
        <time>2019-02-27T16:09:57+01:00</time>
      </trkpt>
      <trkpt lat="45.31548" lon="1.42657">
        <ele>181</ele>
        <time>2019-02-27T16:10:01+01:00</time>
      </trkpt>
      <trkpt lat="45.31542" lon="1.42647">
        <ele>181</ele>
        <time>2019-02-27T16:10:07+01:00</time>
      </trkpt>
      <trkpt lat="45.31535" lon="1.42649">
        <ele>181</ele>
        <time>2019-02-27T16:10:11+01:00</time>
      </trkpt>
      <trkpt lat="45.31523" lon="1.42671">
        <ele>180</ele>
        <time>2019-02-27T16:10:19+01:00</time>
      </trkpt>
      <trkpt lat="45.31521" lon="1.42679">
        <ele>181</ele>
        <time>2019-02-27T16:10:23+01:00</time>
      </trkpt>
      <trkpt lat="45.3152" lon="1.42681">
        <ele>181</ele>
        <time>2019-02-27T16:10:26+01:00</time>
      </trkpt>
      <trkpt lat="45.31501" lon="1.42687">
        <ele>181</ele>
        <time>2019-02-27T16:10:53+01:00</time>
      </trkpt>
      <trkpt lat="45.31489" lon="1.42701">
        <ele>186</ele>
        <time>2019-02-27T16:11:02+01:00</time>
      </trkpt>
      <trkpt lat="45.31491" lon="1.42715">
        <ele>187</ele>
        <time>2019-02-27T16:11:09+01:00</time>
      </trkpt>
      <trkpt lat="45.31491" lon="1.42718">
        <ele>188</ele>
        <time>2019-02-27T16:11:11+01:00</time>
      </trkpt>
      <trkpt lat="45.31496" lon="1.42733">
        <ele>188</ele>
        <time>2019-02-27T16:11:20+01:00</time>
      </trkpt>
      <trkpt lat="45.31504" lon="1.42747">
        <ele>189</ele>
        <time>2019-02-27T16:11:30+01:00</time>
      </trkpt>
      <trkpt lat="45.31504" lon="1.42756">
        <ele>190</ele>
        <time>2019-02-27T16:11:35+01:00</time>
      </trkpt>
      <trkpt lat="45.31507" lon="1.42766">
        <ele>192</ele>
        <time>2019-02-27T16:11:41+01:00</time>
      </trkpt>
      <trkpt lat="45.31518" lon="1.42776">
        <ele>193</ele>
        <time>2019-02-27T16:11:53+01:00</time>
      </trkpt>
      <trkpt lat="45.31527" lon="1.4278">
        <ele>194</ele>
        <time>2019-02-27T16:12:00+01:00</time>
      </trkpt>
      <trkpt lat="45.31558" lon="1.42837">
        <ele>203</ele>
        <time>2019-02-27T16:12:45+01:00</time>
      </trkpt>
      <trkpt lat="45.31597" lon="1.42888">
        <ele>216</ele>
        <time>2019-02-27T16:13:36+01:00</time>
      </trkpt>
      <trkpt lat="45.31651" lon="1.42887">
        <ele>223</ele>
        <time>2019-02-27T16:14:29+01:00</time>
      </trkpt>
      <trkpt lat="45.31676" lon="1.42878">
        <ele>224</ele>
        <time>2019-02-27T16:14:51+01:00</time>
      </trkpt>
      <trkpt lat="45.3168" lon="1.42876">
        <ele>223</ele>
        <time>2019-02-27T16:14:54+01:00</time>
      </trkpt>
      <trkpt lat="45.31683" lon="1.42875">
        <ele>223</ele>
        <time>2019-02-27T16:14:57+01:00</time>
      </trkpt>
      <trkpt lat="45.31687" lon="1.4288">
        <ele>224</ele>
        <time>2019-02-27T16:15:05+01:00</time>
      </trkpt>
      <trkpt lat="45.31687" lon="1.42881">
        <ele>225</ele>
        <time>2019-02-27T16:15:06+01:00</time>
      </trkpt>
      <trkpt lat="45.31687" lon="1.42883">
        <ele>225</ele>
        <time>2019-02-27T16:15:08+01:00</time>
      </trkpt>
      <trkpt lat="45.31722" lon="1.42889">
        <ele>228</ele>
        <time>2019-02-27T16:15:53+01:00</time>
      </trkpt>
      <trkpt lat="45.31699" lon="1.42957">
        <ele>245</ele>
        <time>2019-02-27T16:16:43+01:00</time>
      </trkpt>
      <trkpt lat="45.31687" lon="1.42988">
        <ele>253</ele>
        <time>2019-02-27T16:17:07+01:00</time>
      </trkpt>
      <trkpt lat="45.3171" lon="1.42973">
        <ele>250</ele>
        <time>2019-02-27T16:17:29+01:00</time>
      </trkpt>
      <trkpt lat="45.31728" lon="1.4296">
        <ele>247</ele>
        <time>2019-02-27T16:17:46+01:00</time>
      </trkpt>
      <trkpt lat="45.31734" lon="1.42958">
        <ele>247</ele>
        <time>2019-02-27T16:17:51+01:00</time>
      </trkpt>
      <trkpt lat="45.31739" lon="1.42955">
        <ele>247</ele>
        <time>2019-02-27T16:17:55+01:00</time>
      </trkpt>
      <trkpt lat="45.31747" lon="1.42952">
        <ele>246</ele>
        <time>2019-02-27T16:18:02+01:00</time>
      </trkpt>
      <trkpt lat="45.31744" lon="1.42975">
        <ele>251</ele>
        <time>2019-02-27T16:18:22+01:00</time>
      </trkpt>
      <trkpt lat="45.31743" lon="1.42977">
        <ele>252</ele>
        <time>2019-02-27T16:18:24+01:00</time>
      </trkpt>
      <trkpt lat="45.31727" lon="1.43002">
        <ele>257</ele>
        <time>2019-02-27T16:18:47+01:00</time>
      </trkpt>
      <trkpt lat="45.31694" lon="1.43042">
        <ele>267</ele>
        <time>2019-02-27T16:19:23+01:00</time>
      </trkpt>
      <trkpt lat="45.3169" lon="1.43047">
        <ele>269</ele>
        <time>2019-02-27T16:19:28+01:00</time>
      </trkpt>
      <trkpt lat="45.31685" lon="1.43053">
        <ele>271</ele>
        <time>2019-02-27T16:19:33+01:00</time>
      </trkpt>
      <trkpt lat="45.31644" lon="1.43103">
        <ele>288</ele>
        <time>2019-02-27T16:20:20+01:00</time>
      </trkpt>
      <trkpt lat="45.31597" lon="1.4314">
        <ele>302</ele>
        <time>2019-02-27T16:21:14+01:00</time>
      </trkpt>
      <trkpt lat="45.31547" lon="1.43166">
        <ele>312</ele>
        <time>2019-02-27T16:22:06+01:00</time>
      </trkpt>
      <trkpt lat="45.31515" lon="1.43165">
        <ele>311</ele>
        <time>2019-02-27T16:22:27+01:00</time>
      </trkpt>
      <trkpt lat="45.31507" lon="1.43165">
        <ele>311</ele>
        <time>2019-02-27T16:22:33+01:00</time>
      </trkpt>
      <trkpt lat="45.31505" lon="1.43166">
        <ele>312</ele>
        <time>2019-02-27T16:22:37+01:00</time>
      </trkpt>
      <trkpt lat="45.31504" lon="1.43167">
        <ele>312</ele>
        <time>2019-02-27T16:22:40+01:00</time>
      </trkpt>
      <trkpt lat="45.31493" lon="1.43167">
        <ele>311</ele>
        <time>2019-02-27T16:22:46+01:00</time>
      </trkpt>
      <trkpt lat="45.31491" lon="1.43167">
        <ele>312</ele>
        <time>2019-02-27T16:22:47+01:00</time>
      </trkpt>
      <trkpt lat="45.31437" lon="1.43188">
        <ele>314</ele>
        <time>2019-02-27T16:23:12+01:00</time>
      </trkpt>
      <trkpt lat="45.31391" lon="1.43223">
        <ele>319</ele>
        <time>2019-02-27T16:23:30+01:00</time>
      </trkpt>
      <trkpt lat="45.3139" lon="1.43225">
        <ele>320</ele>
        <time>2019-02-27T16:23:33+01:00</time>
      </trkpt>
      <trkpt lat="45.31363" lon="1.43256">
        <ele>324</ele>
        <time>2019-02-27T16:24:32+01:00</time>
      </trkpt>
      <trkpt lat="45.31347" lon="1.43269">
        <ele>325</ele>
        <time>2019-02-27T16:24:43+01:00</time>
      </trkpt>
      <trkpt lat="45.31304" lon="1.43291">
        <ele>328</ele>
        <time>2019-02-27T16:25:31+01:00</time>
      </trkpt>
      <trkpt lat="45.31248" lon="1.43293">
        <ele>327</ele>
        <time>2019-02-27T16:26:02+01:00</time>
      </trkpt>
      <trkpt lat="45.31194" lon="1.43292">
        <ele>330</ele>
        <time>2019-02-27T16:26:29+01:00</time>
      </trkpt>
      <trkpt lat="45.31188" lon="1.43295">
        <ele>331</ele>
        <time>2019-02-27T16:26:34+01:00</time>
      </trkpt>
      <trkpt lat="45.31184" lon="1.43297">
        <ele>332</ele>
        <time>2019-02-27T16:26:37+01:00</time>
      </trkpt>
      <trkpt lat="45.3118" lon="1.43304">
        <ele>333</ele>
        <time>2019-02-27T16:26:43+01:00</time>
      </trkpt>
      <trkpt lat="45.31179" lon="1.43318">
        <ele>336</ele>
        <time>2019-02-27T16:26:53+01:00</time>
      </trkpt>
      <trkpt lat="45.31182" lon="1.43318">
        <ele>336</ele>
        <time>2019-02-27T16:26:59+01:00</time>
      </trkpt>
      <trkpt lat="45.31194" lon="1.43322">
        <ele>337</ele>
        <time>2019-02-27T16:27:13+01:00</time>
      </trkpt>
      <trkpt lat="45.31197" lon="1.43323">
        <ele>337</ele>
        <time>2019-02-27T16:27:17+01:00</time>
      </trkpt>
      <trkpt lat="45.31205" lon="1.43323">
        <ele>337</ele>
        <time>2019-02-27T16:27:22+01:00</time>
      </trkpt>
      <trkpt lat="45.31226" lon="1.43341">
        <ele>340</ele>
        <time>2019-02-27T16:27:43+01:00</time>
      </trkpt>
      <trkpt lat="45.31224" lon="1.43343">
        <ele>341</ele>
        <time>2019-02-27T16:27:47+01:00</time>
      </trkpt>
      <trkpt lat="45.31171" lon="1.43352">
        <ele>342</ele>
        <time>2019-02-27T16:28:23+01:00</time>
      </trkpt>
      <trkpt lat="45.31165" lon="1.43355">
        <ele>342</ele>
        <time>2019-02-27T16:28:28+01:00</time>
      </trkpt>
      <trkpt lat="45.31117" lon="1.4339">
        <ele>347</ele>
        <time>2019-02-27T16:28:50+01:00</time>
      </trkpt>
      <trkpt lat="45.31071" lon="1.43428">
        <ele>350</ele>
        <time>2019-02-27T16:29:12+01:00</time>
      </trkpt>
      <trkpt lat="45.31053" lon="1.4345">
        <ele>352</ele>
        <time>2019-02-27T16:29:20+01:00</time>
      </trkpt>
      <trkpt lat="45.31042" lon="1.43439">
        <ele>352</ele>
        <time>2019-02-27T16:29:25+01:00</time>
      </trkpt>
      <trkpt lat="45.30994" lon="1.43398">
        <ele>351</ele>
        <time>2019-02-27T16:29:40+01:00</time>
      </trkpt>
      <trkpt lat="45.30985" lon="1.43395">
        <ele>351</ele>
        <time>2019-02-27T16:29:43+01:00</time>
      </trkpt>
      <trkpt lat="45.30937" lon="1.43392">
        <ele>352</ele>
        <time>2019-02-27T16:29:52+01:00</time>
      </trkpt>
      <trkpt lat="45.30924" lon="1.43376">
        <ele>352</ele>
        <time>2019-02-27T16:29:56+01:00</time>
      </trkpt>
      <trkpt lat="45.30917" lon="1.43359">
        <ele>353</ele>
        <time>2019-02-27T16:30:00+01:00</time>
      </trkpt>
      <trkpt lat="45.30904" lon="1.4336">
        <ele>353</ele>
        <time>2019-02-27T16:30:08+01:00</time>
      </trkpt>
      <trkpt lat="45.30851" lon="1.43382">
        <ele>356</ele>
        <time>2019-02-27T16:30:39+01:00</time>
      </trkpt>
      <trkpt lat="45.30815" lon="1.43395">
        <ele>356</ele>
        <time>2019-02-27T16:30:59+01:00</time>
      </trkpt>
      <trkpt lat="45.30825" lon="1.43455">
        <ele>356</ele>
        <time>2019-02-27T16:31:10+01:00</time>
      </trkpt>
      <trkpt lat="45.30857" lon="1.43524">
        <ele>357</ele>
        <time>2019-02-27T16:31:24+01:00</time>
      </trkpt>
      <trkpt lat="45.30878" lon="1.43566">
        <ele>358</ele>
        <time>2019-02-27T16:31:34+01:00</time>
      </trkpt>
      <trkpt lat="45.30856" lon="1.43637">
        <ele>357</ele>
        <time>2019-02-27T16:31:44+01:00</time>
      </trkpt>
      <trkpt lat="45.30853" lon="1.43644">
        <ele>356</ele>
        <time>2019-02-27T16:31:45+01:00</time>
      </trkpt>
      <trkpt lat="45.30834" lon="1.43684">
        <ele>354</ele>
        <time>2019-02-27T16:31:51+01:00</time>
      </trkpt>
      <trkpt lat="45.30828" lon="1.43725">
        <ele>355</ele>
        <time>2019-02-27T16:31:57+01:00</time>
      </trkpt>
      <trkpt lat="45.30831" lon="1.4376">
        <ele>356</ele>
        <time>2019-02-27T16:32:00+01:00</time>
      </trkpt>
      <trkpt lat="45.30831" lon="1.43787">
        <ele>357</ele>
        <time>2019-02-27T16:32:03+01:00</time>
      </trkpt>
      <trkpt lat="45.30827" lon="1.43805">
        <ele>357</ele>
        <time>2019-02-27T16:32:05+01:00</time>
      </trkpt>
      <trkpt lat="45.30808" lon="1.43884">
        <ele>357</ele>
        <time>2019-02-27T16:32:13+01:00</time>
      </trkpt>
      <trkpt lat="45.30798" lon="1.4391">
        <ele>357</ele>
        <time>2019-02-27T16:32:16+01:00</time>
      </trkpt>
      <trkpt lat="45.30788" lon="1.43933">
        <ele>356</ele>
        <time>2019-02-27T16:32:19+01:00</time>
      </trkpt>
      <trkpt lat="45.30756" lon="1.43968">
        <ele>356</ele>
        <time>2019-02-27T16:32:29+01:00</time>
      </trkpt>
      <trkpt lat="45.30756" lon="1.43968">
        <ele>356</ele>
        <time>2019-02-27T16:32:30+01:00</time>
      </trkpt>
      <trkpt lat="45.3075" lon="1.43957">
        <ele>357</ele>
        <time>2019-02-27T16:32:31+01:00</time>
      </trkpt>
      <trkpt lat="45.30736" lon="1.43914">
        <ele>357</ele>
        <time>2019-02-27T16:32:44+01:00</time>
      </trkpt>
      <trkpt lat="45.30711" lon="1.43877">
        <ele>358</ele>
        <time>2019-02-27T16:33:03+01:00</time>
      </trkpt>
      <trkpt lat="45.30703" lon="1.43881">
        <ele>359</ele>
        <time>2019-02-27T16:33:07+01:00</time>
      </trkpt>
      <trkpt lat="45.3068" lon="1.43933">
        <ele>364</ele>
        <time>2019-02-27T16:33:35+01:00</time>
      </trkpt>
      <trkpt lat="45.30676" lon="1.43945">
        <ele>366</ele>
        <time>2019-02-27T16:33:41+01:00</time>
      </trkpt>
      <trkpt lat="45.30663" lon="1.4402">
        <ele>370</ele>
        <time>2019-02-27T16:34:11+01:00</time>
      </trkpt>
      <trkpt lat="45.30659" lon="1.4403">
        <ele>370</ele>
        <time>2019-02-27T16:34:14+01:00</time>
      </trkpt>
      <trkpt lat="45.30626" lon="1.44091">
        <ele>372</ele>
        <time>2019-02-27T16:34:32+01:00</time>
      </trkpt>
      <trkpt lat="45.30594" lon="1.44155">
        <ele>377</ele>
        <time>2019-02-27T16:34:51+01:00</time>
      </trkpt>
      <trkpt lat="45.30576" lon="1.44203">
        <ele>378</ele>
        <time>2019-02-27T16:35:07+01:00</time>
      </trkpt>
      <trkpt lat="45.30565" lon="1.44201">
        <ele>378</ele>
        <time>2019-02-27T16:35:11+01:00</time>
      </trkpt>
      <trkpt lat="45.30516" lon="1.44166">
        <ele>378</ele>
        <time>2019-02-27T16:35:31+01:00</time>
      </trkpt>
      <trkpt lat="45.30486" lon="1.44142">
        <ele>378</ele>
        <time>2019-02-27T16:35:38+01:00</time>
      </trkpt>
      <trkpt lat="45.30468" lon="1.44147">
        <ele>379</ele>
        <time>2019-02-27T16:35:43+01:00</time>
      </trkpt>
      <trkpt lat="45.30423" lon="1.44193">
        <ele>384</ele>
        <time>2019-02-27T16:36:03+01:00</time>
      </trkpt>
      <trkpt lat="45.3039" lon="1.44232">
        <ele>385</ele>
        <time>2019-02-27T16:36:20+01:00</time>
      </trkpt>
      <trkpt lat="45.30422" lon="1.44295">
        <ele>385</ele>
        <time>2019-02-27T16:36:35+01:00</time>
      </trkpt>
      <trkpt lat="45.30454" lon="1.44362">
        <ele>385</ele>
        <time>2019-02-27T16:36:49+01:00</time>
      </trkpt>
      <trkpt lat="45.30461" lon="1.44375">
        <ele>385</ele>
        <time>2019-02-27T16:36:52+01:00</time>
      </trkpt>
      <trkpt lat="45.30503" lon="1.4443">
        <ele>386</ele>
        <time>2019-02-27T16:37:05+01:00</time>
      </trkpt>
      <trkpt lat="45.30548" lon="1.44486">
        <ele>386</ele>
        <time>2019-02-27T16:37:15+01:00</time>
      </trkpt>
      <trkpt lat="45.30591" lon="1.44548">
        <ele>384</ele>
        <time>2019-02-27T16:37:23+01:00</time>
      </trkpt>
      <trkpt lat="45.3063" lon="1.44607">
        <ele>383</ele>
        <time>2019-02-27T16:37:31+01:00</time>
      </trkpt>
      <trkpt lat="45.30668" lon="1.44663">
        <ele>382</ele>
        <time>2019-02-27T16:37:40+01:00</time>
      </trkpt>
      <trkpt lat="45.30692" lon="1.44694">
        <ele>385</ele>
        <time>2019-02-27T16:37:46+01:00</time>
      </trkpt>
      <trkpt lat="45.30731" lon="1.44748">
        <ele>388</ele>
        <time>2019-02-27T16:38:00+01:00</time>
      </trkpt>
      <trkpt lat="45.30748" lon="1.44778">
        <ele>388</ele>
        <time>2019-02-27T16:38:12+01:00</time>
      </trkpt>
      <trkpt lat="45.30739" lon="1.44854">
        <ele>388</ele>
        <time>2019-02-27T16:38:36+01:00</time>
      </trkpt>
      <trkpt lat="45.30737" lon="1.44866">
        <ele>388</ele>
        <time>2019-02-27T16:38:39+01:00</time>
      </trkpt>
      <trkpt lat="45.3068" lon="1.44869">
        <ele>387</ele>
        <time>2019-02-27T16:38:53+01:00</time>
      </trkpt>
      <trkpt lat="45.30625" lon="1.44872">
        <ele>387</ele>
        <time>2019-02-27T16:39:04+01:00</time>
      </trkpt>
      <trkpt lat="45.3062" lon="1.44873">
        <ele>387</ele>
        <time>2019-02-27T16:39:05+01:00</time>
      </trkpt>
      <trkpt lat="45.30608" lon="1.449">
        <ele>386</ele>
        <time>2019-02-27T16:39:10+01:00</time>
      </trkpt>
      <trkpt lat="45.30602" lon="1.44956">
        <ele>384</ele>
        <time>2019-02-27T16:39:19+01:00</time>
      </trkpt>
      <trkpt lat="45.30602" lon="1.44993">
        <ele>382</ele>
        <time>2019-02-27T16:39:23+01:00</time>
      </trkpt>
      <trkpt lat="45.30586" lon="1.45029">
        <ele>380</ele>
        <time>2019-02-27T16:39:27+01:00</time>
      </trkpt>
      <trkpt lat="45.30577" lon="1.45045">
        <ele>379</ele>
        <time>2019-02-27T16:39:29+01:00</time>
      </trkpt>
      <trkpt lat="45.30568" lon="1.45105">
        <ele>376</ele>
        <time>2019-02-27T16:39:35+01:00</time>
      </trkpt>
      <trkpt lat="45.3055" lon="1.45167">
        <ele>374</ele>
        <time>2019-02-27T16:39:41+01:00</time>
      </trkpt>
      <trkpt lat="45.3057" lon="1.45189">
        <ele>374</ele>
        <time>2019-02-27T16:39:46+01:00</time>
      </trkpt>
      <trkpt lat="45.30594" lon="1.45205">
        <ele>374</ele>
        <time>2019-02-27T16:39:49+01:00</time>
      </trkpt>
      <trkpt lat="45.30618" lon="1.45256">
        <ele>377</ele>
        <time>2019-02-27T16:39:55+01:00</time>
      </trkpt>
      <trkpt lat="45.30619" lon="1.45264">
        <ele>376</ele>
        <time>2019-02-27T16:39:56+01:00</time>
      </trkpt>
      <trkpt lat="45.30624" lon="1.45286">
        <ele>374</ele>
        <time>2019-02-27T16:39:59+01:00</time>
      </trkpt>
      <trkpt lat="45.30626" lon="1.45302">
        <ele>373</ele>
        <time>2019-02-27T16:40:01+01:00</time>
      </trkpt>
      <trkpt lat="45.3063" lon="1.45338">
        <ele>370</ele>
        <time>2019-02-27T16:40:05+01:00</time>
      </trkpt>
      <trkpt lat="45.30658" lon="1.45405">
        <ele>362</ele>
        <time>2019-02-27T16:40:12+01:00</time>
      </trkpt>
      <trkpt lat="45.30672" lon="1.45443">
        <ele>359</ele>
        <time>2019-02-27T16:40:16+01:00</time>
      </trkpt>
      <trkpt lat="45.30703" lon="1.45449">
        <ele>359</ele>
        <time>2019-02-27T16:40:21+01:00</time>
      </trkpt>
      <trkpt lat="45.30719" lon="1.45442">
        <ele>360</ele>
        <time>2019-02-27T16:40:24+01:00</time>
      </trkpt>
      <trkpt lat="45.30714" lon="1.45517">
        <ele>358</ele>
        <time>2019-02-27T16:40:34+01:00</time>
      </trkpt>
      <trkpt lat="45.30687" lon="1.45591">
        <ele>354</ele>
        <time>2019-02-27T16:40:43+01:00</time>
      </trkpt>
      <trkpt lat="45.30669" lon="1.45623">
        <ele>350</ele>
        <time>2019-02-27T16:40:47+01:00</time>
      </trkpt>
      <trkpt lat="45.30666" lon="1.45676">
        <ele>348</ele>
        <time>2019-02-27T16:40:53+01:00</time>
      </trkpt>
      <trkpt lat="45.30667" lon="1.45687">
        <ele>348</ele>
        <time>2019-02-27T16:40:54+01:00</time>
      </trkpt>
      <trkpt lat="45.30672" lon="1.45734">
        <ele>344</ele>
        <time>2019-02-27T16:40:58+01:00</time>
      </trkpt>
      <trkpt lat="45.30655" lon="1.4577">
        <ele>346</ele>
        <time>2019-02-27T16:41:06+01:00</time>
      </trkpt>
      <trkpt lat="45.306" lon="1.45761">
        <ele>350</ele>
        <time>2019-02-27T16:41:40+01:00</time>
      </trkpt>
      <trkpt lat="45.30546" lon="1.45747">
        <ele>355</ele>
        <time>2019-02-27T16:42:09+01:00</time>
      </trkpt>
      <trkpt lat="45.30496" lon="1.45767">
        <ele>360</ele>
        <time>2019-02-27T16:42:40+01:00</time>
      </trkpt>
      <trkpt lat="45.30446" lon="1.45794">
        <ele>364</ele>
        <time>2019-02-27T16:43:06+01:00</time>
      </trkpt>
      <trkpt lat="45.30393" lon="1.45813">
        <ele>369</ele>
        <time>2019-02-27T16:43:32+01:00</time>
      </trkpt>
      <trkpt lat="45.30339" lon="1.45822">
        <ele>374</ele>
        <time>2019-02-27T16:43:55+01:00</time>
      </trkpt>
      <trkpt lat="45.3029" lon="1.45849">
        <ele>376</ele>
        <time>2019-02-27T16:44:12+01:00</time>
      </trkpt>
      <trkpt lat="45.30255" lon="1.45869">
        <ele>378</ele>
        <time>2019-02-27T16:44:24+01:00</time>
      </trkpt>
      <trkpt lat="45.30233" lon="1.45895">
        <ele>378</ele>
        <time>2019-02-27T16:44:31+01:00</time>
      </trkpt>
      <trkpt lat="45.30219" lon="1.45913">
        <ele>377</ele>
        <time>2019-02-27T16:44:35+01:00</time>
      </trkpt>
      <trkpt lat="45.30174" lon="1.45964">
        <ele>374</ele>
        <time>2019-02-27T16:44:46+01:00</time>
      </trkpt>
      <trkpt lat="45.30164" lon="1.45975">
        <ele>373</ele>
        <time>2019-02-27T16:44:48+01:00</time>
      </trkpt>
      <trkpt lat="45.30112" lon="1.45983">
        <ele>370</ele>
        <time>2019-02-27T16:44:55+01:00</time>
      </trkpt>
      <trkpt lat="45.30066" lon="1.4597">
        <ele>370</ele>
        <time>2019-02-27T16:45:01+01:00</time>
      </trkpt>
      <trkpt lat="45.30011" lon="1.45984">
        <ele>371</ele>
        <time>2019-02-27T16:45:11+01:00</time>
      </trkpt>
      <trkpt lat="45.29957" lon="1.46003">
        <ele>374</ele>
        <time>2019-02-27T16:45:26+01:00</time>
      </trkpt>
      <trkpt lat="45.29905" lon="1.46034">
        <ele>377</ele>
        <time>2019-02-27T16:45:43+01:00</time>
      </trkpt>
      <trkpt lat="45.29868" lon="1.46057">
        <ele>377</ele>
        <time>2019-02-27T16:45:54+01:00</time>
      </trkpt>
      <trkpt lat="45.29848" lon="1.46062">
        <ele>378</ele>
        <time>2019-02-27T16:45:58+01:00</time>
      </trkpt>
      <trkpt lat="45.29823" lon="1.46059">
        <ele>378</ele>
        <time>2019-02-27T16:46:02+01:00</time>
      </trkpt>
      <trkpt lat="45.29772" lon="1.4603">
        <ele>378</ele>
        <time>2019-02-27T16:46:11+01:00</time>
      </trkpt>
      <trkpt lat="45.29717" lon="1.46001">
        <ele>381</ele>
        <time>2019-02-27T16:46:22+01:00</time>
      </trkpt>
      <trkpt lat="45.29704" lon="1.45997">
        <ele>382</ele>
        <time>2019-02-27T16:46:25+01:00</time>
      </trkpt>
      <trkpt lat="45.29687" lon="1.46019">
        <ele>381</ele>
        <time>2019-02-27T16:46:32+01:00</time>
      </trkpt>
      <trkpt lat="45.29693" lon="1.46086">
        <ele>373</ele>
        <time>2019-02-27T16:46:39+01:00</time>
      </trkpt>
      <trkpt lat="45.29715" lon="1.4616">
        <ele>369</ele>
        <time>2019-02-27T16:46:45+01:00</time>
      </trkpt>
      <trkpt lat="45.29726" lon="1.46193">
        <ele>368</ele>
        <time>2019-02-27T16:46:48+01:00</time>
      </trkpt>
      <trkpt lat="45.29725" lon="1.46221">
        <ele>367</ele>
      </trkpt>
      <trkpt lat="45.29699" lon="1.46229">
        <ele>366</ele>
        <time>2019-02-27T16:46:55+01:00</time>
      </trkpt>
      <trkpt lat="45.29652" lon="1.4624">
        <ele>365</ele>
        <time>2019-02-27T16:47:02+01:00</time>
      </trkpt>
      <trkpt lat="45.29597" lon="1.46259">
        <ele>366</ele>
        <time>2019-02-27T16:47:12+01:00</time>
      </trkpt>
      <trkpt lat="45.2957" lon="1.46268">
        <ele>366</ele>
        <time>2019-02-27T16:47:17+01:00</time>
      </trkpt>
      <trkpt lat="45.29558" lon="1.46291">
        <ele>365</ele>
        <time>2019-02-27T16:47:21+01:00</time>
      </trkpt>
      <trkpt lat="45.29537" lon="1.46359">
        <ele>363</ele>
        <time>2019-02-27T16:47:32+01:00</time>
      </trkpt>
      <trkpt lat="45.29525" lon="1.46381">
        <ele>363</ele>
        <time>2019-02-27T16:47:36+01:00</time>
      </trkpt>
      <trkpt lat="45.29496" lon="1.46401">
        <ele>365</ele>
        <time>2019-02-27T16:47:43+01:00</time>
      </trkpt>
      <trkpt lat="45.29452" lon="1.46428">
        <ele>363</ele>
        <time>2019-02-27T16:47:50+01:00</time>
      </trkpt>
      <trkpt lat="45.29395" lon="1.46421">
        <ele>362</ele>
        <time>2019-02-27T16:47:57+01:00</time>
      </trkpt>
      <trkpt lat="45.29389" lon="1.46424">
        <ele>361</ele>
        <time>2019-02-27T16:48:00+01:00</time>
      </trkpt>
      <trkpt lat="45.29406" lon="1.46447">
        <ele>360</ele>
        <time>2019-02-27T16:48:07+01:00</time>
      </trkpt>
      <trkpt lat="45.29426" lon="1.46476">
        <ele>359</ele>
        <time>2019-02-27T16:48:11+01:00</time>
      </trkpt>
      <trkpt lat="45.29415" lon="1.46495">
        <ele>357</ele>
        <time>2019-02-27T16:48:17+01:00</time>
      </trkpt>
      <trkpt lat="45.29398" lon="1.46502">
        <ele>353</ele>
        <time>2019-02-27T16:48:20+01:00</time>
      </trkpt>
      <trkpt lat="45.29345" lon="1.46509">
        <ele>343</ele>
        <time>2019-02-27T16:48:37+01:00</time>
      </trkpt>
      <trkpt lat="45.29333" lon="1.46506">
        <ele>343</ele>
        <time>2019-02-27T16:48:43+01:00</time>
      </trkpt>
      <trkpt lat="45.29325" lon="1.46507">
        <ele>342</ele>
        <time>2019-02-27T16:49:04+01:00</time>
      </trkpt>
      <trkpt lat="45.29325" lon="1.46507">
        <ele>342</ele>
        <time>2019-02-27T16:49:05+01:00</time>
      </trkpt>
      <trkpt lat="45.29314" lon="1.46506">
        <ele>342</ele>
        <time>2019-02-27T16:49:13+01:00</time>
      </trkpt>
      <trkpt lat="45.29293" lon="1.46515">
        <ele>337</ele>
        <time>2019-02-27T16:49:27+01:00</time>
      </trkpt>
      <trkpt lat="45.29279" lon="1.46514">
        <ele>337</ele>
        <time>2019-02-27T16:49:44+01:00</time>
      </trkpt>
      <trkpt lat="45.29259" lon="1.46518">
        <ele>334</ele>
        <time>2019-02-27T16:49:52+01:00</time>
      </trkpt>
      <trkpt lat="45.29241" lon="1.46518">
        <ele>334</ele>
        <time>2019-02-27T16:49:57+01:00</time>
      </trkpt>
      <trkpt lat="45.29186" lon="1.46524">
        <ele>334</ele>
        <time>2019-02-27T16:50:15+01:00</time>
      </trkpt>
      <trkpt lat="45.29185" lon="1.46525">
        <ele>333</ele>
        <time>2019-02-27T16:50:17+01:00</time>
      </trkpt>
      <trkpt lat="45.29158" lon="1.46536">
        <ele>329</ele>
        <time>2019-02-27T16:51:04+01:00</time>
      </trkpt>
      <trkpt lat="45.29145" lon="1.46538">
        <ele>328</ele>
        <time>2019-02-27T16:51:09+01:00</time>
      </trkpt>
      <trkpt lat="45.29129" lon="1.46541">
        <ele>326</ele>
        <time>2019-02-27T16:51:13+01:00</time>
      </trkpt>
      <trkpt lat="45.29119" lon="1.46539">
        <ele>326</ele>
        <time>2019-02-27T16:51:16+01:00</time>
      </trkpt>
      <trkpt lat="45.29104" lon="1.46531">
        <ele>328</ele>
        <time>2019-02-27T16:51:24+01:00</time>
      </trkpt>
      <trkpt lat="45.29057" lon="1.46493">
        <ele>336</ele>
        <time>2019-02-27T16:51:40+01:00</time>
      </trkpt>
      <trkpt lat="45.2901" lon="1.46453">
        <ele>339</ele>
        <time>2019-02-27T16:52:02+01:00</time>
      </trkpt>
      <trkpt lat="45.28999" lon="1.4644">
        <ele>340</ele>
        <time>2019-02-27T16:52:09+01:00</time>
      </trkpt>
      <trkpt lat="45.28962" lon="1.46383">
        <ele>342</ele>
        <time>2019-02-27T16:52:35+01:00</time>
      </trkpt>
      <trkpt lat="45.28961" lon="1.46304">
        <ele>344</ele>
        <time>2019-02-27T16:52:57+01:00</time>
      </trkpt>
      <trkpt lat="45.28979" lon="1.46272">
        <ele>347</ele>
        <time>2019-02-27T16:53:10+01:00</time>
      </trkpt>
      <trkpt lat="45.29003" lon="1.46217">
        <ele>348</ele>
        <time>2019-02-27T16:53:26+01:00</time>
      </trkpt>
      <trkpt lat="45.29024" lon="1.46164">
        <ele>346</ele>
        <time>2019-02-27T16:53:34+01:00</time>
      </trkpt>
      <trkpt lat="45.29026" lon="1.46134">
        <ele>346</ele>
        <time>2019-02-27T16:53:38+01:00</time>
      </trkpt>
      <trkpt lat="45.29009" lon="1.46122">
        <ele>346</ele>
        <time>2019-02-27T16:53:44+01:00</time>
      </trkpt>
      <trkpt lat="45.28955" lon="1.46109">
        <ele>341</ele>
        <time>2019-02-27T16:53:56+01:00</time>
      </trkpt>
      <trkpt lat="45.28905" lon="1.46088">
        <ele>339</ele>
        <time>2019-02-27T16:54:04+01:00</time>
      </trkpt>
      <trkpt lat="45.28866" lon="1.46073">
        <ele>335</ele>
        <time>2019-02-27T16:54:10+01:00</time>
      </trkpt>
      <trkpt lat="45.28849" lon="1.46064">
        <ele>334</ele>
        <time>2019-02-27T16:54:11+01:00</time>
      </trkpt>
      <trkpt lat="45.28798" lon="1.46025">
        <ele>327</ele>
        <time>2019-02-27T16:54:17+01:00</time>
      </trkpt>
      <trkpt lat="45.28767" lon="1.46009">
        <ele>324</ele>
        <time>2019-02-27T16:54:20+01:00</time>
      </trkpt>
      <trkpt lat="45.28709" lon="1.45987">
        <ele>315</ele>
        <time>2019-02-27T16:54:25+01:00</time>
      </trkpt>
      <trkpt lat="45.28688" lon="1.45978">
        <ele>312</ele>
        <time>2019-02-27T16:54:28+01:00</time>
      </trkpt>
      <trkpt lat="45.28665" lon="1.45959">
        <ele>310</ele>
        <time>2019-02-27T16:54:31+01:00</time>
      </trkpt>
      <trkpt lat="45.28621" lon="1.45913">
        <ele>306</ele>
        <time>2019-02-27T16:54:38+01:00</time>
      </trkpt>
      <trkpt lat="45.28608" lon="1.459">
        <ele>304</ele>
        <time>2019-02-27T16:54:40+01:00</time>
      </trkpt>
      <trkpt lat="45.28602" lon="1.45862">
        <ele>305</ele>
        <time>2019-02-27T16:54:44+01:00</time>
      </trkpt>
      <trkpt lat="45.28603" lon="1.45832">
        <ele>306</ele>
        <time>2019-02-27T16:54:47+01:00</time>
      </trkpt>
      <trkpt lat="45.28607" lon="1.45801">
        <ele>303</ele>
        <time>2019-02-27T16:54:50+01:00</time>
      </trkpt>
      <trkpt lat="45.28614" lon="1.4578">
        <ele>301</ele>
        <time>2019-02-27T16:54:52+01:00</time>
      </trkpt>
      <trkpt lat="45.28635" lon="1.45752">
        <ele>300</ele>
        <time>2019-02-27T16:54:56+01:00</time>
      </trkpt>
      <trkpt lat="45.28647" lon="1.4574">
        <ele>300</ele>
        <time>2019-02-27T16:54:59+01:00</time>
      </trkpt>
      <trkpt lat="45.28631" lon="1.45726">
        <ele>297</ele>
        <time>2019-02-27T16:55:04+01:00</time>
      </trkpt>
      <trkpt lat="45.28607" lon="1.4572">
        <ele>294</ele>
        <time>2019-02-27T16:55:08+01:00</time>
      </trkpt>
      <trkpt lat="45.28563" lon="1.45723">
        <ele>290</ele>
        <time>2019-02-27T16:55:14+01:00</time>
      </trkpt>
      <trkpt lat="45.2851" lon="1.4569">
        <ele>279</ele>
        <time>2019-02-27T16:55:20+01:00</time>
      </trkpt>
      <trkpt lat="45.28479" lon="1.45677">
        <ele>272</ele>
        <time>2019-02-27T16:55:24+01:00</time>
      </trkpt>
      <trkpt lat="45.28465" lon="1.45676">
        <ele>269</ele>
        <time>2019-02-27T16:55:26+01:00</time>
      </trkpt>
      <trkpt lat="45.28451" lon="1.4568">
        <ele>267</ele>
        <time>2019-02-27T16:55:28+01:00</time>
      </trkpt>
      <trkpt lat="45.28415" lon="1.45691">
        <ele>262</ele>
        <time>2019-02-27T16:55:33+01:00</time>
      </trkpt>
      <trkpt lat="45.28408" lon="1.4569">
        <ele>260</ele>
        <time>2019-02-27T16:55:34+01:00</time>
      </trkpt>
      <trkpt lat="45.28354" lon="1.45691">
        <ele>248</ele>
        <time>2019-02-27T16:55:42+01:00</time>
      </trkpt>
      <trkpt lat="45.28336" lon="1.45697">
        <ele>244</ele>
        <time>2019-02-27T16:55:45+01:00</time>
      </trkpt>
      <trkpt lat="45.28321" lon="1.45691">
        <ele>240</ele>
        <time>2019-02-27T16:55:49+01:00</time>
      </trkpt>
      <trkpt lat="45.28319" lon="1.45685">
        <ele>240</ele>
        <time>2019-02-27T16:55:50+01:00</time>
      </trkpt>
      <trkpt lat="45.28312" lon="1.45663">
        <ele>240</ele>
        <time>2019-02-27T16:55:53+01:00</time>
      </trkpt>
      <trkpt lat="45.28301" lon="1.45657">
        <ele>237</ele>
        <time>2019-02-27T16:55:56+01:00</time>
      </trkpt>
      <trkpt lat="45.28261" lon="1.4564">
        <ele>228</ele>
        <time>2019-02-27T16:56:04+01:00</time>
      </trkpt>
      <trkpt lat="45.28226" lon="1.45621">
        <ele>221</ele>
        <time>2019-02-27T16:56:11+01:00</time>
      </trkpt>
      <trkpt lat="45.28195" lon="1.45597">
        <ele>217</ele>
        <time>2019-02-27T16:56:16+01:00</time>
      </trkpt>
      <trkpt lat="45.28189" lon="1.45593">
        <ele>217</ele>
        <time>2019-02-27T16:56:17+01:00</time>
      </trkpt>
      <trkpt lat="45.28142" lon="1.45578">
        <ele>212</ele>
        <time>2019-02-27T16:56:24+01:00</time>
      </trkpt>
      <trkpt lat="45.28118" lon="1.45573">
        <ele>208</ele>
        <time>2019-02-27T16:56:28+01:00</time>
      </trkpt>
      <trkpt lat="45.28098" lon="1.45566">
        <ele>205</ele>
        <time>2019-02-27T16:56:32+01:00</time>
      </trkpt>
      <trkpt lat="45.28087" lon="1.45565">
        <ele>204</ele>
        <time>2019-02-27T16:56:34+01:00</time>
      </trkpt>
      <trkpt lat="45.28076" lon="1.45565">
        <ele>202</ele>
        <time>2019-02-27T16:56:36+01:00</time>
      </trkpt>
      <trkpt lat="45.28028" lon="1.4556">
        <ele>191</ele>
        <time>2019-02-27T16:56:45+01:00</time>
      </trkpt>
      <trkpt lat="45.28007" lon="1.45559">
        <ele>186</ele>
        <time>2019-02-27T16:56:51+01:00</time>
      </trkpt>
      <trkpt lat="45.27993" lon="1.45541">
        <ele>181</ele>
        <time>2019-02-27T16:56:57+01:00</time>
      </trkpt>
      <trkpt lat="45.27991" lon="1.45531">
        <ele>181</ele>
        <time>2019-02-27T16:56:59+01:00</time>
      </trkpt>
      <trkpt lat="45.27991" lon="1.45511">
        <ele>181</ele>
        <time>2019-02-27T16:57:03+01:00</time>
      </trkpt>
      <trkpt lat="45.27996" lon="1.45487">
        <ele>180</ele>
        <time>2019-02-27T16:57:07+01:00</time>
      </trkpt>
      <trkpt lat="45.27996" lon="1.45487">
        <ele>180</ele>
        <time>2019-02-27T16:57:08+01:00</time>
      </trkpt>
      <trkpt lat="45.28001" lon="1.45476">
        <ele>179</ele>
        <time>2019-02-27T16:57:09+01:00</time>
      </trkpt>
      <trkpt lat="45.28014" lon="1.45451">
        <ele>177</ele>
        <time>2019-02-27T16:57:14+01:00</time>
      </trkpt>
      <trkpt lat="45.28017" lon="1.45447">
        <ele>176</ele>
        <time>2019-02-27T16:57:16+01:00</time>
      </trkpt>
      <trkpt lat="45.28037" lon="1.45428">
        <ele>175</ele>
        <time>2019-02-27T16:57:20+01:00</time>
      </trkpt>
      <trkpt lat="45.28061" lon="1.45405">
        <ele>174</ele>
        <time>2019-02-27T16:57:26+01:00</time>
      </trkpt>
      <trkpt lat="45.28072" lon="1.45402">
        <ele>175</ele>
        <time>2019-02-27T16:57:28+01:00</time>
      </trkpt>
      <trkpt lat="45.28091" lon="1.4541">
        <ele>178</ele>
        <time>2019-02-27T16:57:32+01:00</time>
      </trkpt>
      <trkpt lat="45.28106" lon="1.45414">
        <ele>180</ele>
        <time>2019-02-27T16:57:39+01:00</time>
      </trkpt>
      <trkpt lat="45.28064" lon="1.45364">
        <ele>167</ele>
        <time>2019-02-27T16:57:56+01:00</time>
      </trkpt>
      <trkpt lat="45.2801" lon="1.45343">
        <ele>158</ele>
        <time>2019-02-27T16:58:13+01:00</time>
      </trkpt>
      <trkpt lat="45.27977" lon="1.45345">
        <ele>155</ele>
        <time>2019-02-27T16:58:23+01:00</time>
      </trkpt>
      <trkpt lat="45.27927" lon="1.45374">
        <ele>149</ele>
        <time>2019-02-27T16:58:32+01:00</time>
      </trkpt>
      <trkpt lat="45.27879" lon="1.45423">
        <ele>138</ele>
        <time>2019-02-27T16:58:39+01:00</time>
      </trkpt>
      <trkpt lat="45.2783" lon="1.45476">
        <ele>129</ele>
        <time>2019-02-27T16:58:46+01:00</time>
      </trkpt>
      <trkpt lat="45.27826" lon="1.45483">
        <ele>128</ele>
        <time>2019-02-27T16:58:47+01:00</time>
      </trkpt>
      <trkpt lat="45.27819" lon="1.45496">
        <ele>127</ele>
        <time>2019-02-27T16:58:49+01:00</time>
      </trkpt>
      <trkpt lat="45.27807" lon="1.45527">
        <ele>125</ele>
        <time>2019-02-27T16:58:55+01:00</time>
      </trkpt>
      <trkpt lat="45.27812" lon="1.45539">
        <ele>125</ele>
        <time>2019-02-27T16:58:58+01:00</time>
      </trkpt>
      <trkpt lat="45.2782" lon="1.45553">
        <ele>126</ele>
        <time>2019-02-27T16:59:02+01:00</time>
      </trkpt>
      <trkpt lat="45.27834" lon="1.45581">
        <ele>126</ele>
        <time>2019-02-27T16:59:06+01:00</time>
      </trkpt>
      <trkpt lat="45.27851" lon="1.45604">
        <ele>128</ele>
        <time>2019-02-27T16:59:11+01:00</time>
      </trkpt>
      <trkpt lat="45.27863" lon="1.45616">
        <ele>129</ele>
        <time>2019-02-27T16:59:14+01:00</time>
      </trkpt>
      <trkpt lat="45.27867" lon="1.45619">
        <ele>130</ele>
        <time>2019-02-27T16:59:15+01:00</time>
      </trkpt>
      <trkpt lat="45.27918" lon="1.45651">
        <ele>131</ele>
        <time>2019-02-27T16:59:31+01:00</time>
      </trkpt>
      <trkpt lat="45.27966" lon="1.45685">
        <ele>135</ele>
        <time>2019-02-27T16:59:49+01:00</time>
      </trkpt>
      <trkpt lat="45.27983" lon="1.45701">
        <ele>135</ele>
        <time>2019-02-27T16:59:54+01:00</time>
      </trkpt>
      <trkpt lat="45.28028" lon="1.45745">
        <ele>128</ele>
        <time>2019-02-27T17:00:03+01:00</time>
      </trkpt>
      <trkpt lat="45.28034" lon="1.4575">
        <ele>127</ele>
        <time>2019-02-27T17:00:04+01:00</time>
      </trkpt>
      <trkpt lat="45.28076" lon="1.45771">
        <ele>128</ele>
        <time>2019-02-27T17:00:10+01:00</time>
      </trkpt>
      <trkpt lat="45.2812" lon="1.45784">
        <ele>134</ele>
        <time>2019-02-27T17:00:18+01:00</time>
      </trkpt>
      <trkpt lat="45.28147" lon="1.45801">
        <ele>133</ele>
        <time>2019-02-27T17:00:24+01:00</time>
      </trkpt>
      <trkpt lat="45.28158" lon="1.45816">
        <ele>129</ele>
        <time>2019-02-27T17:00:27+01:00</time>
      </trkpt>
      <trkpt lat="45.28196" lon="1.45877">
        <ele>134</ele>
        <time>2019-02-27T17:00:38+01:00</time>
      </trkpt>
      <trkpt lat="45.28237" lon="1.45933">
        <ele>136</ele>
        <time>2019-02-27T17:00:50+01:00</time>
      </trkpt>
      <trkpt lat="45.28252" lon="1.45955">
        <ele>136</ele>
        <time>2019-02-27T17:00:55+01:00</time>
      </trkpt>
      <trkpt lat="45.28285" lon="1.46017">
        <ele>140</ele>
        <time>2019-02-27T17:01:09+01:00</time>
      </trkpt>
      <trkpt lat="45.28319" lon="1.46079">
        <ele>141</ele>
        <time>2019-02-27T17:01:24+01:00</time>
      </trkpt>
      <trkpt lat="45.28353" lon="1.46142">
        <ele>143</ele>
        <time>2019-02-27T17:01:42+01:00</time>
      </trkpt>
      <trkpt lat="45.28393" lon="1.46194">
        <ele>148</ele>
        <time>2019-02-27T17:02:00+01:00</time>
      </trkpt>
      <trkpt lat="45.28429" lon="1.4625">
        <ele>145</ele>
        <time>2019-02-27T17:02:16+01:00</time>
      </trkpt>
      <trkpt lat="45.28447" lon="1.46291">
        <ele>146</ele>
        <time>2019-02-27T17:02:27+01:00</time>
      </trkpt>
      <trkpt lat="45.28474" lon="1.46336">
        <ele>146</ele>
        <time>2019-02-27T17:02:35+01:00</time>
      </trkpt>
      <trkpt lat="45.28484" lon="1.46359">
        <ele>144</ele>
        <time>2019-02-27T17:02:38+01:00</time>
      </trkpt>
      <trkpt lat="45.28494" lon="1.46376">
        <ele>142</ele>
        <time>2019-02-27T17:02:41+01:00</time>
      </trkpt>
      <trkpt lat="45.28503" lon="1.46387">
        <ele>142</ele>
        <time>2019-02-27T17:02:45+01:00</time>
      </trkpt>
      <trkpt lat="45.2851" lon="1.46393">
        <ele>142</ele>
        <time>2019-02-27T17:02:50+01:00</time>
      </trkpt>
      <trkpt lat="45.2852" lon="1.46406">
        <ele>143</ele>
        <time>2019-02-27T17:03:01+01:00</time>
      </trkpt>
      <trkpt lat="45.28514" lon="1.46421">
        <ele>137</ele>
        <time>2019-02-27T17:03:06+01:00</time>
      </trkpt>
      <trkpt lat="45.28494" lon="1.46458">
        <ele>131</ele>
        <time>2019-02-27T17:03:15+01:00</time>
      </trkpt>
      <trkpt lat="45.28449" lon="1.46484">
        <ele>131</ele>
        <time>2019-02-27T17:03:31+01:00</time>
      </trkpt>
      <trkpt lat="45.28442" lon="1.4652">
        <ele>134</ele>
        <time>2019-02-27T17:03:39+01:00</time>
      </trkpt>
      <trkpt lat="45.2845" lon="1.46533">
        <ele>135</ele>
        <time>2019-02-27T17:03:43+01:00</time>
      </trkpt>
      <trkpt lat="45.28464" lon="1.46556">
        <ele>136</ele>
        <time>2019-02-27T17:03:50+01:00</time>
      </trkpt>
      <trkpt lat="45.28462" lon="1.46557">
        <ele>137</ele>
        <time>2019-02-27T17:03:53+01:00</time>
      </trkpt>
      <trkpt lat="45.28439" lon="1.4653">
        <ele>135</ele>
        <time>2019-02-27T17:04:05+01:00</time>
      </trkpt>
      <trkpt lat="45.28438" lon="1.46532">
        <ele>136</ele>
        <time>2019-02-27T17:04:07+01:00</time>
      </trkpt>
      <trkpt lat="45.28472" lon="1.46593">
        <ele>139</ele>
        <time>2019-02-27T17:04:27+01:00</time>
      </trkpt>
      <trkpt lat="45.28486" lon="1.46619">
        <ele>141</ele>
        <time>2019-02-27T17:04:37+01:00</time>
      </trkpt>
      <trkpt lat="45.28481" lon="1.46617">
        <ele>141</ele>
        <time>2019-02-27T17:04:41+01:00</time>
      </trkpt>
      <trkpt lat="45.28461" lon="1.46583">
        <ele>140</ele>
        <time>2019-02-27T17:04:53+01:00</time>
      </trkpt>
      <trkpt lat="45.28468" lon="1.46599">
        <ele>141</ele>
        <time>2019-02-27T17:05:01+01:00</time>
      </trkpt>
      <trkpt lat="45.28482" lon="1.46626">
        <ele>143</ele>
        <time>2019-02-27T17:05:10+01:00</time>
      </trkpt>
      <trkpt lat="45.28474" lon="1.46627">
        <ele>144</ele>
        <time>2019-02-27T17:05:14+01:00</time>
      </trkpt>
      <trkpt lat="45.28456" lon="1.46612">
        <ele>145</ele>
        <time>2019-02-27T17:05:23+01:00</time>
      </trkpt>
      <trkpt lat="45.2845" lon="1.46615">
        <ele>147</ele>
        <time>2019-02-27T17:05:27+01:00</time>
      </trkpt>
      <trkpt lat="45.2844" lon="1.46603">
        <ele>146</ele>
        <time>2019-02-27T17:05:33+01:00</time>
      </trkpt>
      <trkpt lat="45.28388" lon="1.46589">
        <ele>153</ele>
        <time>2019-02-27T17:06:01+01:00</time>
      </trkpt>
      <trkpt lat="45.28332" lon="1.46567">
        <ele>159</ele>
        <time>2019-02-27T17:06:32+01:00</time>
      </trkpt>
      <trkpt lat="45.28307" lon="1.46544">
        <ele>159</ele>
        <time>2019-02-27T17:06:39+01:00</time>
      </trkpt>
      <trkpt lat="45.28258" lon="1.4651">
        <ele>161</ele>
        <time>2019-02-27T17:06:52+01:00</time>
      </trkpt>
      <trkpt lat="45.28217" lon="1.46461">
        <ele>158</ele>
        <time>2019-02-27T17:07:10+01:00</time>
      </trkpt>
      <trkpt lat="45.28209" lon="1.46449">
        <ele>157</ele>
        <time>2019-02-27T17:07:12+01:00</time>
      </trkpt>
      <trkpt lat="45.28176" lon="1.46416">
        <ele>155</ele>
        <time>2019-02-27T17:07:17+01:00</time>
      </trkpt>
      <trkpt lat="45.28151" lon="1.46383">
        <ele>151</ele>
        <time>2019-02-27T17:07:21+01:00</time>
      </trkpt>
      <trkpt lat="45.28141" lon="1.46354">
        <ele>146</ele>
        <time>2019-02-27T17:07:24+01:00</time>
      </trkpt>
      <trkpt lat="45.2813" lon="1.4633">
        <ele>143</ele>
        <time>2019-02-27T17:07:27+01:00</time>
      </trkpt>
      <trkpt lat="45.28102" lon="1.463">
        <ele>141</ele>
        <time>2019-02-27T17:07:32+01:00</time>
      </trkpt>
      <trkpt lat="45.28045" lon="1.46289">
        <ele>141</ele>
        <time>2019-02-27T17:07:40+01:00</time>
      </trkpt>
      <trkpt lat="45.28014" lon="1.46289">
        <ele>142</ele>
        <time>2019-02-27T17:07:45+01:00</time>
      </trkpt>
      <trkpt lat="45.27992" lon="1.46284">
        <ele>142</ele>
        <time>2019-02-27T17:07:49+01:00</time>
      </trkpt>
      <trkpt lat="45.27973" lon="1.46276">
        <ele>141</ele>
        <time>2019-02-27T17:07:52+01:00</time>
      </trkpt>
      <trkpt lat="45.27941" lon="1.46257">
        <ele>139</ele>
        <time>2019-02-27T17:07:57+01:00</time>
      </trkpt>
      <trkpt lat="45.27928" lon="1.46252">
        <ele>139</ele>
        <time>2019-02-27T17:07:59+01:00</time>
      </trkpt>
      <trkpt lat="45.27917" lon="1.4625">
        <ele>139</ele>
        <time>2019-02-27T17:08:01+01:00</time>
      </trkpt>
      <trkpt lat="45.27903" lon="1.46253">
        <ele>140</ele>
        <time>2019-02-27T17:08:04+01:00</time>
      </trkpt>
      <trkpt lat="45.27859" lon="1.46215">
        <ele>138</ele>
        <time>2019-02-27T17:08:18+01:00</time>
      </trkpt>
      <trkpt lat="45.27856" lon="1.46212">
        <ele>138</ele>
        <time>2019-02-27T17:08:20+01:00</time>
      </trkpt>
      <trkpt lat="45.27819" lon="1.4627">
        <ele>145</ele>
        <time>2019-02-27T17:08:41+01:00</time>
      </trkpt>
      <trkpt lat="45.27804" lon="1.46341">
        <ele>148</ele>
        <time>2019-02-27T17:09:01+01:00</time>
      </trkpt>
      <trkpt lat="45.27761" lon="1.46389">
        <ele>153</ele>
        <time>2019-02-27T17:09:16+01:00</time>
      </trkpt>
      <trkpt lat="45.27708" lon="1.464">
        <ele>155</ele>
        <time>2019-02-27T17:09:37+01:00</time>
      </trkpt>
      <trkpt lat="45.27655" lon="1.46412">
        <ele>158</ele>
        <time>2019-02-27T17:10:02+01:00</time>
      </trkpt>
      <trkpt lat="45.2763" lon="1.46463">
        <ele>165</ele>
        <time>2019-02-27T17:10:31+01:00</time>
      </trkpt>
      <trkpt lat="45.27633" lon="1.46467">
        <ele>165</ele>
        <time>2019-02-27T17:10:32+01:00</time>
      </trkpt>
      <trkpt lat="45.27638" lon="1.46473">
        <ele>166</ele>
        <time>2019-02-27T17:10:37+01:00</time>
      </trkpt>
      <trkpt lat="45.27692" lon="1.46472">
        <ele>170</ele>
        <time>2019-02-27T17:11:00+01:00</time>
      </trkpt>
      <trkpt lat="45.27748" lon="1.46466">
        <ele>171</ele>
        <time>2019-02-27T17:11:26+01:00</time>
      </trkpt>
      <trkpt lat="45.27801" lon="1.46491">
        <ele>177</ele>
        <time>2019-02-27T17:11:54+01:00</time>
      </trkpt>
      <trkpt lat="45.27811" lon="1.46496">
        <ele>178</ele>
        <time>2019-02-27T17:11:59+01:00</time>
      </trkpt>
      <trkpt lat="45.27853" lon="1.46525">
        <ele>187</ele>
        <time>2019-02-27T17:12:18+01:00</time>
      </trkpt>
      <trkpt lat="45.27859" lon="1.46532">
        <ele>189</ele>
        <time>2019-02-27T17:12:23+01:00</time>
      </trkpt>
      <trkpt lat="45.27855" lon="1.46461">
        <ele>170</ele>
        <time>2019-02-27T17:12:31+01:00</time>
      </trkpt>
      <trkpt lat="45.27852" lon="1.46425">
        <ele>161</ele>
        <time>2019-02-27T17:12:40+01:00</time>
      </trkpt>
      <trkpt lat="45.27871" lon="1.46455">
        <ele>170</ele>
        <time>2019-02-27T17:12:41+01:00</time>
      </trkpt>
      <trkpt lat="45.27914" lon="1.46491">
        <ele>183</ele>
        <time>2019-02-27T17:13:04+01:00</time>
      </trkpt>
      <trkpt lat="45.27923" lon="1.46497">
        <ele>184</ele>
        <time>2019-02-27T17:13:10+01:00</time>
      </trkpt>
      <trkpt lat="45.27979" lon="1.46503">
        <ele>187</ele>
        <time>2019-02-27T17:13:34+01:00</time>
      </trkpt>
      <trkpt lat="45.28038" lon="1.46514">
        <ele>187</ele>
        <time>2019-02-27T17:13:43+01:00</time>
      </trkpt>
      <trkpt lat="45.28098" lon="1.46518">
        <ele>184</ele>
        <time>2019-02-27T17:13:51+01:00</time>
      </trkpt>
      <trkpt lat="45.28127" lon="1.46515">
        <ele>182</ele>
        <time>2019-02-27T17:13:54+01:00</time>
      </trkpt>
      <trkpt lat="45.2815" lon="1.46525">
        <ele>185</ele>
        <time>2019-02-27T17:14:03+01:00</time>
      </trkpt>
      <trkpt lat="45.28162" lon="1.46548">
        <ele>191</ele>
        <time>2019-02-27T17:14:16+01:00</time>
      </trkpt>
      <trkpt lat="45.28163" lon="1.46551">
        <ele>192</ele>
        <time>2019-02-27T17:14:19+01:00</time>
      </trkpt>
      <trkpt lat="45.28172" lon="1.46563">
        <ele>195</ele>
        <time>2019-02-27T17:14:30+01:00</time>
      </trkpt>
      <trkpt lat="45.28172" lon="1.46563">
        <ele>195</ele>
        <time>2019-02-27T17:14:32+01:00</time>
      </trkpt>
      <trkpt lat="45.28175" lon="1.46568">
        <ele>195</ele>
        <time>2019-02-27T17:14:36+01:00</time>
      </trkpt>
      <trkpt lat="45.28199" lon="1.46599">
        <ele>200</ele>
        <time>2019-02-27T17:15:05+01:00</time>
      </trkpt>
      <trkpt lat="45.28209" lon="1.46609">
        <ele>201</ele>
        <time>2019-02-27T17:15:14+01:00</time>
      </trkpt>
      <trkpt lat="45.28223" lon="1.46623">
        <ele>203</ele>
        <time>2019-02-27T17:15:28+01:00</time>
      </trkpt>
      <trkpt lat="45.28236" lon="1.46645">
        <ele>207</ele>
        <time>2019-02-27T17:15:45+01:00</time>
      </trkpt>
      <trkpt lat="45.28232" lon="1.46647">
        <ele>209</ele>
        <time>2019-02-27T17:15:50+01:00</time>
      </trkpt>
      <trkpt lat="45.28228" lon="1.46649">
        <ele>210</ele>
        <time>2019-02-27T17:15:54+01:00</time>
      </trkpt>
      <trkpt lat="45.28181" lon="1.46647">
        <ele>217</ele>
        <time>2019-02-27T17:16:32+01:00</time>
      </trkpt>
      <trkpt lat="45.28138" lon="1.4665">
        <ele>223</ele>
        <time>2019-02-27T17:16:59+01:00</time>
      </trkpt>
      <trkpt lat="45.28118" lon="1.46656">
        <ele>226</ele>
        <time>2019-02-27T17:17:13+01:00</time>
      </trkpt>
      <trkpt lat="45.28099" lon="1.46662">
        <ele>229</ele>
        <time>2019-02-27T17:17:26+01:00</time>
      </trkpt>
      <trkpt lat="45.28091" lon="1.46662">
        <ele>229</ele>
        <time>2019-02-27T17:17:32+01:00</time>
      </trkpt>
      <trkpt lat="45.28086" lon="1.46665">
        <ele>230</ele>
        <time>2019-02-27T17:17:38+01:00</time>
      </trkpt>
      <trkpt lat="45.28088" lon="1.46671">
        <ele>232</ele>
        <time>2019-02-27T17:17:42+01:00</time>
      </trkpt>
      <trkpt lat="45.28099" lon="1.46674">
        <ele>232</ele>
        <time>2019-02-27T17:17:53+01:00</time>
      </trkpt>
      <trkpt lat="45.28105" lon="1.46675">
        <ele>232</ele>
        <time>2019-02-27T17:17:58+01:00</time>
      </trkpt>
      <trkpt lat="45.28112" lon="1.46682">
        <ele>233</ele>
        <time>2019-02-27T17:18:05+01:00</time>
      </trkpt>
      <trkpt lat="45.28114" lon="1.46683">
        <ele>233</ele>
        <time>2019-02-27T17:18:07+01:00</time>
      </trkpt>
      <trkpt lat="45.28164" lon="1.46713">
        <ele>239</ele>
        <time>2019-02-27T17:18:44+01:00</time>
      </trkpt>
      <trkpt lat="45.28169" lon="1.46718">
        <ele>240</ele>
        <time>2019-02-27T17:18:48+01:00</time>
      </trkpt>
      <trkpt lat="45.28183" lon="1.46733">
        <ele>243</ele>
        <time>2019-02-27T17:19:01+01:00</time>
      </trkpt>
      <trkpt lat="45.28193" lon="1.46743">
        <ele>244</ele>
        <time>2019-02-27T17:19:11+01:00</time>
      </trkpt>
      <trkpt lat="45.28201" lon="1.46748">
        <ele>245</ele>
        <time>2019-02-27T17:19:18+01:00</time>
      </trkpt>
      <trkpt lat="45.28211" lon="1.46759">
        <ele>247</ele>
        <time>2019-02-27T17:19:29+01:00</time>
      </trkpt>
      <trkpt lat="45.28212" lon="1.46761">
        <ele>248</ele>
        <time>2019-02-27T17:19:31+01:00</time>
      </trkpt>
      <trkpt lat="45.28203" lon="1.46766">
        <ele>250</ele>
        <time>2019-02-27T17:19:40+01:00</time>
      </trkpt>
      <trkpt lat="45.28187" lon="1.46769">
        <ele>253</ele>
        <time>2019-02-27T17:19:53+01:00</time>
      </trkpt>
      <trkpt lat="45.2818" lon="1.4677">
        <ele>254</ele>
        <time>2019-02-27T17:19:59+01:00</time>
      </trkpt>
      <trkpt lat="45.28171" lon="1.46771">
        <ele>255</ele>
        <time>2019-02-27T17:20:06+01:00</time>
      </trkpt>
      <trkpt lat="45.28158" lon="1.46774">
        <ele>256</ele>
        <time>2019-02-27T17:20:16+01:00</time>
      </trkpt>
      <trkpt lat="45.28152" lon="1.46776">
        <ele>257</ele>
        <time>2019-02-27T17:20:21+01:00</time>
      </trkpt>
      <trkpt lat="45.28149" lon="1.46777">
        <ele>257</ele>
        <time>2019-02-27T17:20:24+01:00</time>
      </trkpt>
      <trkpt lat="45.28144" lon="1.46778">
        <ele>258</ele>
        <time>2019-02-27T17:20:28+01:00</time>
      </trkpt>
      <trkpt lat="45.2814" lon="1.46779">
        <ele>258</ele>
        <time>2019-02-27T17:20:31+01:00</time>
      </trkpt>
      <trkpt lat="45.28131" lon="1.46782">
        <ele>258</ele>
        <time>2019-02-27T17:20:38+01:00</time>
      </trkpt>
      <trkpt lat="45.28111" lon="1.46792">
        <ele>261</ele>
        <time>2019-02-27T17:20:53+01:00</time>
      </trkpt>
      <trkpt lat="45.28104" lon="1.46797">
        <ele>262</ele>
        <time>2019-02-27T17:21:00+01:00</time>
      </trkpt>
      <trkpt lat="45.28099" lon="1.46799">
        <ele>262</ele>
        <time>2019-02-27T17:21:04+01:00</time>
      </trkpt>
      <trkpt lat="45.28098" lon="1.46801">
        <ele>263</ele>
        <time>2019-02-27T17:21:06+01:00</time>
      </trkpt>
      <trkpt lat="45.28091" lon="1.46813">
        <ele>265</ele>
        <time>2019-02-27T17:21:15+01:00</time>
      </trkpt>
      <trkpt lat="45.28087" lon="1.46819">
        <ele>267</ele>
        <time>2019-02-27T17:21:20+01:00</time>
      </trkpt>
      <trkpt lat="45.28081" lon="1.46834">
        <ele>270</ele>
        <time>2019-02-27T17:21:30+01:00</time>
      </trkpt>
      <trkpt lat="45.28079" lon="1.4684">
        <ele>270</ele>
        <time>2019-02-27T17:21:34+01:00</time>
      </trkpt>
      <trkpt lat="45.28074" lon="1.46869">
        <ele>272</ele>
        <time>2019-02-27T17:21:51+01:00</time>
      </trkpt>
      <trkpt lat="45.28075" lon="1.46874">
        <ele>273</ele>
        <time>2019-02-27T17:21:55+01:00</time>
      </trkpt>
      <trkpt lat="45.28078" lon="1.46878">
        <ele>274</ele>
        <time>2019-02-27T17:21:59+01:00</time>
      </trkpt>
      <trkpt lat="45.28081" lon="1.46886">
        <ele>276</ele>
        <time>2019-02-27T17:22:04+01:00</time>
      </trkpt>
      <trkpt lat="45.2809" lon="1.46941">
        <ele>283</ele>
        <time>2019-02-27T17:22:44+01:00</time>
      </trkpt>
      <trkpt lat="45.28105" lon="1.46938">
        <ele>285</ele>
        <time>2019-02-27T17:22:58+01:00</time>
      </trkpt>
      <trkpt lat="45.28137" lon="1.46927">
        <ele>288</ele>
        <time>2019-02-27T17:23:02+01:00</time>
      </trkpt>
      <trkpt lat="45.28164" lon="1.46925">
        <ele>292</ele>
        <time>2019-02-27T17:23:06+01:00</time>
      </trkpt>
      <trkpt lat="45.28177" lon="1.46926">
        <ele>293</ele>
        <time>2019-02-27T17:23:11+01:00</time>
      </trkpt>
      <trkpt lat="45.28198" lon="1.46944">
        <ele>298</ele>
        <time>2019-02-27T17:23:17+01:00</time>
      </trkpt>
      <trkpt lat="45.28184" lon="1.4697">
        <ele>301</ele>
        <time>2019-02-27T17:23:18+01:00</time>
      </trkpt>
      <trkpt lat="45.2818" lon="1.47002">
        <ele>305</ele>
        <time>2019-02-27T17:23:23+01:00</time>
      </trkpt>
      <trkpt lat="45.28189" lon="1.47029">
        <ele>310</ele>
      </trkpt>
      <trkpt lat="45.28205" lon="1.47033">
        <ele>314</ele>
      </trkpt>
      <trkpt lat="45.28212" lon="1.47089">
        <ele>322</ele>
      </trkpt>
      <trkpt lat="45.28205" lon="1.47132">
        <ele>326</ele>
      </trkpt>
      <trkpt lat="45.28183" lon="1.47193">
        <ele>331</ele>
      </trkpt>
      <trkpt lat="45.28173" lon="1.47227">
        <ele>336</ele>
      </trkpt>
      <trkpt lat="45.28158" lon="1.47271">
        <ele>341</ele>
      </trkpt>
      <trkpt lat="45.28148" lon="1.47311">
        <ele>347</ele>
      </trkpt>
      <trkpt lat="45.28148" lon="1.47338">
        <ele>351</ele>
      </trkpt>
      <trkpt lat="45.28126" lon="1.47343">
        <ele>349</ele>
      </trkpt>
      <trkpt lat="45.28111" lon="1.47347">
        <ele>347</ele>
      </trkpt>
      <trkpt lat="45.2809" lon="1.47374">
        <ele>346</ele>
      </trkpt>
      <trkpt lat="45.28054" lon="1.47421">
        <ele>347</ele>
      </trkpt>
      <trkpt lat="45.28035" lon="1.47433">
        <ele>346</ele>
      </trkpt>
      <trkpt lat="45.28063" lon="1.47443">
        <ele>349</ele>
      </trkpt>
      <trkpt lat="45.28084" lon="1.47449">
        <ele>352</ele>
      </trkpt>
      <trkpt lat="45.28102" lon="1.47484">
        <ele>357</ele>
      </trkpt>
      <trkpt lat="45.28114" lon="1.47517">
        <ele>361</ele>
      </trkpt>
      <trkpt lat="45.2811" lon="1.47558">
        <ele>363</ele>
      </trkpt>
      <trkpt lat="45.28112" lon="1.47574">
        <ele>364</ele>
      </trkpt>
      <trkpt lat="45.28124" lon="1.47633">
        <ele>367</ele>
      </trkpt>
      <trkpt lat="45.28129" lon="1.4768">
        <ele>369</ele>
      </trkpt>
      <trkpt lat="45.28136" lon="1.47714">
        <ele>370</ele>
      </trkpt>
      <trkpt lat="45.28139" lon="1.4777">
        <ele>372</ele>
      </trkpt>
      <trkpt lat="45.28154" lon="1.47823">
        <ele>375</ele>
      </trkpt>
      <trkpt lat="45.28168" lon="1.47859">
        <ele>378</ele>
      </trkpt>
      <trkpt lat="45.28194" lon="1.47884">
        <ele>380</ele>
      </trkpt>
      <trkpt lat="45.28222" lon="1.47888">
        <ele>382</ele>
      </trkpt>
      <trkpt lat="45.28233" lon="1.47921">
        <ele>383</ele>
      </trkpt>
      <trkpt lat="45.28245" lon="1.47961">
        <ele>382</ele>
      </trkpt>
      <trkpt lat="45.28249" lon="1.48">
        <ele>382</ele>
      </trkpt>
      <trkpt lat="45.28255" lon="1.48035">
        <ele>383</ele>
      </trkpt>
      <trkpt lat="45.28251" lon="1.48091">
        <ele>384</ele>
      </trkpt>
      <trkpt lat="45.28221" lon="1.48177">
        <ele>385</ele>
      </trkpt>
      <trkpt lat="45.28201" lon="1.48222">
        <ele>387</ele>
      </trkpt>
      <trkpt lat="45.28164" lon="1.48289">
        <ele>390</ele>
      </trkpt>
      <trkpt lat="45.28124" lon="1.48362">
        <ele>391</ele>
      </trkpt>
      <trkpt lat="45.28112" lon="1.48387">
        <ele>391</ele>
      </trkpt>
      <trkpt lat="45.28075" lon="1.48489">
        <ele>390</ele>
      </trkpt>
      <trkpt lat="45.28021" lon="1.48611">
        <ele>385</ele>
      </trkpt>
      <trkpt lat="45.27984" lon="1.48686">
        <ele>383</ele>
      </trkpt>
      <trkpt lat="45.27946" lon="1.48671">
        <ele>382</ele>
      </trkpt>
      <trkpt lat="45.27924" lon="1.48653">
        <ele>381</ele>
      </trkpt>
      <trkpt lat="45.27907" lon="1.48618">
        <ele>380</ele>
      </trkpt>
      <trkpt lat="45.27882" lon="1.48581">
        <ele>378</ele>
      </trkpt>
      <trkpt lat="45.27853" lon="1.48558">
        <ele>376</ele>
      </trkpt>
      <trkpt lat="45.27803" lon="1.48528">
        <ele>375</ele>
      </trkpt>
      <trkpt lat="45.27776" lon="1.485">
        <ele>375</ele>
      </trkpt>
      <trkpt lat="45.27743" lon="1.48462">
        <ele>376</ele>
      </trkpt>
      <trkpt lat="45.27727" lon="1.48434">
        <ele>376</ele>
      </trkpt>
      <trkpt lat="45.27724" lon="1.48357">
        <ele>380</ele>
      </trkpt>
      <trkpt lat="45.27712" lon="1.48287">
        <ele>382</ele>
      </trkpt>
      <trkpt lat="45.27705" lon="1.4826">
        <ele>382</ele>
      </trkpt>
      <trkpt lat="45.27676" lon="1.48282">
        <ele>380</ele>
      </trkpt>
      <trkpt lat="45.27649" lon="1.48281">
        <ele>379</ele>
      </trkpt>
      <trkpt lat="45.276" lon="1.48283">
        <ele>377</ele>
      </trkpt>
      <trkpt lat="45.27564" lon="1.48266">
        <ele>374</ele>
      </trkpt>
      <trkpt lat="45.27533" lon="1.48244">
        <ele>372</ele>
      </trkpt>
      <trkpt lat="45.27532" lon="1.48221">
        <ele>370</ele>
      </trkpt>
      <trkpt lat="45.27548" lon="1.48197">
        <ele>369</ele>
      </trkpt>
      <trkpt lat="45.27558" lon="1.48182">
        <ele>369</ele>
      </trkpt>
      <trkpt lat="45.27541" lon="1.48148">
        <ele>366</ele>
      </trkpt>
      <trkpt lat="45.27518" lon="1.48114">
        <ele>363</ele>
      </trkpt>
      <trkpt lat="45.27502" lon="1.48049">
        <ele>358</ele>
      </trkpt>
      <trkpt lat="45.27488" lon="1.47967">
        <ele>351</ele>
      </trkpt>
      <trkpt lat="45.27497" lon="1.47854">
        <ele>344</ele>
      </trkpt>
      <trkpt lat="45.27507" lon="1.47735">
        <ele>338</ele>
      </trkpt>
      <trkpt lat="45.275" lon="1.47685">
        <ele>335</ele>
      </trkpt>
      <trkpt lat="45.27474" lon="1.47664">
        <ele>330</ele>
      </trkpt>
      <trkpt lat="45.27447" lon="1.47655">
        <ele>326</ele>
      </trkpt>
      <trkpt lat="45.2742" lon="1.47654">
        <ele>321</ele>
      </trkpt>
      <trkpt lat="45.27417" lon="1.47582">
        <ele>321</ele>
      </trkpt>
      <trkpt lat="45.27434" lon="1.47546">
        <ele>323</ele>
      </trkpt>
      <trkpt lat="45.27444" lon="1.4753">
        <ele>324</ele>
      </trkpt>
      <trkpt lat="45.27459" lon="1.47513">
        <ele>326</ele>
      </trkpt>
      <trkpt lat="45.27481" lon="1.47473">
        <ele>328</ele>
      </trkpt>
      <trkpt lat="45.27496" lon="1.47443">
        <ele>329</ele>
      </trkpt>
      <trkpt lat="45.27512" lon="1.47411">
        <ele>328</ele>
      </trkpt>
      <trkpt lat="45.27532" lon="1.47384">
        <ele>328</ele>
      </trkpt>
      <trkpt lat="45.27539" lon="1.47362">
        <ele>326</ele>
      </trkpt>
      <trkpt lat="45.27546" lon="1.47329">
        <ele>324</ele>
      </trkpt>
      <trkpt lat="45.27502" lon="1.47376">
        <ele>323</ele>
      </trkpt>
      <trkpt lat="45.2746" lon="1.47419">
        <ele>321</ele>
      </trkpt>
      <trkpt lat="45.27422" lon="1.4746">
        <ele>317</ele>
      </trkpt>
      <trkpt lat="45.27381" lon="1.47502">
        <ele>313</ele>
      </trkpt>
      <trkpt lat="45.27368" lon="1.47533">
        <ele>312</ele>
      </trkpt>
      <trkpt lat="45.27358" lon="1.47602">
        <ele>311</ele>
      </trkpt>
      <trkpt lat="45.27313" lon="1.47567">
        <ele>306</ele>
      </trkpt>
      <trkpt lat="45.27252" lon="1.47553">
        <ele>302</ele>
      </trkpt>
      <trkpt lat="45.27202" lon="1.47553">
        <ele>296</ele>
      </trkpt>
      <trkpt lat="45.2715" lon="1.47575">
        <ele>288</ele>
      </trkpt>
      <trkpt lat="45.27107" lon="1.47574">
        <ele>282</ele>
      </trkpt>
      <trkpt lat="45.27076" lon="1.47577">
        <ele>277</ele>
      </trkpt>
      <trkpt lat="45.27059" lon="1.47582">
        <ele>274</ele>
      </trkpt>
      <trkpt lat="45.27045" lon="1.4756">
        <ele>273</ele>
      </trkpt>
      <trkpt lat="45.27019" lon="1.47549">
        <ele>269</ele>
      </trkpt>
      <trkpt lat="45.26997" lon="1.47547">
        <ele>265</ele>
      </trkpt>
      <trkpt lat="45.26978" lon="1.4752">
        <ele>262</ele>
      </trkpt>
      <trkpt lat="45.26963" lon="1.47481">
        <ele>258</ele>
      </trkpt>
      <trkpt lat="45.26952" lon="1.47453">
        <ele>254</ele>
      </trkpt>
      <trkpt lat="45.26933" lon="1.4741">
        <ele>248</ele>
      </trkpt>
      <trkpt lat="45.26911" lon="1.47358">
        <ele>241</ele>
      </trkpt>
      <trkpt lat="45.26898" lon="1.4732">
        <ele>236</ele>
      </trkpt>
      <trkpt lat="45.2689" lon="1.47307">
        <ele>234</ele>
      </trkpt>
      <trkpt lat="45.26898" lon="1.47246">
        <ele>228</ele>
      </trkpt>
      <trkpt lat="45.26906" lon="1.47203">
        <ele>223</ele>
      </trkpt>
      <trkpt lat="45.26908" lon="1.47169">
        <ele>218</ele>
      </trkpt>
      <trkpt lat="45.2691" lon="1.47133">
        <ele>214</ele>
      </trkpt>
      <trkpt lat="45.26928" lon="1.47089">
        <ele>211</ele>
      </trkpt>
      <trkpt lat="45.26949" lon="1.47049">
        <ele>210</ele>
      </trkpt>
      <trkpt lat="45.26958" lon="1.47026">
        <ele>208</ele>
      </trkpt>
      <trkpt lat="45.26957" lon="1.47006">
        <ele>206</ele>
      </trkpt>
      <trkpt lat="45.26966" lon="1.46983">
        <ele>204</ele>
      </trkpt>
      <trkpt lat="45.26973" lon="1.46963">
        <ele>203</ele>
      </trkpt>
      <trkpt lat="45.26982" lon="1.46923">
        <ele>198</ele>
      </trkpt>
      <trkpt lat="45.26993" lon="1.46897">
        <ele>195</ele>
      </trkpt>
      <trkpt lat="45.26993" lon="1.46881">
        <ele>193</ele>
      </trkpt>
      <trkpt lat="45.2699" lon="1.46857">
        <ele>189</ele>
      </trkpt>
      <trkpt lat="45.26987" lon="1.46839">
        <ele>186</ele>
      </trkpt>
      <trkpt lat="45.26968" lon="1.46814">
        <ele>181</ele>
      </trkpt>
      <trkpt lat="45.26958" lon="1.46811">
        <ele>180</ele>
      </trkpt>
      <trkpt lat="45.26948" lon="1.46806">
        <ele>179</ele>
      </trkpt>
      <trkpt lat="45.26938" lon="1.46806">
        <ele>178</ele>
      </trkpt>
      <trkpt lat="45.26926" lon="1.46805">
        <ele>177</ele>
      </trkpt>
      <trkpt lat="45.26916" lon="1.46801">
        <ele>176</ele>
      </trkpt>
      <trkpt lat="45.26905" lon="1.46795">
        <ele>173</ele>
      </trkpt>
      <trkpt lat="45.26897" lon="1.46788">
        <ele>171</ele>
      </trkpt>
      <trkpt lat="45.26886" lon="1.46784">
        <ele>170</ele>
      </trkpt>
      <trkpt lat="45.26875" lon="1.4678">
        <ele>168</ele>
      </trkpt>
      <trkpt lat="45.26866" lon="1.46779">
        <ele>166</ele>
      </trkpt>
      <trkpt lat="45.26863" lon="1.46768">
        <ele>165</ele>
      </trkpt>
      <trkpt lat="45.26858" lon="1.46756">
        <ele>163</ele>
      </trkpt>
      <trkpt lat="45.26852" lon="1.46745">
        <ele>161</ele>
      </trkpt>
      <trkpt lat="45.26844" lon="1.46733">
        <ele>159</ele>
      </trkpt>
      <trkpt lat="45.26837" lon="1.46721">
        <ele>157</ele>
      </trkpt>
      <trkpt lat="45.26833" lon="1.4671">
        <ele>156</ele>
      </trkpt>
      <trkpt lat="45.26823" lon="1.46693">
        <ele>153</ele>
      </trkpt>
      <trkpt lat="45.26817" lon="1.46675">
        <ele>150</ele>
        <time>2019-02-27T17:23:33+01:00</time>
      </trkpt>
      <trkpt lat="45.26812" lon="1.46664">
        <ele>149</ele>
        <time>2019-02-27T17:23:44+01:00</time>
      </trkpt>
      <trkpt lat="45.26802" lon="1.46647">
        <ele>147</ele>
        <time>2019-02-27T17:23:45+01:00</time>
      </trkpt>
      <trkpt lat="45.26799" lon="1.46632">
        <ele>146</ele>
        <time>2019-02-27T17:23:50+01:00</time>
      </trkpt>
      <trkpt lat="45.26792" lon="1.46614">
        <ele>144</ele>
        <time>2019-02-27T17:23:51+01:00</time>
      </trkpt>
      <trkpt lat="45.26783" lon="1.46593">
        <ele>143</ele>
        <time>2019-02-27T17:23:58+01:00</time>
      </trkpt>
      <trkpt lat="45.26777" lon="1.46582">
        <ele>142</ele>
        <time>2019-02-27T17:24:02+01:00</time>
      </trkpt>
      <trkpt lat="45.26763" lon="1.46565">
        <ele>141</ele>
        <time>2019-02-27T17:24:03+01:00</time>
      </trkpt>
      <trkpt lat="45.26756" lon="1.46539">
        <ele>139</ele>
        <time>2019-02-27T17:24:12+01:00</time>
      </trkpt>
      <trkpt lat="45.26744" lon="1.46507">
        <ele>137</ele>
        <time>2019-02-27T17:24:13+01:00</time>
      </trkpt>
      <trkpt lat="45.26735" lon="1.46482">
        <ele>135</ele>
        <time>2019-02-27T17:24:17+01:00</time>
      </trkpt>
      <trkpt lat="45.26722" lon="1.46452">
        <ele>133</ele>
        <time>2019-02-27T17:24:24+01:00</time>
      </trkpt>
      <trkpt lat="45.26731" lon="1.46432">
        <ele>131</ele>
        <time>2019-02-27T17:24:27+01:00</time>
      </trkpt>
      <trkpt lat="45.26744" lon="1.46415">
        <ele>130</ele>
        <time>2019-02-27T17:24:29+01:00</time>
      </trkpt>
      <trkpt lat="45.26762" lon="1.46403">
        <ele>128</ele>
        <time>2019-02-27T17:24:35+01:00</time>
      </trkpt>
      <trkpt lat="45.26786" lon="1.46389">
        <ele>127</ele>
        <time>2019-02-27T17:24:39+01:00</time>
      </trkpt>
      <trkpt lat="45.26805" lon="1.46386">
        <ele>126</ele>
        <time>2019-02-27T17:24:44+01:00</time>
      </trkpt>
      <trkpt lat="45.26826" lon="1.46397">
        <ele>126</ele>
        <time>2019-02-27T17:24:49+01:00</time>
      </trkpt>
      <trkpt lat="45.26842" lon="1.46402">
        <ele>127</ele>
        <time>2019-02-27T17:24:52+01:00</time>
      </trkpt>
      <trkpt lat="45.26853" lon="1.46407">
        <ele>127</ele>
        <time>2019-02-27T17:24:56+01:00</time>
      </trkpt>
      <trkpt lat="45.26861" lon="1.46409">
        <ele>127</ele>
        <time>2019-02-27T17:24:58+01:00</time>
      </trkpt>
      <trkpt lat="45.26871" lon="1.46416">
        <ele>127</ele>
      </trkpt>
      <trkpt lat="45.26882" lon="1.46423">
        <ele>127</ele>
        <time>2019-02-27T17:25:09+01:00</time>
      </trkpt>
      <trkpt lat="45.26892" lon="1.46424">
        <ele>127</ele>
        <time>2019-02-27T17:25:10+01:00</time>
      </trkpt>
      <trkpt lat="45.26903" lon="1.46428">
        <ele>127</ele>
        <time>2019-02-27T17:25:17+01:00</time>
      </trkpt>
      <trkpt lat="45.26913" lon="1.46429">
        <ele>127</ele>
        <time>2019-02-27T17:25:20+01:00</time>
      </trkpt>
      <trkpt lat="45.26925" lon="1.46426">
        <ele>127</ele>
        <time>2019-02-27T17:25:22+01:00</time>
      </trkpt>
      <trkpt lat="45.26938" lon="1.46423">
        <ele>128</ele>
        <time>2019-02-27T17:25:26+01:00</time>
      </trkpt>
      <trkpt lat="45.26953" lon="1.4641">
        <ele>127</ele>
        <time>2019-02-27T17:25:32+01:00</time>
      </trkpt>
      <trkpt lat="45.26975" lon="1.464">
        <ele>127</ele>
        <time>2019-02-27T17:25:40+01:00</time>
      </trkpt>
      <trkpt lat="45.26997" lon="1.46393">
        <ele>127</ele>
        <time>2019-02-27T17:25:46+01:00</time>
      </trkpt>
      <trkpt lat="45.27019" lon="1.46387">
        <ele>128</ele>
        <time>2019-02-27T17:25:50+01:00</time>
      </trkpt>
      <trkpt lat="45.27039" lon="1.46378">
        <ele>129</ele>
        <time>2019-02-27T17:25:52+01:00</time>
      </trkpt>
      <trkpt lat="45.27054" lon="1.46372">
        <ele>129</ele>
        <time>2019-02-27T17:26:01+01:00</time>
      </trkpt>
      <trkpt lat="45.27075" lon="1.46348">
        <ele>126</ele>
        <time>2019-02-27T17:26:02+01:00</time>
      </trkpt>
      <trkpt lat="45.27096" lon="1.46333">
        <ele>125</ele>
        <time>2019-02-27T17:26:09+01:00</time>
      </trkpt>
      <trkpt lat="45.27122" lon="1.46322">
        <ele>127</ele>
        <time>2019-02-27T17:26:10+01:00</time>
      </trkpt>
      <trkpt lat="45.27143" lon="1.46309">
        <ele>127</ele>
        <time>2019-02-27T17:26:14+01:00</time>
      </trkpt>
      <trkpt lat="45.27167" lon="1.46297">
        <ele>127</ele>
        <time>2019-02-27T17:26:23+01:00</time>
      </trkpt>
      <trkpt lat="45.27194" lon="1.46275">
        <ele>126</ele>
        <time>2019-02-27T17:26:26+01:00</time>
      </trkpt>
      <trkpt lat="45.27231" lon="1.46264">
        <ele>128</ele>
        <time>2019-02-27T17:26:30+01:00</time>
      </trkpt>
      <trkpt lat="45.27252" lon="1.46239">
        <ele>127</ele>
        <time>2019-02-27T17:26:31+01:00</time>
      </trkpt>
      <trkpt lat="45.27274" lon="1.46226">
        <ele>128</ele>
        <time>2019-02-27T17:26:36+01:00</time>
      </trkpt>
      <trkpt lat="45.27306" lon="1.46196">
        <ele>126</ele>
      </trkpt>
      <trkpt lat="45.27324" lon="1.46157">
        <ele>123</ele>
      </trkpt>
      <trkpt lat="45.2735" lon="1.46112">
        <ele>123</ele>
        <time>2019-02-27T17:26:39+01:00</time>
      </trkpt>
      <trkpt lat="45.27365" lon="1.46086">
        <ele>122</ele>
        <time>2019-02-27T17:26:49+01:00</time>
      </trkpt>
      <trkpt lat="45.27385" lon="1.46071">
        <ele>122</ele>
        <time>2019-02-27T17:26:53+01:00</time>
      </trkpt>
      <trkpt lat="45.27401" lon="1.46039">
        <ele>121</ele>
        <time>2019-02-27T17:26:56+01:00</time>
      </trkpt>
      <trkpt lat="45.27425" lon="1.46022">
        <ele>121</ele>
        <time>2019-02-27T17:27:00+01:00</time>
      </trkpt>
      <trkpt lat="45.27446" lon="1.45997">
        <ele>120</ele>
        <time>2019-02-27T17:27:07+01:00</time>
      </trkpt>
      <trkpt lat="45.27469" lon="1.45971">
        <ele>118</ele>
        <time>2019-02-27T17:27:10+01:00</time>
      </trkpt>
      <trkpt lat="45.27493" lon="1.45947">
        <ele>118</ele>
        <time>2019-02-27T17:27:14+01:00</time>
      </trkpt>
      <trkpt lat="45.27525" lon="1.45932">
        <ele>118</ele>
        <time>2019-02-27T17:27:21+01:00</time>
      </trkpt>
      <trkpt lat="45.2754" lon="1.45926">
        <ele>118</ele>
      </trkpt>
      <trkpt lat="45.27564" lon="1.45901">
        <ele>118</ele>
        <time>2019-02-27T17:27:29+01:00</time>
      </trkpt>
      <trkpt lat="45.27568" lon="1.45883">
        <ele>118</ele>
        <time>2019-02-27T17:27:30+01:00</time>
      </trkpt>
      <trkpt lat="45.27579" lon="1.45853">
        <ele>118</ele>
        <time>2019-02-27T17:27:36+01:00</time>
      </trkpt>
      <trkpt lat="45.27593" lon="1.45804">
        <ele>117</ele>
        <time>2019-02-27T17:27:51+01:00</time>
      </trkpt>
      <trkpt lat="45.27594" lon="1.45798">
        <ele>117</ele>
        <time>2019-02-27T17:27:56+01:00</time>
      </trkpt>
      <trkpt lat="45.27612" lon="1.45723">
        <ele>116</ele>
        <time>2019-02-27T17:28:11+01:00</time>
      </trkpt>
      <trkpt lat="45.27618" lon="1.45703">
        <ele>116</ele>
        <time>2019-02-27T17:28:14+01:00</time>
      </trkpt>
      <trkpt lat="45.2764" lon="1.45662">
        <ele>117</ele>
        <time>2019-02-27T17:28:21+01:00</time>
      </trkpt>
      <trkpt lat="45.27683" lon="1.4561">
        <ele>118</ele>
        <time>2019-02-27T17:28:35+01:00</time>
      </trkpt>
      <trkpt lat="45.27697" lon="1.45593">
        <ele>118</ele>
        <time>2019-02-27T17:28:40+01:00</time>
      </trkpt>
      <trkpt lat="45.27695" lon="1.45576">
        <ele>118</ele>
        <time>2019-02-27T17:28:44+01:00</time>
      </trkpt>
      <trkpt lat="45.27655" lon="1.45518">
        <ele>119</ele>
        <time>2019-02-27T17:29:02+01:00</time>
      </trkpt>
      <trkpt lat="45.27615" lon="1.45459">
        <ele>121</ele>
        <time>2019-02-27T17:29:18+01:00</time>
      </trkpt>
      <trkpt lat="45.27597" lon="1.45442">
        <ele>122</ele>
        <time>2019-02-27T17:29:25+01:00</time>
      </trkpt>
      <trkpt lat="45.27543" lon="1.4544">
        <ele>123</ele>
        <time>2019-02-27T17:29:43+01:00</time>
      </trkpt>
      <trkpt lat="45.27489" lon="1.4543">
        <ele>125</ele>
        <time>2019-02-27T17:30:01+01:00</time>
      </trkpt>
      <trkpt lat="45.27475" lon="1.45431">
        <ele>124</ele>
        <time>2019-02-27T17:30:06+01:00</time>
      </trkpt>
      <trkpt lat="45.27465" lon="1.45443">
        <ele>124</ele>
        <time>2019-02-27T17:30:10+01:00</time>
      </trkpt>
      <trkpt lat="45.27451" lon="1.45467">
        <ele>123</ele>
        <time>2019-02-27T17:30:16+01:00</time>
      </trkpt>
      <trkpt lat="45.27441" lon="1.45479">
        <ele>122</ele>
        <time>2019-02-27T17:30:19+01:00</time>
      </trkpt>
      <trkpt lat="45.27409" lon="1.45487">
        <ele>122</ele>
        <time>2019-02-27T17:30:26+01:00</time>
      </trkpt>
      <trkpt lat="45.27354" lon="1.45478">
        <ele>120</ele>
        <time>2019-02-27T17:30:37+01:00</time>
      </trkpt>
      <trkpt lat="45.27349" lon="1.45475">
        <ele>119</ele>
        <time>2019-02-27T17:30:38+01:00</time>
      </trkpt>
      <trkpt lat="45.27339" lon="1.45405">
        <ele>118</ele>
        <time>2019-02-27T17:30:47+01:00</time>
      </trkpt>
      <trkpt lat="45.27342" lon="1.45364">
        <ele>115</ele>
        <time>2019-02-27T17:30:51+01:00</time>
      </trkpt>
      <trkpt lat="45.2733" lon="1.4533">
        <ele>113</ele>
        <time>2019-02-27T17:30:55+01:00</time>
      </trkpt>
      <trkpt lat="45.2731" lon="1.45295">
        <ele>113</ele>
        <time>2019-02-27T17:31:00+01:00</time>
      </trkpt>
      <trkpt lat="45.27292" lon="1.45217">
        <ele>114</ele>
        <time>2019-02-27T17:31:11+01:00</time>
      </trkpt>
      <trkpt lat="45.2728" lon="1.45165">
        <ele>114</ele>
        <time>2019-02-27T17:31:19+01:00</time>
      </trkpt>
      <trkpt lat="45.27266" lon="1.45088">
        <ele>116</ele>
        <time>2019-02-27T17:31:32+01:00</time>
      </trkpt>
      <trkpt lat="45.27246" lon="1.45019">
        <ele>117</ele>
        <time>2019-02-27T17:31:44+01:00</time>
      </trkpt>
      <trkpt lat="45.27225" lon="1.44945">
        <ele>117</ele>
        <time>2019-02-27T17:31:57+01:00</time>
      </trkpt>
      <trkpt lat="45.27205" lon="1.4487">
        <ele>117</ele>
        <time>2019-02-27T17:32:11+01:00</time>
      </trkpt>
      <trkpt lat="45.27192" lon="1.44814">
        <ele>118</ele>
        <time>2019-02-27T17:32:21+01:00</time>
      </trkpt>
      <trkpt lat="45.27182" lon="1.44786">
        <ele>120</ele>
        <time>2019-02-27T17:32:26+01:00</time>
      </trkpt>
      <trkpt lat="45.27156" lon="1.44745">
        <ele>121</ele>
        <time>2019-02-27T17:32:35+01:00</time>
      </trkpt>
      <trkpt lat="45.27144" lon="1.44728">
        <ele>121</ele>
        <time>2019-02-27T17:32:39+01:00</time>
      </trkpt>
      <trkpt lat="45.27108" lon="1.4467">
        <ele>119</ele>
        <time>2019-02-27T17:32:52+01:00</time>
      </trkpt>
      <trkpt lat="45.27077" lon="1.44606">
        <ele>121</ele>
        <time>2019-02-27T17:33:06+01:00</time>
      </trkpt>
      <trkpt lat="45.27038" lon="1.44548">
        <ele>121</ele>
        <time>2019-02-27T17:33:24+01:00</time>
      </trkpt>
      <trkpt lat="45.26995" lon="1.44489">
        <ele>120</ele>
        <time>2019-02-27T17:33:36+01:00</time>
      </trkpt>
      <trkpt lat="45.26991" lon="1.44481">
        <ele>121</ele>
        <time>2019-02-27T17:33:37+01:00</time>
      </trkpt>
      <trkpt lat="45.26992" lon="1.44444">
        <ele>121</ele>
        <time>2019-02-27T17:33:42+01:00</time>
      </trkpt>
      <trkpt lat="45.26999" lon="1.44428">
        <ele>122</ele>
        <time>2019-02-27T17:33:45+01:00</time>
      </trkpt>
      <trkpt lat="45.27002" lon="1.44417">
        <ele>122</ele>
        <time>2019-02-27T17:33:47+01:00</time>
      </trkpt>
      <trkpt lat="45.27002" lon="1.4439">
        <ele>123</ele>
        <time>2019-02-27T17:33:52+01:00</time>
      </trkpt>
      <trkpt lat="45.26971" lon="1.44327">
        <ele>126</ele>
        <time>2019-02-27T17:34:08+01:00</time>
      </trkpt>
      <trkpt lat="45.26939" lon="1.44265">
        <ele>128</ele>
        <time>2019-02-27T17:34:27+01:00</time>
      </trkpt>
      <trkpt lat="45.26952" lon="1.44192">
        <ele>130</ele>
        <time>2019-02-27T17:34:44+01:00</time>
      </trkpt>
      <trkpt lat="45.26993" lon="1.4414">
        <ele>131</ele>
        <time>2019-02-27T17:34:59+01:00</time>
      </trkpt>
      <trkpt lat="45.27038" lon="1.44093">
        <ele>129</ele>
        <time>2019-02-27T17:35:13+01:00</time>
      </trkpt>
      <trkpt lat="45.27057" lon="1.44075">
        <ele>130</ele>
        <time>2019-02-27T17:35:18+01:00</time>
      </trkpt>
      <trkpt lat="45.27081" lon="1.44069">
        <ele>129</ele>
        <time>2019-02-27T17:35:24+01:00</time>
      </trkpt>
      <trkpt lat="45.27086" lon="1.44069">
        <ele>129</ele>
        <time>2019-02-27T17:35:25+01:00</time>
      </trkpt>
      <trkpt lat="45.27139" lon="1.44044">
        <ele>130</ele>
        <time>2019-02-27T17:35:39+01:00</time>
      </trkpt>
      <trkpt lat="45.2719" lon="1.44015">
        <ele>131</ele>
        <time>2019-02-27T17:35:54+01:00</time>
      </trkpt>
      <trkpt lat="45.27211" lon="1.44009">
        <ele>131</ele>
        <time>2019-02-27T17:36:01+01:00</time>
      </trkpt>
      <trkpt lat="45.27215" lon="1.44032">
        <ele>130</ele>
        <time>2019-02-27T17:36:06+01:00</time>
      </trkpt>
      <trkpt lat="45.27226" lon="1.44087">
        <ele>129</ele>
        <time>2019-02-27T17:36:14+01:00</time>
      </trkpt>
      <trkpt lat="45.27232" lon="1.44123">
        <ele>128</ele>
        <time>2019-02-27T17:36:19+01:00</time>
      </trkpt>
      <trkpt lat="45.27212" lon="1.4415">
        <ele>127</ele>
        <time>2019-02-27T17:36:25+01:00</time>
      </trkpt>
      <trkpt lat="45.27208" lon="1.44153">
        <ele>126</ele>
        <time>2019-02-27T17:36:26+01:00</time>
      </trkpt>
      <trkpt lat="45.27206" lon="1.44198">
        <ele>125</ele>
        <time>2019-02-27T17:36:39+01:00</time>
      </trkpt>
    </trkseg>
  </trk>
</gpx>